<?xml version='1.0' encoding='UTF-8'?><gpx version="1.1" creator="JPX - https://github.com/jenetics/jpx" xmlns="http://www.topografix.com/GPX/1/1"><trk><trkseg><trkpt lat="45.68000694584374" lon="3.049150655063784"><ele>844.0</ele><time>2026-04-24T15:23:04Z</time></trkpt><trkpt lat="45.68000849229213" lon="3.0490440126838116"><ele>844.0</ele><time>2026-04-24T15:23:06Z</time></trkpt><trkpt lat="45.680058792004864" lon="3.048908339173793"><ele>844.0</ele><time>2026-04-24T15:23:08Z</time></trkpt><trkpt lat="45.68011067124053" lon="3.048767748055625"><ele>844.0</ele><time>2026-04-24T15:23:10Z</time></trkpt><trkpt lat="45.680147530517296" lon="3.048593967069378"><ele>844.0</ele><time>2026-04-24T15:23:12Z</time></trkpt><trkpt lat="45.680168014665014" lon="3.048504985157453"><ele>843.9999999999999</ele><time>2026-04-24T15:23:13Z</time></trkpt><trkpt lat="45.680211996234185" lon="3.048379818324787"><ele>844.0</ele><time>2026-04-24T15:23:15Z</time></trkpt><trkpt lat="45.68025998700081" lon="3.0483096989807223"><ele>844.0</ele><time>2026-04-24T15:23:16Z</time></trkpt><trkpt lat="45.680306874414626" lon="3.0482414888323768"><ele>844.0</ele><time>2026-04-24T15:23:17Z</time></trkpt><trkpt lat="45.680375293942646" lon="3.048112622374207"><ele>843.9999999999999</ele><time>2026-04-24T15:23:19Z</time></trkpt><trkpt lat="45.68039276900329" lon="3.0479817118365538"><ele>844.0</ele><time>2026-04-24T15:23:21Z</time></trkpt><trkpt lat="45.680490567870045" lon="3.0479301315246623"><ele>846.4000000000001</ele><time>2026-04-24T15:23:23Z</time></trkpt><trkpt lat="45.680531161711706" lon="3.0478558219764733"><ele>848.8</ele><time>2026-04-24T15:23:25Z</time></trkpt><trkpt lat="45.68046994681327" lon="3.0477087691105"><ele>851.1999999999999</ele><time>2026-04-24T15:23:27Z</time></trkpt><trkpt lat="45.68042229829448" lon="3.0475876848742094"><ele>853.5999999999999</ele><time>2026-04-24T15:23:29Z</time></trkpt><trkpt lat="45.68046214260799" lon="3.04743418168858"><ele>856.0</ele><time>2026-04-24T15:23:31Z</time></trkpt><trkpt lat="45.680490545901534" lon="3.0473415472208254"><ele>856.6666666666666</ele><time>2026-04-24T15:23:32Z</time></trkpt><trkpt lat="45.68050278413304" lon="3.047247612444963"><ele>857.3333333333333</ele><time>2026-04-24T15:23:33Z</time></trkpt><trkpt lat="45.6805296615464" lon="3.047150980493673"><ele>858.0</ele><time>2026-04-24T15:23:34Z</time></trkpt><trkpt lat="45.68056648114057" lon="3.0470026342186443"><ele>858.6666666666667</ele><time>2026-04-24T15:23:36Z</time></trkpt><trkpt lat="45.68058978797058" lon="3.0469112320858844"><ele>859.3333333333334</ele><time>2026-04-24T15:23:37Z</time></trkpt><trkpt lat="45.680619689170136" lon="3.0467891181054463"><ele>860.0</ele><time>2026-04-24T15:23:38Z</time></trkpt><trkpt lat="45.680657627856384" lon="3.046672465696828"><ele>861.0</ele><time>2026-04-24T15:23:39Z</time></trkpt><trkpt lat="45.68068494925162" lon="3.046582373227611"><ele>862.0</ele><time>2026-04-24T15:23:40Z</time></trkpt><trkpt lat="45.68073026803265" lon="3.0464076831941234"><ele>863.0</ele><time>2026-04-24T15:23:42Z</time></trkpt><trkpt lat="45.680800198301355" lon="3.0462772575965014"><ele>864.0</ele><time>2026-04-24T15:23:44Z</time></trkpt><trkpt lat="45.680888578466295" lon="3.046168548967781"><ele>865.0</ele><time>2026-04-24T15:23:46Z</time></trkpt><trkpt lat="45.680925124169406" lon="3.0460921897351496"><ele>864.9999999999999</ele><time>2026-04-24T15:23:47Z</time></trkpt><trkpt lat="45.680963900320776" lon="3.046008447040919"><ele>865.0</ele><time>2026-04-24T15:23:48Z</time></trkpt><trkpt lat="45.68100890215291" lon="3.045869687379766"><ele>865.0</ele><time>2026-04-24T15:23:50Z</time></trkpt><trkpt lat="45.68105953675201" lon="3.0457092198195532"><ele>865.0</ele><time>2026-04-24T15:23:52Z</time></trkpt><trkpt lat="45.68109662899522" lon="3.0456327807794907"><ele>864.9999999999999</ele><time>2026-04-24T15:23:53Z</time></trkpt><trkpt lat="45.68110623048229" lon="3.0455291847806842"><ele>865.0</ele><time>2026-04-24T15:23:54Z</time></trkpt><trkpt lat="45.68112117178363" lon="3.0454409880800926"><ele>867.4999999999999</ele><time>2026-04-24T15:23:55Z</time></trkpt><trkpt lat="45.681152046345204" lon="3.0453381735152276"><ele>870.0</ele><time>2026-04-24T15:23:56Z</time></trkpt><trkpt lat="45.68117593879531" lon="3.04523830011989"><ele>872.5</ele><time>2026-04-24T15:23:57Z</time></trkpt><trkpt lat="45.68119845582762" lon="3.0451407205467187"><ele>875.0</ele><time>2026-04-24T15:23:58Z</time></trkpt><trkpt lat="45.6811873190136" lon="3.045014167446778"><ele>877.4999999999999</ele><time>2026-04-24T15:24:00Z</time></trkpt><trkpt lat="45.6811552214316" lon="3.0448551209540993"><ele>880.0</ele><time>2026-04-24T15:24:02Z</time></trkpt><trkpt lat="45.68113793110701" lon="3.0447635259847607"><ele>880.4999999999999</ele><time>2026-04-24T15:24:02.999Z</time></trkpt><trkpt lat="45.68111668077117" lon="3.044672359161422"><ele>881.0</ele><time>2026-04-24T15:24:03.999Z</time></trkpt><trkpt lat="45.68109423378367" lon="3.0445618350262404"><ele>881.5</ele><time>2026-04-24T15:24:04.999Z</time></trkpt><trkpt lat="45.68106861076038" lon="3.0444525922532475"><ele>882.0</ele><time>2026-04-24T15:24:05.999Z</time></trkpt><trkpt lat="45.681043652523286" lon="3.0443188842031135"><ele>882.4999999999999</ele><time>2026-04-24T15:24:06.999Z</time></trkpt><trkpt lat="45.68102424422531" lon="3.044220307004257"><ele>883.0</ele><time>2026-04-24T15:24:07.999Z</time></trkpt><trkpt lat="45.681010093359106" lon="3.0441203380691126"><ele>884.5999999999999</ele><time>2026-04-24T15:24:08.999Z</time></trkpt><trkpt lat="45.6809776801124" lon="3.0439380876276485"><ele>886.1999999999999</ele><time>2026-04-24T15:24:10.999Z</time></trkpt><trkpt lat="45.6809517415203" lon="3.043814316307049"><ele>887.8</ele><time>2026-04-24T15:24:11.999Z</time></trkpt><trkpt lat="45.6809305819739" lon="3.0436809698331215"><ele>889.4</ele><time>2026-04-24T15:24:12.999Z</time></trkpt><trkpt lat="45.6808986546296" lon="3.043544316655797"><ele>891.0</ele><time>2026-04-24T15:24:13.999Z</time></trkpt><trkpt lat="45.68087829568779" lon="3.043430110226531"><ele>891.0</ele><time>2026-04-24T15:24:14.999Z</time></trkpt><trkpt lat="45.68084882200165" lon="3.043323905157469"><ele>891.0</ele><time>2026-04-24T15:24:15.999Z</time></trkpt><trkpt lat="45.68082525461111" lon="3.043225275288558"><ele>891.0</ele><time>2026-04-24T15:24:16.999Z</time></trkpt><trkpt lat="45.68081179242223" lon="3.043126152158917"><ele>891.0</ele><time>2026-04-24T15:24:17.999Z</time></trkpt><trkpt lat="45.680773028863655" lon="3.04298434517118"><ele>891.0</ele><time>2026-04-24T15:24:19.999Z</time></trkpt><trkpt lat="45.68074584997853" lon="3.042888756000145"><ele>891.0</ele><time>2026-04-24T15:24:20.999Z</time></trkpt><trkpt lat="45.68067402514157" lon="3.042781029552007"><ele>891.5</ele><time>2026-04-24T15:24:22.999Z</time></trkpt><trkpt lat="45.680610611749344" lon="3.042746235782221"><ele>892.0</ele><time>2026-04-24T15:24:23.999Z</time></trkpt><trkpt lat="45.68053919189116" lon="3.042680658920638"><ele>892.5</ele><time>2026-04-24T15:24:24.999Z</time></trkpt><trkpt lat="45.68047552672538" lon="3.0425912877514794"><ele>893.0</ele><time>2026-04-24T15:24:25.999Z</time></trkpt><trkpt lat="45.68039943944387" lon="3.04250737785116"><ele>893.5</ele><time>2026-04-24T15:24:26.999Z</time></trkpt><trkpt lat="45.68033811891547" lon="3.0424439569565127"><ele>894.0</ele><time>2026-04-24T15:24:27.999Z</time></trkpt><trkpt lat="45.68025527777724" lon="3.0423307983219297"><ele>894.0</ele><time>2026-04-24T15:24:29.999Z</time></trkpt><trkpt lat="45.68025963182514" lon="3.0421546625527913"><ele>894.0000000000001</ele><time>2026-04-24T15:24:31.999Z</time></trkpt><trkpt lat="45.68027052158575" lon="3.0420370705512125"><ele>894.0000000000001</ele><time>2026-04-24T15:24:32.999Z</time></trkpt><trkpt lat="45.68026430908959" lon="3.041905247354772"><ele>894.0</ele><time>2026-04-24T15:24:33.999Z</time></trkpt><trkpt lat="45.68025378605375" lon="3.041769422712683"><ele>894.0</ele><time>2026-04-24T15:24:34.999Z</time></trkpt><trkpt lat="45.680254605455154" lon="3.041660444232521"><ele>894.3333333333334</ele><time>2026-04-24T15:24:35.999Z</time></trkpt><trkpt lat="45.68025043837265" lon="3.0415617551306924"><ele>894.6666666666667</ele><time>2026-04-24T15:24:36.999Z</time></trkpt><trkpt lat="45.68024673453896" lon="3.041374872234128"><ele>895.0</ele><time>2026-04-24T15:24:38.999Z</time></trkpt><trkpt lat="45.68023600004248" lon="3.0412560166270763"><ele>895.3333333333334</ele><time>2026-04-24T15:24:39.999Z</time></trkpt><trkpt lat="45.68022250817375" lon="3.041149397402313"><ele>895.6666666666667</ele><time>2026-04-24T15:24:40.999Z</time></trkpt><trkpt lat="45.680222757040255" lon="3.041041851629575"><ele>896.0</ele><time>2026-04-24T15:24:41.999Z</time></trkpt><trkpt lat="45.68023136109817" lon="3.0409067069744466"><ele>896.4</ele><time>2026-04-24T15:24:42.999Z</time></trkpt><trkpt lat="45.680236661183564" lon="3.0407688458138167"><ele>896.8</ele><time>2026-04-24T15:24:43.999Z</time></trkpt><trkpt lat="45.68023841978621" lon="3.040626897967285"><ele>897.1999999999999</ele><time>2026-04-24T15:24:44.999Z</time></trkpt><trkpt lat="45.68024457975784" lon="3.0405002082123413"><ele>897.5999999999999</ele><time>2026-04-24T15:24:45.999Z</time></trkpt><trkpt lat="45.68025373836655" lon="3.0403785584658087"><ele>898.0</ele><time>2026-04-24T15:24:46.999Z</time></trkpt><trkpt lat="45.68026023854407" lon="3.040235678396239"><ele>898.8333333333333</ele><time>2026-04-24T15:24:47.999Z</time></trkpt><trkpt lat="45.68027057599243" lon="3.0400855825829853"><ele>899.6666666666666</ele><time>2026-04-24T15:24:48.999Z</time></trkpt><trkpt lat="45.68027739563549" lon="3.0399462750767694"><ele>900.5</ele><time>2026-04-24T15:24:49.999Z</time></trkpt><trkpt lat="45.680283208330515" lon="3.0398179013338047"><ele>901.3333333333333</ele><time>2026-04-24T15:24:50.999Z</time></trkpt><trkpt lat="45.68028557491778" lon="3.039715239605305"><ele>902.1666666666666</ele><time>2026-04-24T15:24:51.999Z</time></trkpt><trkpt lat="45.68029184611055" lon="3.0396084910896874"><ele>903.0</ele><time>2026-04-24T15:24:52.999Z</time></trkpt><trkpt lat="45.680298337882" lon="3.039503111025519"><ele>903.5714285714286</ele><time>2026-04-24T15:24:53.999Z</time></trkpt><trkpt lat="45.68030279002569" lon="3.0393954224361437"><ele>904.1428571428571</ele><time>2026-04-24T15:24:54.999Z</time></trkpt><trkpt lat="45.680309028759446" lon="3.039290198034456"><ele>904.7142857142858</ele><time>2026-04-24T15:24:55.999Z</time></trkpt><trkpt lat="45.68031373994876" lon="3.0391970520882725"><ele>905.2857142857143</ele><time>2026-04-24T15:24:56.999Z</time></trkpt><trkpt lat="45.68033258946162" lon="3.0391047790300503"><ele>905.8571428571429</ele><time>2026-04-24T15:24:57.999Z</time></trkpt><trkpt lat="45.68036900350311" lon="3.039024008681791"><ele>906.4285714285716</ele><time>2026-04-24T15:24:58.999Z</time></trkpt><trkpt lat="45.680420374988216" lon="3.0389516208828558"><ele>907.0000000000001</ele><time>2026-04-24T15:24:59.999Z</time></trkpt><trkpt lat="45.68047556896222" lon="3.038877727809371"><ele>907.8</ele><time>2026-04-24T15:25:00.999Z</time></trkpt><trkpt lat="45.68052144441256" lon="3.038800391956796"><ele>908.6</ele><time>2026-04-24T15:25:01.999Z</time></trkpt><trkpt lat="45.680532571930506" lon="3.038650321906044"><ele>909.3999999999999</ele><time>2026-04-24T15:25:03.999Z</time></trkpt><trkpt lat="45.680487127208835" lon="3.0384567088900285"><ele>910.1999999999999</ele><time>2026-04-24T15:25:05.999Z</time></trkpt><trkpt lat="45.6804748196297" lon="3.038341269755113"><ele>911.0</ele><time>2026-04-24T15:25:06.999Z</time></trkpt><trkpt lat="45.68047619329181" lon="3.038236921908934"><ele>911.5999999999999</ele><time>2026-04-24T15:25:07.999Z</time></trkpt><trkpt lat="45.68048494175989" lon="3.038123584622905"><ele>912.1999999999999</ele><time>2026-04-24T15:25:08.999Z</time></trkpt><trkpt lat="45.68050420737737" lon="3.0379793303132523"><ele>912.8000000000001</ele><time>2026-04-24T15:25:09.999Z</time></trkpt><trkpt lat="45.68053035018466" lon="3.0378181256151082"><ele>913.4000000000001</ele><time>2026-04-24T15:25:10.999Z</time></trkpt><trkpt lat="45.68054895533094" lon="3.0376882263777154"><ele>914.0</ele><time>2026-04-24T15:25:11.999Z</time></trkpt><trkpt lat="45.68054818804698" lon="3.037584236787575"><ele>914.0000000000001</ele><time>2026-04-24T15:25:12.999Z</time></trkpt><trkpt lat="45.680540179006535" lon="3.037480958949395"><ele>914.0</ele><time>2026-04-24T15:25:13.999Z</time></trkpt><trkpt lat="45.6805365362385" lon="3.0373657401169396"><ele>914.0</ele><time>2026-04-24T15:25:14.999Z</time></trkpt><trkpt lat="45.68053454175165" lon="3.037247477578128"><ele>914.0</ele><time>2026-04-24T15:25:15.999Z</time></trkpt><trkpt lat="45.68053947818722" lon="3.037129268272662"><ele>914.0000000000001</ele><time>2026-04-24T15:25:16.999Z</time></trkpt><trkpt lat="45.680549894691495" lon="3.0370086223055415"><ele>914.0</ele><time>2026-04-24T15:25:17.999Z</time></trkpt><trkpt lat="45.680551547061405" lon="3.036874513907723"><ele>914.2</ele><time>2026-04-24T15:25:18.999Z</time></trkpt><trkpt lat="45.68055067068149" lon="3.0367486622694777"><ele>914.4000000000001</ele><time>2026-04-24T15:25:19.999Z</time></trkpt><trkpt lat="45.68056777308806" lon="3.0366373121834056"><ele>914.6</ele><time>2026-04-24T15:25:20.999Z</time></trkpt><trkpt lat="45.680605258024094" lon="3.036496988279886"><ele>914.8</ele><time>2026-04-24T15:25:21.999Z</time></trkpt><trkpt lat="45.68063290635117" lon="3.0363491099986026"><ele>915.0</ele><time>2026-04-24T15:25:23Z</time></trkpt><trkpt lat="45.680654471167436" lon="3.0362048479437327"><ele>915.8</ele><time>2026-04-24T15:25:24Z</time></trkpt><trkpt lat="45.68067506316482" lon="3.0360841655629707"><ele>916.6</ele><time>2026-04-24T15:25:25Z</time></trkpt><trkpt lat="45.68069938927819" lon="3.035941849675851"><ele>917.4000000000001</ele><time>2026-04-24T15:25:26Z</time></trkpt><trkpt lat="45.68071231593894" lon="3.035793477649184"><ele>918.2</ele><time>2026-04-24T15:25:27Z</time></trkpt><trkpt lat="45.68072220998578" lon="3.035668298672207"><ele>919.0</ele><time>2026-04-24T15:25:28Z</time></trkpt><trkpt lat="45.68073288445131" lon="3.0355389388071057"><ele>919.4999999999999</ele><time>2026-04-24T15:25:29Z</time></trkpt><trkpt lat="45.68075572241622" lon="3.035401740862939"><ele>920.0</ele><time>2026-04-24T15:25:30Z</time></trkpt><trkpt lat="45.68076772770839" lon="3.035258096517611"><ele>920.5</ele><time>2026-04-24T15:25:31Z</time></trkpt><trkpt lat="45.680758900765" lon="3.035135342220429"><ele>921.0</ele><time>2026-04-24T15:25:32Z</time></trkpt><trkpt lat="45.68075199782711" lon="3.035033784786463"><ele>921.4999999999999</ele><time>2026-04-24T15:25:33Z</time></trkpt><trkpt lat="45.68073042293634" lon="3.0349452141764752"><ele>922.0</ele><time>2026-04-24T15:25:34Z</time></trkpt><trkpt lat="45.68069412434121" lon="3.034839212756989"><ele>921.9999999999999</ele><time>2026-04-24T15:25:35Z</time></trkpt><trkpt lat="45.6806664953666" lon="3.034733546776507"><ele>922.0</ele><time>2026-04-24T15:25:36Z</time></trkpt><trkpt lat="45.680659909243815" lon="3.0346054648193634"><ele>922.0</ele><time>2026-04-24T15:25:37Z</time></trkpt><trkpt lat="45.68066335580446" lon="3.0344857640320457"><ele>922.0</ele><time>2026-04-24T15:25:38Z</time></trkpt><trkpt lat="45.680675417847475" lon="3.034380713435399"><ele>921.9999999999999</ele><time>2026-04-24T15:25:39Z</time></trkpt><trkpt lat="45.68069269057514" lon="3.034276998866163"><ele>922.0</ele><time>2026-04-24T15:25:40Z</time></trkpt><trkpt lat="45.680725696290494" lon="3.0341898392979734"><ele>921.4285714285714</ele><time>2026-04-24T15:25:41Z</time></trkpt><trkpt lat="45.680772357242546" lon="3.0341260360152"><ele>920.8571428571429</ele><time>2026-04-24T15:25:42Z</time></trkpt><trkpt lat="45.6808368321589" lon="3.034095503511584"><ele>920.2857142857143</ele><time>2026-04-24T15:25:44Z</time></trkpt><trkpt lat="45.680899969360915" lon="3.0341346341742406"><ele>919.7142857142858</ele><time>2026-04-24T15:25:48Z</time></trkpt><trkpt lat="45.68096280507189" lon="3.0341196062023594"><ele>919.1428571428571</ele><time>2026-04-24T15:25:50Z</time></trkpt><trkpt lat="45.68104543250527" lon="3.0340744978537955"><ele>918.5714285714287</ele><time>2026-04-24T15:25:53Z</time></trkpt><trkpt lat="45.681127844949906" lon="3.0340726617419076"><ele>918.0</ele><time>2026-04-24T15:25:55Z</time></trkpt><trkpt lat="45.68121839479321" lon="3.034052086136593"><ele>921.2</ele><time>2026-04-24T15:25:57Z</time></trkpt><trkpt lat="45.68129581625301" lon="3.0340389403415915"><ele>924.4</ele><time>2026-04-24T15:25:59Z</time></trkpt><trkpt lat="45.68139794779363" lon="3.03402880261685"><ele>927.6000000000001</ele><time>2026-04-24T15:26:01Z</time></trkpt><trkpt lat="45.681526033154086" lon="3.0340038371832994"><ele>930.8000000000001</ele><time>2026-04-24T15:26:03Z</time></trkpt><trkpt lat="45.681604876626814" lon="3.0339803690439284"><ele>934.0</ele><time>2026-04-24T15:26:04Z</time></trkpt><trkpt lat="45.681692357792116" lon="3.03390690619258"><ele>934.0</ele><time>2026-04-24T15:26:06Z</time></trkpt><trkpt lat="45.68176687152488" lon="3.0338120864692897"><ele>934.0</ele><time>2026-04-24T15:26:08Z</time></trkpt><trkpt lat="45.68184242840078" lon="3.0336588599710335"><ele>934.0</ele><time>2026-04-24T15:26:10Z</time></trkpt><trkpt lat="45.681915761222534" lon="3.0335395298507963"><ele>934.0</ele><time>2026-04-24T15:26:12Z</time></trkpt><trkpt lat="45.68190547682845" lon="3.033365971794841"><ele>934.4999999999999</ele><time>2026-04-24T15:26:14Z</time></trkpt><trkpt lat="45.68186708735526" lon="3.03328941621322"><ele>935.0</ele><time>2026-04-24T15:26:14.999Z</time></trkpt><trkpt lat="45.681824690818736" lon="3.0331175940314306"><ele>935.5</ele><time>2026-04-24T15:26:16.999Z</time></trkpt><trkpt lat="45.68180121954471" lon="3.033031388264067"><ele>936.0</ele><time>2026-04-24T15:26:17.999Z</time></trkpt><trkpt lat="45.681772610818044" lon="3.0329373687977172"><ele>936.4999999999999</ele><time>2026-04-24T15:26:18.999Z</time></trkpt><trkpt lat="45.681732627419414" lon="3.032867596852774"><ele>937.0</ele><time>2026-04-24T15:26:19.999Z</time></trkpt><trkpt lat="45.681660412608096" lon="3.032734756072818"><ele>937.0</ele><time>2026-04-24T15:26:21.999Z</time></trkpt><trkpt lat="45.68162986806157" lon="3.03263728844136"><ele>937.0</ele><time>2026-04-24T15:26:22.999Z</time></trkpt><trkpt lat="45.681634351702336" lon="3.0324518458417606"><ele>937.0</ele><time>2026-04-24T15:26:24.999Z</time></trkpt><trkpt lat="45.68165815471389" lon="3.0323575717237983"><ele>937.0</ele><time>2026-04-24T15:26:25.999Z</time></trkpt><trkpt lat="45.68165982437809" lon="3.0321442626036212"><ele>937.0</ele><time>2026-04-24T15:26:27.999Z</time></trkpt><trkpt lat="45.68166957911578" lon="3.031977740612527"><ele>938.0</ele><time>2026-04-24T15:26:28.999Z</time></trkpt><trkpt lat="45.68167285514798" lon="3.0318198477896687"><ele>939.0</ele><time>2026-04-24T15:26:29.999Z</time></trkpt><trkpt lat="45.68164316162839" lon="3.03169034451417"><ele>940.0</ele><time>2026-04-24T15:26:31.999Z</time></trkpt><trkpt lat="45.68161862864348" lon="3.031597262055466"><ele>941.0</ele><time>2026-04-24T15:26:32.999Z</time></trkpt><trkpt lat="45.68160746575447" lon="3.031417041799528"><ele>942.0</ele><time>2026-04-24T15:26:34.999Z</time></trkpt><trkpt lat="45.68161856919649" lon="3.031281595056543"><ele>942.2</ele><time>2026-04-24T15:26:35.999Z</time></trkpt><trkpt lat="45.68162878673525" lon="3.031148733336023"><ele>942.4000000000001</ele><time>2026-04-24T15:26:36.999Z</time></trkpt><trkpt lat="45.68165348799537" lon="3.0309745133579464"><ele>942.5999999999999</ele><time>2026-04-24T15:26:37.999Z</time></trkpt><trkpt lat="45.68167018218554" lon="3.0308411264235167"><ele>942.8</ele><time>2026-04-24T15:26:38.999Z</time></trkpt><trkpt lat="45.68167454488367" lon="3.0307237374142564"><ele>943.0</ele><time>2026-04-24T15:26:39.999Z</time></trkpt><trkpt lat="45.68167813426317" lon="3.030605739069097"><ele>942.9999999999999</ele><time>2026-04-24T15:26:40.999Z</time></trkpt><trkpt lat="45.68168991360874" lon="3.030492671866155"><ele>943.0</ele><time>2026-04-24T15:26:41.999Z</time></trkpt><trkpt lat="45.681706431316606" lon="3.030387079003035"><ele>943.0</ele><time>2026-04-24T15:26:42.999Z</time></trkpt><trkpt lat="45.68171782684013" lon="3.0302675587286445"><ele>943.0</ele><time>2026-04-24T15:26:43.999Z</time></trkpt><trkpt lat="45.68172065309348" lon="3.030143823059438"><ele>942.9999999999999</ele><time>2026-04-24T15:26:44.999Z</time></trkpt><trkpt lat="45.68171958590164" lon="3.0300126180865687"><ele>943.0</ele><time>2026-04-24T15:26:45.999Z</time></trkpt><trkpt lat="45.68171538709146" lon="3.02987096313007"><ele>944.0</ele><time>2026-04-24T15:26:46.999Z</time></trkpt><trkpt lat="45.68170408445487" lon="3.029729051209172"><ele>945.0</ele><time>2026-04-24T15:26:47.999Z</time></trkpt><trkpt lat="45.68168341285164" lon="3.0296095180090203"><ele>946.0</ele><time>2026-04-24T15:26:48.999Z</time></trkpt><trkpt lat="45.68165503679533" lon="3.0294807329263294"><ele>947.0</ele><time>2026-04-24T15:26:49.999Z</time></trkpt><trkpt lat="45.68163644447313" lon="3.0293618731896204"><ele>948.0</ele><time>2026-04-24T15:26:50.999Z</time></trkpt><trkpt lat="45.681623677054674" lon="3.0292372634908182"><ele>948.8</ele><time>2026-04-24T15:26:51.999Z</time></trkpt><trkpt lat="45.68160047823033" lon="3.0291061311045846"><ele>949.5999999999999</ele><time>2026-04-24T15:26:52.999Z</time></trkpt><trkpt lat="45.68157312732293" lon="3.0289688246089206"><ele>950.4000000000001</ele><time>2026-04-24T15:26:53.999Z</time></trkpt><trkpt lat="45.68155484716324" lon="3.0288321162274046"><ele>951.2</ele><time>2026-04-24T15:26:54.999Z</time></trkpt><trkpt lat="45.6815399155727" lon="3.0286950623567495"><ele>952.0</ele><time>2026-04-24T15:26:55.999Z</time></trkpt><trkpt lat="45.681522675089845" lon="3.028573654282709"><ele>951.9999999999999</ele><time>2026-04-24T15:26:56.999Z</time></trkpt><trkpt lat="45.68149863517501" lon="3.0284531435950592"><ele>952.0</ele><time>2026-04-24T15:26:57.999Z</time></trkpt><trkpt lat="45.681480941053124" lon="3.028335525920536"><ele>952.0</ele><time>2026-04-24T15:26:58.999Z</time></trkpt><trkpt lat="45.68146723219453" lon="3.0282233773575133"><ele>952.0</ele><time>2026-04-24T15:26:59.999Z</time></trkpt><trkpt lat="45.68146225082718" lon="3.0281208688721426"><ele>951.9999999999999</ele><time>2026-04-24T15:27:00.999Z</time></trkpt><trkpt lat="45.68146988052675" lon="3.0280036133101254"><ele>952.0</ele><time>2026-04-24T15:27:01.999Z</time></trkpt><trkpt lat="45.6814984355691" lon="3.0278641108372892"><ele>952.1666666666666</ele><time>2026-04-24T15:27:02.999Z</time></trkpt><trkpt lat="45.68152465200285" lon="3.0277280835102474"><ele>952.3333333333333</ele><time>2026-04-24T15:27:03.999Z</time></trkpt><trkpt lat="45.68152452707968" lon="3.0276089421705668"><ele>952.5</ele><time>2026-04-24T15:27:04.999Z</time></trkpt><trkpt lat="45.68150979790974" lon="3.027491293984369"><ele>952.6666666666667</ele><time>2026-04-24T15:27:05.999Z</time></trkpt><trkpt lat="45.68150368113301" lon="3.027372640944895"><ele>952.8333333333334</ele><time>2026-04-24T15:27:06.999Z</time></trkpt><trkpt lat="45.681511387219" lon="3.0272423055599496"><ele>953.0</ele><time>2026-04-24T15:27:07.999Z</time></trkpt><trkpt lat="45.68151947719481" lon="3.0271230895522234"><ele>952.0000000000001</ele><time>2026-04-24T15:27:08.999Z</time></trkpt><trkpt lat="45.68153598026106" lon="3.027001589504812"><ele>951.0</ele><time>2026-04-24T15:27:09.999Z</time></trkpt><trkpt lat="45.6815533484071" lon="3.026892216011898"><ele>950.0</ele><time>2026-04-24T15:27:10.999Z</time></trkpt><trkpt lat="45.681587798692355" lon="3.026769135366107"><ele>949.0</ele><time>2026-04-24T15:27:11.999Z</time></trkpt><trkpt lat="45.68163076910445" lon="3.026649410323321"><ele>948.0000000000001</ele><time>2026-04-24T15:27:12.999Z</time></trkpt><trkpt lat="45.68168239832227" lon="3.0265371294992502"><ele>947.0</ele><time>2026-04-24T15:27:13.999Z</time></trkpt><trkpt lat="45.681746914447594" lon="3.0263890895744137"><ele>945.5</ele><time>2026-04-24T15:27:14.999Z</time></trkpt><trkpt lat="45.68181202592369" lon="3.026184168815427"><ele>944.0</ele><time>2026-04-24T15:27:15.999Z</time></trkpt><trkpt lat="45.68187017336048" lon="3.0259802599755634"><ele>942.5</ele><time>2026-04-24T15:27:16.999Z</time></trkpt><trkpt lat="45.681901605666695" lon="3.0258307091923013"><ele>941.0</ele><time>2026-04-24T15:27:17.999Z</time></trkpt><trkpt lat="45.681912408316265" lon="3.0257042081500223"><ele>940.5000000000001</ele><time>2026-04-24T15:27:18.999Z</time></trkpt><trkpt lat="45.68192659308049" lon="3.0255965047840365"><ele>940.0</ele><time>2026-04-24T15:27:19.999Z</time></trkpt><trkpt lat="45.681950137905446" lon="3.02550390928773"><ele>939.5</ele><time>2026-04-24T15:27:20.999Z</time></trkpt><trkpt lat="45.681938986808895" lon="3.025332319628863"><ele>939.0</ele><time>2026-04-24T15:27:22.999Z</time></trkpt><trkpt lat="45.68189699230735" lon="3.025241077785347"><ele>938.5000000000001</ele><time>2026-04-24T15:27:24Z</time></trkpt><trkpt lat="45.681856533145705" lon="3.025147598612962"><ele>938.0</ele><time>2026-04-24T15:27:25Z</time></trkpt><trkpt lat="45.681832439308934" lon="3.0250540235710583"><ele>938.1666666666667</ele><time>2026-04-24T15:27:26Z</time></trkpt><trkpt lat="45.6818147189382" lon="3.0249589875209644"><ele>938.3333333333334</ele><time>2026-04-24T15:27:27Z</time></trkpt><trkpt lat="45.6817954420436" lon="3.024860104117214"><ele>938.5</ele><time>2026-04-24T15:27:28Z</time></trkpt><trkpt lat="45.68177261967715" lon="3.0247542142582797"><ele>938.6666666666667</ele><time>2026-04-24T15:27:29Z</time></trkpt><trkpt lat="45.68174626715184" lon="3.0246439304455706"><ele>938.8333333333334</ele><time>2026-04-24T15:27:30Z</time></trkpt><trkpt lat="45.681712299339814" lon="3.0245302435403993"><ele>939.0</ele><time>2026-04-24T15:27:31Z</time></trkpt><trkpt lat="45.68167060600527" lon="3.0244318534741788"><ele>939.0</ele><time>2026-04-24T15:27:32Z</time></trkpt><trkpt lat="45.681626285076256" lon="3.024341711602867"><ele>939.0</ele><time>2026-04-24T15:27:33Z</time></trkpt><trkpt lat="45.6815899009101" lon="3.02426277624316"><ele>939.0</ele><time>2026-04-24T15:27:34Z</time></trkpt><trkpt lat="45.681554658525705" lon="3.0241725284713334"><ele>939.0</ele><time>2026-04-24T15:27:35Z</time></trkpt><trkpt lat="45.68152270838559" lon="3.024065639192931"><ele>939.0</ele><time>2026-04-24T15:27:36Z</time></trkpt><trkpt lat="45.68150149089575" lon="3.023936913365154"><ele>939.0</ele><time>2026-04-24T15:27:37Z</time></trkpt><trkpt lat="45.681485410135515" lon="3.023801450210177"><ele>939.4000000000001</ele><time>2026-04-24T15:27:38Z</time></trkpt><trkpt lat="45.68147181350787" lon="3.023657825047818"><ele>939.8000000000001</ele><time>2026-04-24T15:27:39Z</time></trkpt><trkpt lat="45.681459855953705" lon="3.023509825323312"><ele>940.1999999999999</ele><time>2026-04-24T15:27:40Z</time></trkpt><trkpt lat="45.681438609580496" lon="3.023379152575746"><ele>940.5999999999999</ele><time>2026-04-24T15:27:41Z</time></trkpt><trkpt lat="45.681417660985296" lon="3.0232499476107835"><ele>941.0</ele><time>2026-04-24T15:27:42Z</time></trkpt><trkpt lat="45.68140254180749" lon="3.023129660588856"><ele>941.5000000000001</ele><time>2026-04-24T15:27:43Z</time></trkpt><trkpt lat="45.68136778179219" lon="3.023036519059995"><ele>942.0</ele><time>2026-04-24T15:27:44Z</time></trkpt><trkpt lat="45.68133375537466" lon="3.022934432830958"><ele>942.5</ele><time>2026-04-24T15:27:45Z</time></trkpt><trkpt lat="45.681286929578334" lon="3.0228304159164416"><ele>943.0</ele><time>2026-04-24T15:27:46Z</time></trkpt><trkpt lat="45.68122776544951" lon="3.022726811359057"><ele>943.5000000000001</ele><time>2026-04-24T15:27:47Z</time></trkpt><trkpt lat="45.681155048791304" lon="3.0226322480456647"><ele>944.0</ele><time>2026-04-24T15:27:48Z</time></trkpt><trkpt lat="45.68109291164369" lon="3.0225167474734604"><ele>938.5</ele><time>2026-04-24T15:27:49Z</time></trkpt><trkpt lat="45.6810025138235" lon="3.0224061653905157"><ele>933.0</ele><time>2026-04-24T15:27:50Z</time></trkpt><trkpt lat="45.68090106174307" lon="3.022299744935595"><ele>927.5</ele><time>2026-04-24T15:27:51Z</time></trkpt><trkpt lat="45.68081006438363" lon="3.022190449686459"><ele>922.0</ele><time>2026-04-24T15:27:52Z</time></trkpt><trkpt lat="45.68073887854534" lon="3.0220832614592172"><ele>922.0</ele><time>2026-04-24T15:27:53Z</time></trkpt><trkpt lat="45.68065902149781" lon="3.0219558816179175"><ele>922.0</ele><time>2026-04-24T15:27:54Z</time></trkpt><trkpt lat="45.680585639449525" lon="3.0218488415597498"><ele>922.0</ele><time>2026-04-24T15:27:55Z</time></trkpt><trkpt lat="45.680501394943676" lon="3.021731798111759"><ele>922.0</ele><time>2026-04-24T15:27:56Z</time></trkpt><trkpt lat="45.68041661338118" lon="3.0216449252604356"><ele>922.0</ele><time>2026-04-24T15:27:57Z</time></trkpt><trkpt lat="45.68032269242894" lon="3.0215616382524315"><ele>919.9999999999999</ele><time>2026-04-24T15:27:58Z</time></trkpt><trkpt lat="45.68022767983085" lon="3.021497585865878"><ele>918.0</ele><time>2026-04-24T15:27:59Z</time></trkpt><trkpt lat="45.68015084886465" lon="3.0214444928927584"><ele>916.0</ele><time>2026-04-24T15:28:00Z</time></trkpt><trkpt lat="45.68007541960126" lon="3.0214173047465622"><ele>914.0</ele><time>2026-04-24T15:28:01Z</time></trkpt><trkpt lat="45.68000585822181" lon="3.021407364601727"><ele>911.9999999999999</ele><time>2026-04-24T15:28:02Z</time></trkpt><trkpt lat="45.67992674285619" lon="3.021412599803348"><ele>910.0</ele><time>2026-04-24T15:28:03Z</time></trkpt><trkpt lat="45.67986242755756" lon="3.0214286628731135"><ele>909.9999999999999</ele><time>2026-04-24T15:28:04Z</time></trkpt><trkpt lat="45.67979920806129" lon="3.021437012431199"><ele>910.0</ele><time>2026-04-24T15:28:05Z</time></trkpt><trkpt lat="45.67969698917913" lon="3.0214416440835867"><ele>910.0</ele><time>2026-04-24T15:28:07Z</time></trkpt><trkpt lat="45.679596808382115" lon="3.0214170856211076"><ele>910.0</ele><time>2026-04-24T15:28:09Z</time></trkpt><trkpt lat="45.67955365762355" lon="3.021514928984246"><ele>909.9999999999999</ele><time>2026-04-24T15:28:12Z</time></trkpt><trkpt lat="45.67955577204383" lon="3.0216428640406656"><ele>910.0</ele><time>2026-04-24T15:28:14Z</time></trkpt><trkpt lat="45.67956249211353" lon="3.021745137564331"><ele>909.6666666666666</ele><time>2026-04-24T15:28:15Z</time></trkpt><trkpt lat="45.6795712749711" lon="3.0218577426501554"><ele>909.3333333333333</ele><time>2026-04-24T15:28:16Z</time></trkpt><trkpt lat="45.67960127824193" lon="3.021980725017885"><ele>909.0</ele><time>2026-04-24T15:28:17Z</time></trkpt><trkpt lat="45.67963336094147" lon="3.022088297069823"><ele>908.6666666666667</ele><time>2026-04-24T15:28:18Z</time></trkpt><trkpt lat="45.67966035909051" lon="3.0222039217527796"><ele>908.3333333333334</ele><time>2026-04-24T15:28:19Z</time></trkpt><trkpt lat="45.67966507975978" lon="3.022317162824632"><ele>908.0</ele><time>2026-04-24T15:28:20Z</time></trkpt><trkpt lat="45.67968367121723" lon="3.0224225599962256"><ele>906.8</ele><time>2026-04-24T15:28:21Z</time></trkpt><trkpt lat="45.67972189509216" lon="3.022605330689081"><ele>905.5999999999999</ele><time>2026-04-24T15:28:23Z</time></trkpt><trkpt lat="45.679736189034365" lon="3.0227008653006417"><ele>904.4000000000001</ele><time>2026-04-24T15:28:24Z</time></trkpt><trkpt lat="45.679780920195846" lon="3.0228700177726218"><ele>903.2</ele><time>2026-04-24T15:28:26Z</time></trkpt><trkpt lat="45.67980716279633" lon="3.022952112319759"><ele>902.0</ele><time>2026-04-24T15:28:27Z</time></trkpt><trkpt lat="45.67982432893113" lon="3.0230397677306313"><ele>902.0</ele><time>2026-04-24T15:28:28Z</time></trkpt><trkpt lat="45.679884200696996" lon="3.023080557333636"><ele>902.0</ele><time>2026-04-24T15:28:29Z</time></trkpt><trkpt lat="45.6798882188037" lon="3.0232614685979096"><ele>902.0</ele><time>2026-04-24T15:28:31Z</time></trkpt><trkpt lat="45.67997111674194" lon="3.0233174380938412"><ele>902.0</ele><time>2026-04-24T15:28:33Z</time></trkpt><trkpt lat="45.680212542172136" lon="3.0232110080208843"><ele>902.0</ele><time>2026-04-24T15:28:35Z</time></trkpt><trkpt lat="45.680255083326834" lon="3.023284148986575"><ele>902.0</ele><time>2026-04-24T15:28:36Z</time></trkpt><trkpt lat="45.68035416373614" lon="3.023454497852617"><ele>902.0</ele><time>2026-04-24T15:28:38Z</time></trkpt><trkpt lat="45.680196902201054" lon="3.023788293557085"><ele>901.5000000000001</ele><time>2026-04-24T15:28:39Z</time></trkpt><trkpt lat="45.680211889535585" lon="3.0238909952466253"><ele>901.0</ele><time>2026-04-24T15:28:39.999Z</time></trkpt><trkpt lat="45.68024666664513" lon="3.0239920483951597"><ele>900.5</ele><time>2026-04-24T15:28:40.999Z</time></trkpt><trkpt lat="45.6802784568798" lon="3.0241130390148707"><ele>900.0</ele><time>2026-04-24T15:28:41.999Z</time></trkpt><trkpt lat="45.680308160067774" lon="3.024223819003459"><ele>899.5000000000001</ele><time>2026-04-24T15:28:42.999Z</time></trkpt><trkpt lat="45.68033680740122" lon="3.0243383944652873"><ele>899.0</ele><time>2026-04-24T15:28:43.999Z</time></trkpt><trkpt lat="45.680362576017984" lon="3.024461969527197"><ele>901.6</ele><time>2026-04-24T15:28:44.999Z</time></trkpt><trkpt lat="45.680395304606705" lon="3.02465913821808"><ele>904.2</ele><time>2026-04-24T15:28:46.999Z</time></trkpt><trkpt lat="45.680396990974415" lon="3.0247671012962325"><ele>906.8000000000001</ele><time>2026-04-24T15:28:47.999Z</time></trkpt><trkpt lat="45.68039808261243" lon="3.024881878383839"><ele>909.4000000000001</ele><time>2026-04-24T15:28:48.999Z</time></trkpt><trkpt lat="45.6803967495025" lon="3.024992592740211"><ele>912.0</ele><time>2026-04-24T15:28:49.999Z</time></trkpt><trkpt lat="45.680384810636816" lon="3.0251044753331358"><ele>912.0</ele><time>2026-04-24T15:28:50.999Z</time></trkpt><trkpt lat="45.680369134088934" lon="3.025222722209041"><ele>912.0</ele><time>2026-04-24T15:28:51.999Z</time></trkpt><trkpt lat="45.68035555158138" lon="3.0253357609967186"><ele>912.0</ele><time>2026-04-24T15:28:52.999Z</time></trkpt><trkpt lat="45.68034873528226" lon="3.0254521989353043"><ele>912.0</ele><time>2026-04-24T15:28:53.999Z</time></trkpt><trkpt lat="45.68034526662223" lon="3.025573871716681"><ele>912.0</ele><time>2026-04-24T15:28:54.999Z</time></trkpt><trkpt lat="45.680339099485764" lon="3.02567635737493"><ele>912.0</ele><time>2026-04-24T15:28:55.999Z</time></trkpt><trkpt lat="45.68032178313004" lon="3.025788603818275"><ele>912.5</ele><time>2026-04-24T15:28:57Z</time></trkpt><trkpt lat="45.68030654196966" lon="3.0259068516548813"><ele>913.0</ele><time>2026-04-24T15:28:57.999Z</time></trkpt><trkpt lat="45.68029193985454" lon="3.0260213712464763"><ele>913.5</ele><time>2026-04-24T15:28:58.999Z</time></trkpt><trkpt lat="45.68026379999256" lon="3.0261343993238725"><ele>914.0</ele><time>2026-04-24T15:28:59.999Z</time></trkpt><trkpt lat="45.680224816009975" lon="3.02624923563977"><ele>914.5</ele><time>2026-04-24T15:29:00.999Z</time></trkpt><trkpt lat="45.68019218748789" lon="3.0263486036098763"><ele>915.0</ele><time>2026-04-24T15:29:01.999Z</time></trkpt><trkpt lat="45.68016945303126" lon="3.026444988471624"><ele>912.3333333333334</ele><time>2026-04-24T15:29:02.999Z</time></trkpt><trkpt lat="45.68013827367455" lon="3.0265266260425996"><ele>909.6666666666667</ele><time>2026-04-24T15:29:03.999Z</time></trkpt><trkpt lat="45.68011280947456" lon="3.02661421090975"><ele>907.0</ele><time>2026-04-24T15:29:04.999Z</time></trkpt><trkpt lat="45.68009139966764" lon="3.026720471026579"><ele>904.3333333333334</ele><time>2026-04-24T15:29:05.999Z</time></trkpt><trkpt lat="45.68004188372317" lon="3.0269199998455893"><ele>901.6666666666667</ele><time>2026-04-24T15:29:07.999Z</time></trkpt><trkpt lat="45.68001705610369" lon="3.027021826798083"><ele>899.0</ele><time>2026-04-24T15:29:08.999Z</time></trkpt><trkpt lat="45.680003703112014" lon="3.0271281878495393"><ele>899.0000000000001</ele><time>2026-04-24T15:29:09.999Z</time></trkpt><trkpt lat="45.67998266277326" lon="3.0272152995527373"><ele>899.0</ele><time>2026-04-24T15:29:10.999Z</time></trkpt><trkpt lat="45.679966052718996" lon="3.027331912645439"><ele>899.0</ele><time>2026-04-24T15:29:11.999Z</time></trkpt><trkpt lat="45.67996332060818" lon="3.027446486341896"><ele>899.0</ele><time>2026-04-24T15:29:12.999Z</time></trkpt><trkpt lat="45.67996866224353" lon="3.027570196352972"><ele>899.0000000000001</ele><time>2026-04-24T15:29:13.999Z</time></trkpt><trkpt lat="45.67997147956454" lon="3.0276959630504736"><ele>899.0</ele><time>2026-04-24T15:29:15Z</time></trkpt><trkpt lat="45.67997293893929" lon="3.027794003168417"><ele>899.1666666666667</ele><time>2026-04-24T15:29:16Z</time></trkpt><trkpt lat="45.67998219166581" lon="3.027898918580276"><ele>899.3333333333334</ele><time>2026-04-24T15:29:17Z</time></trkpt><trkpt lat="45.67999639599758" lon="3.0280082608848167"><ele>899.5</ele><time>2026-04-24T15:29:18Z</time></trkpt><trkpt lat="45.68003513114213" lon="3.028175991934385"><ele>899.6666666666667</ele><time>2026-04-24T15:29:20Z</time></trkpt><trkpt lat="45.6800677200409" lon="3.028290224302232"><ele>899.8333333333334</ele><time>2026-04-24T15:29:22Z</time></trkpt><trkpt lat="45.68005557798865" lon="3.0284071917217625"><ele>900.0</ele><time>2026-04-24T15:29:24Z</time></trkpt><trkpt lat="45.679971686319135" lon="3.0285535586098282"><ele>900.0000000000001</ele><time>2026-04-24T15:29:26Z</time></trkpt><trkpt lat="45.67993254218733" lon="3.0286295853536083"><ele>900.0</ele><time>2026-04-24T15:29:27Z</time></trkpt><trkpt lat="45.679895571735656" lon="3.0287156269428857"><ele>900.0000000000001</ele><time>2026-04-24T15:29:28Z</time></trkpt><trkpt lat="45.67985722004981" lon="3.02880318540959"><ele>900.0000000000001</ele><time>2026-04-24T15:29:29Z</time></trkpt><trkpt lat="45.67981564014637" lon="3.0288794250278785"><ele>900.0</ele><time>2026-04-24T15:29:30Z</time></trkpt><trkpt lat="45.679773370201495" lon="3.028968184609243"><ele>900.0000000000001</ele><time>2026-04-24T15:29:31Z</time></trkpt><trkpt lat="45.6797291846245" lon="3.029033341067286"><ele>900.0000000000001</ele><time>2026-04-24T15:29:32Z</time></trkpt><trkpt lat="45.67968818542778" lon="3.0291243061080873"><ele>899.6</ele><time>2026-04-24T15:29:33Z</time></trkpt><trkpt lat="45.67964794153242" lon="3.029212050239968"><ele>899.2</ele><time>2026-04-24T15:29:34Z</time></trkpt><trkpt lat="45.67957160355656" lon="3.0293564654381195"><ele>898.8</ele><time>2026-04-24T15:29:36Z</time></trkpt><trkpt lat="45.67952482223587" lon="3.0294311962564926"><ele>898.4</ele><time>2026-04-24T15:29:37Z</time></trkpt><trkpt lat="45.679441987772215" lon="3.029568622608653"><ele>898.0</ele><time>2026-04-24T15:29:39Z</time></trkpt><trkpt lat="45.67939724447957" lon="3.0296418826628395"><ele>894.0</ele><time>2026-04-24T15:29:40Z</time></trkpt><trkpt lat="45.679332787085016" lon="3.029799805834276"><ele>890.0</ele><time>2026-04-24T15:29:42Z</time></trkpt><trkpt lat="45.679294882938294" lon="3.029973933621414"><ele>886.0</ele><time>2026-04-24T15:29:44Z</time></trkpt><trkpt lat="45.6792655931625" lon="3.0300751285455343"><ele>882.0</ele><time>2026-04-24T15:29:45Z</time></trkpt><trkpt lat="45.6792429988969" lon="3.030174102166363"><ele>878.0</ele><time>2026-04-24T15:29:46Z</time></trkpt><trkpt lat="45.679220054964425" lon="3.0302713120815707"><ele>877.5714285714286</ele><time>2026-04-24T15:29:47Z</time></trkpt><trkpt lat="45.67919781529622" lon="3.03036608358663"><ele>877.1428571428571</ele><time>2026-04-24T15:29:48Z</time></trkpt><trkpt lat="45.679183052603896" lon="3.03045892971921"><ele>876.7142857142858</ele><time>2026-04-24T15:29:49Z</time></trkpt><trkpt lat="45.67916764781715" lon="3.0305578590217848"><ele>876.2857142857142</ele><time>2026-04-24T15:29:50Z</time></trkpt><trkpt lat="45.67915605266585" lon="3.030674693667444"><ele>875.8571428571429</ele><time>2026-04-24T15:29:51Z</time></trkpt><trkpt lat="45.67914311691047" lon="3.0307852472372034"><ele>875.4285714285714</ele><time>2026-04-24T15:29:52Z</time></trkpt><trkpt lat="45.679135423669265" lon="3.0308931605363854"><ele>875.0</ele><time>2026-04-24T15:29:53Z</time></trkpt><trkpt lat="45.679124550657264" lon="3.0309914961524074"><ele>874.8</ele><time>2026-04-24T15:29:54Z</time></trkpt><trkpt lat="45.67911580920857" lon="3.031114129172646"><ele>874.6</ele><time>2026-04-24T15:29:55Z</time></trkpt><trkpt lat="45.67910387711339" lon="3.0312244761432043"><ele>874.4000000000001</ele><time>2026-04-24T15:29:56Z</time></trkpt><trkpt lat="45.67909812611996" lon="3.0314194059755426"><ele>874.2</ele><time>2026-04-24T15:29:58Z</time></trkpt><trkpt lat="45.67909584180551" lon="3.031534986574838"><ele>874.0</ele><time>2026-04-24T15:29:59Z</time></trkpt><trkpt lat="45.67909628769646" lon="3.031642614307734"><ele>874.6666666666666</ele><time>2026-04-24T15:30:00Z</time></trkpt><trkpt lat="45.67909640366515" lon="3.0317473474722623"><ele>875.3333333333333</ele><time>2026-04-24T15:30:01Z</time></trkpt><trkpt lat="45.679082903902255" lon="3.031841452492273"><ele>876.0</ele><time>2026-04-24T15:30:02Z</time></trkpt><trkpt lat="45.67905496281795" lon="3.0319821762125696"><ele>876.6666666666667</ele><time>2026-04-24T15:30:04Z</time></trkpt><trkpt lat="45.679052913081925" lon="3.0320967940140213"><ele>877.3333333333334</ele><time>2026-04-24T15:30:06Z</time></trkpt><trkpt lat="45.67904805770318" lon="3.0322309266214704"><ele>878.0</ele><time>2026-04-24T15:30:08Z</time></trkpt><trkpt lat="45.67902684881523" lon="3.0323747016812814"><ele>878.0000000000001</ele><time>2026-04-24T15:30:10Z</time></trkpt><trkpt lat="45.67899945049665" lon="3.0325206302440026"><ele>878.0</ele><time>2026-04-24T15:30:12Z</time></trkpt><trkpt lat="45.678988386517396" lon="3.0326552555987663"><ele>878.0</ele><time>2026-04-24T15:30:14Z</time></trkpt><trkpt lat="45.67895060896512" lon="3.032734387114615"><ele>878.0</ele><time>2026-04-24T15:30:15Z</time></trkpt><trkpt lat="45.67893136321681" lon="3.032832941581874"><ele>878.0000000000001</ele><time>2026-04-24T15:30:16Z</time></trkpt><trkpt lat="45.67890171340908" lon="3.0329527876495463"><ele>878.0</ele><time>2026-04-24T15:30:17Z</time></trkpt><trkpt lat="45.678880523867285" lon="3.0330509191547645"><ele>878.0000000000001</ele><time>2026-04-24T15:30:18Z</time></trkpt><trkpt lat="45.67886166207467" lon="3.0331383983837528"><ele>878.0</ele><time>2026-04-24T15:30:19Z</time></trkpt><trkpt lat="45.67883895993641" lon="3.033254184993468"><ele>878.0</ele><time>2026-04-24T15:30:20Z</time></trkpt><trkpt lat="45.678814474992365" lon="3.0333783486674926"><ele>878.0</ele><time>2026-04-24T15:30:21Z</time></trkpt><trkpt lat="45.67878795132043" lon="3.0334903239676883"><ele>878.0000000000001</ele><time>2026-04-24T15:30:22Z</time></trkpt><trkpt lat="45.67876659060678" lon="3.033580068600313"><ele>878.0</ele><time>2026-04-24T15:30:23Z</time></trkpt><trkpt lat="45.67875453585257" lon="3.033674588429461"><ele>878.4</ele><time>2026-04-24T15:30:24Z</time></trkpt><trkpt lat="45.678733812467165" lon="3.03378009462819"><ele>878.8</ele><time>2026-04-24T15:30:25Z</time></trkpt><trkpt lat="45.678717643094934" lon="3.033879511124117"><ele>879.2</ele><time>2026-04-24T15:30:26Z</time></trkpt><trkpt lat="45.67869288246527" lon="3.0339674513930968"><ele>879.6</ele><time>2026-04-24T15:30:27Z</time></trkpt><trkpt lat="45.67865505441287" lon="3.0341418993539633"><ele>880.0</ele><time>2026-04-24T15:30:29Z</time></trkpt><trkpt lat="45.67861083342501" lon="3.034320627371048"><ele>877.8571428571428</ele><time>2026-04-24T15:30:31Z</time></trkpt><trkpt lat="45.678579448348266" lon="3.0344298565523644"><ele>875.7142857142857</ele><time>2026-04-24T15:30:32Z</time></trkpt><trkpt lat="45.678565992445954" lon="3.034518916543426"><ele>873.5714285714286</ele><time>2026-04-24T15:30:33Z</time></trkpt><trkpt lat="45.67853408674357" lon="3.034611496872"><ele>871.4285714285713</ele><time>2026-04-24T15:30:34Z</time></trkpt><trkpt lat="45.67850988216048" lon="3.0347073710346364"><ele>869.2857142857143</ele><time>2026-04-24T15:30:35Z</time></trkpt><trkpt lat="45.678487379306276" lon="3.0348050867752754"><ele>867.1428571428571</ele><time>2026-04-24T15:30:36Z</time></trkpt><trkpt lat="45.6784665036078" lon="3.034900194863396"><ele>865.0</ele><time>2026-04-24T15:30:37Z</time></trkpt><trkpt lat="45.67842987331398" lon="3.035044835662333"><ele>864.9999999999999</ele><time>2026-04-24T15:30:39Z</time></trkpt><trkpt lat="45.678349275414284" lon="3.035124069900108"><ele>865.0</ele><time>2026-04-24T15:30:41Z</time></trkpt><trkpt lat="45.678280801421664" lon="3.0351621565725817"><ele>865.0</ele><time>2026-04-24T15:30:42Z</time></trkpt><trkpt lat="45.678205642401686" lon="3.035165815956821"><ele>865.0</ele><time>2026-04-24T15:30:43Z</time></trkpt><trkpt lat="45.678156509509776" lon="3.0352332373373625"><ele>864.9999999999999</ele><time>2026-04-24T15:30:44Z</time></trkpt><trkpt lat="45.67810545146237" lon="3.035327640263596"><ele>865.0</ele><time>2026-04-24T15:30:45Z</time></trkpt><trkpt lat="45.678062910119" lon="3.0354552697521346"><ele>865.0</ele><time>2026-04-24T15:30:47Z</time></trkpt><trkpt lat="45.67807271767564" lon="3.03560047107519"><ele>865.0</ele><time>2026-04-24T15:30:49Z</time></trkpt><trkpt lat="45.67809625373256" lon="3.0357622534857365"><ele>865.0</ele><time>2026-04-24T15:30:51Z</time></trkpt><trkpt lat="45.67808983425104" lon="3.0359314213248814"><ele>865.0</ele><time>2026-04-24T15:30:53Z</time></trkpt><trkpt lat="45.67807617295936" lon="3.0360664542479063"><ele>865.0</ele><time>2026-04-24T15:30:55Z</time></trkpt><trkpt lat="45.678036339993355" lon="3.0361643449505773"><ele>865.0</ele><time>2026-04-24T15:30:57Z</time></trkpt><trkpt lat="45.67798131738922" lon="3.036286301148237"><ele>865.0</ele><time>2026-04-24T15:30:59Z</time></trkpt><trkpt lat="45.67791588719943" lon="3.0364221386942787"><ele>865.0</ele><time>2026-04-24T15:31:01Z</time></trkpt><trkpt lat="45.67784726787854" lon="3.036575434225207"><ele>865.0</ele><time>2026-04-24T15:31:03Z</time></trkpt><trkpt lat="45.67781808155204" lon="3.0366618769963796"><ele>865.0</ele><time>2026-04-24T15:31:04Z</time></trkpt><trkpt lat="45.67780066277873" lon="3.0367537448630606"><ele>864.8333333333333</ele><time>2026-04-24T15:31:05Z</time></trkpt><trkpt lat="45.67778662006619" lon="3.036857539413376"><ele>864.6666666666666</ele><time>2026-04-24T15:31:06Z</time></trkpt><trkpt lat="45.67777857775842" lon="3.036950513063473"><ele>864.5</ele><time>2026-04-24T15:31:07Z</time></trkpt><trkpt lat="45.67776541694059" lon="3.037039845814906"><ele>864.3333333333333</ele><time>2026-04-24T15:31:08Z</time></trkpt><trkpt lat="45.67774882065384" lon="3.0371294835224907"><ele>864.1666666666666</ele><time>2026-04-24T15:31:09Z</time></trkpt><trkpt lat="45.67772271581203" lon="3.0373004476278997"><ele>864.0</ele><time>2026-04-24T15:31:11Z</time></trkpt><trkpt lat="45.67770823987407" lon="3.0374628348486534"><ele>859.0</ele><time>2026-04-24T15:31:13Z</time></trkpt><trkpt lat="45.677687378335406" lon="3.0376235782724943"><ele>854.0000000000001</ele><time>2026-04-24T15:31:15Z</time></trkpt><trkpt lat="45.6776617298846" lon="3.0377766025294335"><ele>849.0</ele><time>2026-04-24T15:31:17Z</time></trkpt><trkpt lat="45.67764211741483" lon="3.0379173631215695"><ele>844.0</ele><time>2026-04-24T15:31:19Z</time></trkpt><trkpt lat="45.67762052327369" lon="3.0380224391617072"><ele>839.0</ele><time>2026-04-24T15:31:21Z</time></trkpt><trkpt lat="45.67760101798691" lon="3.038145904423178"><ele>839.0</ele><time>2026-04-24T15:31:23Z</time></trkpt><trkpt lat="45.67758418442975" lon="3.038288677442127"><ele>839.0</ele><time>2026-04-24T15:31:25Z</time></trkpt><trkpt lat="45.67756991556746" lon="3.0384752614583963"><ele>839.0</ele><time>2026-04-24T15:31:27Z</time></trkpt><trkpt lat="45.67755781555379" lon="3.038584849411819"><ele>839.0</ele><time>2026-04-24T15:31:28Z</time></trkpt><trkpt lat="45.67754935466489" lon="3.038686074240252"><ele>839.0</ele><time>2026-04-24T15:31:29Z</time></trkpt><trkpt lat="45.67754514227914" lon="3.0387906758087104"><ele>838.6666666666667</ele><time>2026-04-24T15:31:30Z</time></trkpt><trkpt lat="45.67754174699638" lon="3.03889123898191"><ele>838.3333333333334</ele><time>2026-04-24T15:31:31Z</time></trkpt><trkpt lat="45.67753841818231" lon="3.0389855270194794"><ele>838.0</ele><time>2026-04-24T15:31:32Z</time></trkpt><trkpt lat="45.67753739926725" lon="3.039090126898373"><ele>837.6666666666667</ele><time>2026-04-24T15:31:33Z</time></trkpt><trkpt lat="45.67754560187739" lon="3.0391812825749174"><ele>837.3333333333334</ele><time>2026-04-24T15:31:34Z</time></trkpt><trkpt lat="45.677552843965984" lon="3.0393514690321175"><ele>837.0</ele><time>2026-04-24T15:31:36Z</time></trkpt><trkpt lat="45.677520704506776" lon="3.0394905895822166"><ele>836.4000000000001</ele><time>2026-04-24T15:31:38Z</time></trkpt><trkpt lat="45.67744494348282" lon="3.0396228791989155"><ele>835.8000000000001</ele><time>2026-04-24T15:31:40Z</time></trkpt><trkpt lat="45.67739675457488" lon="3.0396934203101353"><ele>835.2</ele><time>2026-04-24T15:31:41Z</time></trkpt><trkpt lat="45.67732221020557" lon="3.039850202272763"><ele>834.6</ele><time>2026-04-24T15:31:43Z</time></trkpt><trkpt lat="45.677284616203956" lon="3.039938551406161"><ele>834.0</ele><time>2026-04-24T15:31:44Z</time></trkpt><trkpt lat="45.67725280690315" lon="3.040028694955007"><ele>833.4000000000001</ele><time>2026-04-24T15:31:45Z</time></trkpt><trkpt lat="45.67719684974098" lon="3.0401813599589818"><ele>832.8</ele><time>2026-04-24T15:31:47Z</time></trkpt><trkpt lat="45.677135398541594" lon="3.0403155126574504"><ele>832.2</ele><time>2026-04-24T15:31:49Z</time></trkpt><trkpt lat="45.67707795673497" lon="3.0404469459184513"><ele>831.5999999999999</ele><time>2026-04-24T15:31:51Z</time></trkpt><trkpt lat="45.67703897444065" lon="3.0405181672019475"><ele>831.0</ele><time>2026-04-24T15:31:52Z</time></trkpt><trkpt lat="45.677000995503484" lon="3.040594246114257"><ele>831.0</ele><time>2026-04-24T15:31:53Z</time></trkpt><trkpt lat="45.67696447166732" lon="3.0406783442947285"><ele>831.0</ele><time>2026-04-24T15:31:54Z</time></trkpt><trkpt lat="45.67691235032981" lon="3.0408195170526193"><ele>831.0</ele><time>2026-04-24T15:31:56Z</time></trkpt><trkpt lat="45.67686524111112" lon="3.0409264314826974"><ele>831.0</ele><time>2026-04-24T15:31:58Z</time></trkpt><trkpt lat="45.67681123474361" lon="3.0410056930690246"><ele>831.0</ele><time>2026-04-24T15:32:00Z</time></trkpt><trkpt lat="45.67674740473547" lon="3.040956658363632"><ele>831.0</ele><time>2026-04-24T15:32:03Z</time></trkpt><trkpt lat="45.676715128446936" lon="3.0408522173816355"><ele>825.8</ele><time>2026-04-24T15:32:06Z</time></trkpt><trkpt lat="45.67669430541489" lon="3.0407646173181186"><ele>820.5999999999999</ele><time>2026-04-24T15:32:08Z</time></trkpt><trkpt lat="45.676673932956994" lon="3.0406412447174023"><ele>815.4</ele><time>2026-04-24T15:32:10Z</time></trkpt><trkpt lat="45.67664365342811" lon="3.040533800890906"><ele>810.2</ele><time>2026-04-24T15:32:12Z</time></trkpt><trkpt lat="45.67658543945159" lon="3.0404009972219894"><ele>805.0</ele><time>2026-04-24T15:32:14Z</time></trkpt><trkpt lat="45.67651173853903" lon="3.04026357818774"><ele>805.0</ele><time>2026-04-24T15:32:16Z</time></trkpt><trkpt lat="45.67648090864249" lon="3.0401839660579593"><ele>805.0</ele><time>2026-04-24T15:32:17Z</time></trkpt><trkpt lat="45.67642942139371" lon="3.040028721112712"><ele>805.0</ele><time>2026-04-24T15:32:19Z</time></trkpt><trkpt lat="45.67637698146606" lon="3.0398748231285393"><ele>805.0</ele><time>2026-04-24T15:32:21Z</time></trkpt><trkpt lat="45.67633255732277" lon="3.0397289224648025"><ele>805.0</ele><time>2026-04-24T15:32:23Z</time></trkpt><trkpt lat="45.676283866892035" lon="3.039556242813282"><ele>806.75</ele><time>2026-04-24T15:32:25Z</time></trkpt><trkpt lat="45.676224714534015" lon="3.039402787769571"><ele>808.5</ele><time>2026-04-24T15:32:27Z</time></trkpt><trkpt lat="45.676175577647555" lon="3.0392410135715484"><ele>810.25</ele><time>2026-04-24T15:32:29Z</time></trkpt><trkpt lat="45.67611059457342" lon="3.0390905176984746"><ele>812.0</ele><time>2026-04-24T15:32:31Z</time></trkpt><trkpt lat="45.67604268220999" lon="3.038972590866005"><ele>808.4000000000001</ele><time>2026-04-24T15:32:33Z</time></trkpt><trkpt lat="45.6759557389799" lon="3.0388377556263353"><ele>804.8000000000001</ele><time>2026-04-24T15:32:35Z</time></trkpt><trkpt lat="45.67585986624214" lon="3.038746071783389"><ele>801.2</ele><time>2026-04-24T15:32:37Z</time></trkpt><trkpt lat="45.67579720683649" lon="3.038715654309499"><ele>797.6</ele><time>2026-04-24T15:32:38Z</time></trkpt><trkpt lat="45.675738947808966" lon="3.0386780329732033"><ele>794.0</ele><time>2026-04-24T15:32:39Z</time></trkpt><trkpt lat="45.67563582480776" lon="3.038567603914691"><ele>794.0</ele><time>2026-04-24T15:32:41Z</time></trkpt><trkpt lat="45.67556120899291" lon="3.0384190116614778"><ele>794.0</ele><time>2026-04-24T15:32:43Z</time></trkpt><trkpt lat="45.675527571383086" lon="3.038336830862189"><ele>794.0</ele><time>2026-04-24T15:32:44Z</time></trkpt><trkpt lat="45.675487575571076" lon="3.038263686379706"><ele>794.0</ele><time>2026-04-24T15:32:45Z</time></trkpt><trkpt lat="45.675397830249814" lon="3.038145958109751"><ele>794.0</ele><time>2026-04-24T15:32:47Z</time></trkpt><trkpt lat="45.67530681771559" lon="3.0380536253638137"><ele>791.2</ele><time>2026-04-24T15:32:49Z</time></trkpt><trkpt lat="45.675249418258794" lon="3.03801389573645"><ele>788.4000000000001</ele><time>2026-04-24T15:32:50Z</time></trkpt><trkpt lat="45.675152462651056" lon="3.0379329299180826"><ele>785.6</ele><time>2026-04-24T15:32:52Z</time></trkpt><trkpt lat="45.675063792294644" lon="3.0378403177599607"><ele>782.8</ele><time>2026-04-24T15:32:54Z</time></trkpt><trkpt lat="45.67501683042539" lon="3.037703855930298"><ele>780.0</ele><time>2026-04-24T15:32:56Z</time></trkpt><trkpt lat="45.674967729526216" lon="3.037574338687201"><ele>780.0</ele><time>2026-04-24T15:32:58Z</time></trkpt><trkpt lat="45.67488429329749" lon="3.0375103001000396"><ele>780.0</ele><time>2026-04-24T15:33:00Z</time></trkpt><trkpt lat="45.67481045142289" lon="3.0374679261737083"><ele>780.0</ele><time>2026-04-24T15:33:02Z</time></trkpt><trkpt lat="45.67475184938643" lon="3.0373821331882964"><ele>780.0</ele><time>2026-04-24T15:33:04Z</time></trkpt><trkpt lat="45.674683709202085" lon="3.037330268583778"><ele>780.0</ele><time>2026-04-24T15:33:07Z</time></trkpt><trkpt lat="45.67461775067482" lon="3.037404787517633"><ele>780.0</ele><time>2026-04-24T15:33:09Z</time></trkpt><trkpt lat="45.67453706555485" lon="3.0375056721358282"><ele>780.0</ele><time>2026-04-24T15:33:11Z</time></trkpt><trkpt lat="45.674456286096905" lon="3.037603822259569"><ele>780.0</ele><time>2026-04-24T15:33:13Z</time></trkpt><trkpt lat="45.67436716538125" lon="3.0376958363339117"><ele>780.0</ele><time>2026-04-24T15:33:15Z</time></trkpt><trkpt lat="45.67427109924044" lon="3.037765757083123"><ele>780.0</ele><time>2026-04-24T15:33:17Z</time></trkpt><trkpt lat="45.6741635751509" lon="3.0378034106321565"><ele>780.0</ele><time>2026-04-24T15:33:19Z</time></trkpt><trkpt lat="45.674069342358266" lon="3.0378425227909522"><ele>776.4</ele><time>2026-04-24T15:33:21Z</time></trkpt><trkpt lat="45.67402008345246" lon="3.037960630302563"><ele>772.8</ele><time>2026-04-24T15:33:23Z</time></trkpt><trkpt lat="45.67399626059259" lon="3.0381037883811146"><ele>769.2</ele><time>2026-04-24T15:33:25Z</time></trkpt><trkpt lat="45.673969820579785" lon="3.038248116679741"><ele>765.6</ele><time>2026-04-24T15:33:26.999Z</time></trkpt><trkpt lat="45.6740094839845" lon="3.0384045829897377"><ele>762.0</ele><time>2026-04-24T15:33:28.999Z</time></trkpt><trkpt lat="45.67403144952089" lon="3.038555664011958"><ele>761.8</ele><time>2026-04-24T15:33:30.999Z</time></trkpt><trkpt lat="45.6740584000897" lon="3.0387046305044567"><ele>761.6</ele><time>2026-04-24T15:33:32.999Z</time></trkpt><trkpt lat="45.674068431553295" lon="3.0388290406252882"><ele>761.4</ele><time>2026-04-24T15:33:34.999Z</time></trkpt><trkpt lat="45.674020743896385" lon="3.0389516012136832"><ele>761.1999999999999</ele><time>2026-04-24T15:33:36.999Z</time></trkpt><trkpt lat="45.673959349079205" lon="3.0390640317794793"><ele>761.0</ele><time>2026-04-24T15:33:38.999Z</time></trkpt><trkpt lat="45.67390080344973" lon="3.039183537333747"><ele>760.0</ele><time>2026-04-24T15:33:40.999Z</time></trkpt><trkpt lat="45.67385109236256" lon="3.03931327538098"><ele>759.0</ele><time>2026-04-24T15:33:42.999Z</time></trkpt><trkpt lat="45.673783942575724" lon="3.0394323791041575"><ele>758.0</ele><time>2026-04-24T15:33:44.999Z</time></trkpt><trkpt lat="45.67373103666585" lon="3.039545215325392"><ele>757.0</ele><time>2026-04-24T15:33:47.999Z</time></trkpt><trkpt lat="45.673676484330706" lon="3.039676973159559"><ele>756.0</ele><time>2026-04-24T15:33:49.999Z</time></trkpt><trkpt lat="45.673636758119734" lon="3.039789005611384"><ele>756.0</ele><time>2026-04-24T15:33:51.999Z</time></trkpt><trkpt lat="45.67360882304679" lon="3.0398849388109612"><ele>756.0</ele><time>2026-04-24T15:33:53.999Z</time></trkpt><trkpt lat="45.673571204851164" lon="3.040002995939877"><ele>756.0</ele><time>2026-04-24T15:33:55.999Z</time></trkpt><trkpt lat="45.67351604741203" lon="3.040108494095454"><ele>756.0</ele><time>2026-04-24T15:33:57.999Z</time></trkpt><trkpt lat="45.67348106717678" lon="3.040223227236413"><ele>756.0</ele><time>2026-04-24T15:34:00Z</time></trkpt><trkpt lat="45.673450353905196" lon="3.040337958603711"><ele>756.0</ele><time>2026-04-24T15:34:02Z</time></trkpt><trkpt lat="45.67342595600039" lon="3.0404721860924737"><ele>753.1999999999999</ele><time>2026-04-24T15:34:04Z</time></trkpt><trkpt lat="45.673391934739456" lon="3.0406021718474716"><ele>750.4</ele><time>2026-04-24T15:34:06Z</time></trkpt><trkpt lat="45.67334197529749" lon="3.040745880275132"><ele>747.6</ele><time>2026-04-24T15:34:08Z</time></trkpt><trkpt lat="45.67331528995789" lon="3.040869093576663"><ele>744.8</ele><time>2026-04-24T15:34:10Z</time></trkpt><trkpt lat="45.6732697293319" lon="3.040998024974534"><ele>742.0</ele><time>2026-04-24T15:34:12Z</time></trkpt><trkpt lat="45.673241904505865" lon="3.0410845943149196"><ele>741.5</ele><time>2026-04-24T15:34:13Z</time></trkpt><trkpt lat="45.67321876063595" lon="3.04117164683532"><ele>741.0</ele><time>2026-04-24T15:34:14Z</time></trkpt><trkpt lat="45.67318163524328" lon="3.0413164257420275"><ele>740.5</ele><time>2026-04-24T15:34:16Z</time></trkpt><trkpt lat="45.673137417455706" lon="3.04146750867649"><ele>740.0</ele><time>2026-04-24T15:34:18Z</time></trkpt><trkpt lat="45.67311320057493" lon="3.041554706484272"><ele>739.5</ele><time>2026-04-24T15:34:19Z</time></trkpt><trkpt lat="45.673082563068654" lon="3.0416483290814416"><ele>739.0</ele><time>2026-04-24T15:34:20Z</time></trkpt><trkpt lat="45.67304957365065" lon="3.0417276168894216"><ele>738.2857142857143</ele><time>2026-04-24T15:34:21Z</time></trkpt><trkpt lat="45.67301578949327" lon="3.0418171989357234"><ele>737.5714285714287</ele><time>2026-04-24T15:34:22Z</time></trkpt><trkpt lat="45.67298379371382" lon="3.0419033020218813"><ele>736.8571428571429</ele><time>2026-04-24T15:34:23Z</time></trkpt><trkpt lat="45.67295642397815" lon="3.0419940593314783"><ele>736.1428571428571</ele><time>2026-04-24T15:34:24Z</time></trkpt><trkpt lat="45.67293224575652" lon="3.0420880734367577"><ele>735.4285714285714</ele><time>2026-04-24T15:34:25Z</time></trkpt><trkpt lat="45.67291020302131" lon="3.0421776127893096"><ele>734.7142857142857</ele><time>2026-04-24T15:34:26Z</time></trkpt><trkpt lat="45.672884391117336" lon="3.0422604386809433"><ele>734.0</ele><time>2026-04-24T15:34:27Z</time></trkpt><trkpt lat="45.67284232616015" lon="3.0424255944283165"><ele>733.1666666666666</ele><time>2026-04-24T15:34:29Z</time></trkpt><trkpt lat="45.672818901606355" lon="3.042511461371674"><ele>732.3333333333333</ele><time>2026-04-24T15:34:30Z</time></trkpt><trkpt lat="45.67275546325814" lon="3.0426584129225023"><ele>731.5</ele><time>2026-04-24T15:34:32Z</time></trkpt><trkpt lat="45.67271223640589" lon="3.042739674343106"><ele>730.6666666666666</ele><time>2026-04-24T15:34:33Z</time></trkpt><trkpt lat="45.672671036393936" lon="3.0428311351242447"><ele>729.8333333333334</ele><time>2026-04-24T15:34:34Z</time></trkpt><trkpt lat="45.672633336167046" lon="3.042921493889162"><ele>729.0</ele><time>2026-04-24T15:34:35Z</time></trkpt><trkpt lat="45.672597063513024" lon="3.0430100644263502"><ele>727.0</ele><time>2026-04-24T15:34:36Z</time></trkpt><trkpt lat="45.67255020276325" lon="3.0431409750687086"><ele>725.0</ele><time>2026-04-24T15:34:38Z</time></trkpt><trkpt lat="45.67249399341012" lon="3.0432795664032803"><ele>723.0</ele><time>2026-04-24T15:34:40Z</time></trkpt><trkpt lat="45.67242271394305" lon="3.043376677473053"><ele>721.0</ele><time>2026-04-24T15:34:42Z</time></trkpt><trkpt lat="45.67235117601275" lon="3.0434699631217907"><ele>719.0</ele><time>2026-04-24T15:34:44Z</time></trkpt><trkpt lat="45.672342020176444" lon="3.0436496526456014"><ele>718.0</ele><time>2026-04-24T15:34:46Z</time></trkpt><trkpt lat="45.67230971400709" lon="3.0438331526812243"><ele>717.0</ele><time>2026-04-24T15:34:48Z</time></trkpt><trkpt lat="45.6722898025874" lon="3.0439270855634284"><ele>716.0</ele><time>2026-04-24T15:34:49Z</time></trkpt><trkpt lat="45.67223278432568" lon="3.0440867595917305"><ele>715.0</ele><time>2026-04-24T15:34:51Z</time></trkpt><trkpt lat="45.672200656597425" lon="3.0441704927472304"><ele>714.0</ele><time>2026-04-24T15:34:52Z</time></trkpt><trkpt lat="45.672162480569014" lon="3.0442615131501407"><ele>712.5</ele><time>2026-04-24T15:34:53Z</time></trkpt><trkpt lat="45.67212631772187" lon="3.0443754985816374"><ele>711.0</ele><time>2026-04-24T15:34:54Z</time></trkpt><trkpt lat="45.67210852242825" lon="3.044476559904135"><ele>709.5</ele><time>2026-04-24T15:34:55Z</time></trkpt><trkpt lat="45.67205494920556" lon="3.0446138555707236"><ele>708.0</ele><time>2026-04-24T15:34:57Z</time></trkpt><trkpt lat="45.67199067479732" lon="3.0446664489335773"><ele>706.5</ele><time>2026-04-24T15:34:58Z</time></trkpt><trkpt lat="45.67192497060871" lon="3.0447709288267326"><ele>705.0</ele><time>2026-04-24T15:35:00Z</time></trkpt><trkpt lat="45.671833977921956" lon="3.044796836166998"><ele>703.6666666666666</ele><time>2026-04-24T15:35:02Z</time></trkpt><trkpt lat="45.67175557350606" lon="3.0447746459797496"><ele>702.3333333333334</ele><time>2026-04-24T15:35:04Z</time></trkpt><trkpt lat="45.67167329003946" lon="3.0447668224759763"><ele>701.0</ele><time>2026-04-24T15:35:06Z</time></trkpt><trkpt lat="45.67161237798554" lon="3.0448094177209573"><ele>699.6666666666667</ele><time>2026-04-24T15:35:08Z</time></trkpt><trkpt lat="45.67153138754698" lon="3.04485582348644"><ele>698.3333333333334</ele><time>2026-04-24T15:35:11Z</time></trkpt><trkpt lat="45.67145947165695" lon="3.0447891612060753"><ele>697.0</ele><time>2026-04-24T15:35:13Z</time></trkpt><trkpt lat="45.67138676048182" lon="3.044707788760902"><ele>697.0</ele><time>2026-04-24T15:35:15Z</time></trkpt><trkpt lat="45.67131645930396" lon="3.044629229368767"><ele>697.0</ele><time>2026-04-24T15:35:17Z</time></trkpt><trkpt lat="45.6712351635785" lon="3.0446356354509208"><ele>697.0</ele><time>2026-04-24T15:35:20Z</time></trkpt><trkpt lat="45.6711727543448" lon="3.0447075231296776"><ele>697.0</ele><time>2026-04-24T15:35:23Z</time></trkpt><trkpt lat="45.67111559787858" lon="3.0447528949774543"><ele>697.0</ele><time>2026-04-24T15:35:26Z</time></trkpt><trkpt lat="45.671043851903995" lon="3.044798820297284"><ele>697.0</ele><time>2026-04-24T15:35:28Z</time></trkpt><trkpt lat="45.67097921908451" lon="3.0447698848230966"><ele>694.6666666666667</ele><time>2026-04-24T15:35:30Z</time></trkpt><trkpt lat="45.67089043140387" lon="3.044814812589392"><ele>692.3333333333334</ele><time>2026-04-24T15:35:32.999Z</time></trkpt><trkpt lat="45.670814803610796" lon="3.0448877279282067"><ele>690.0</ele><time>2026-04-24T15:35:34.999Z</time></trkpt><trkpt lat="45.67074054022982" lon="3.0449615011976046"><ele>687.6666666666666</ele><time>2026-04-24T15:35:36.999Z</time></trkpt><trkpt lat="45.67067736393045" lon="3.0450070307614374"><ele>685.3333333333333</ele><time>2026-04-24T15:35:38.999Z</time></trkpt><trkpt lat="45.67062708687069" lon="3.0450654613680372"><ele>683.0</ele><time>2026-04-24T15:35:40.999Z</time></trkpt><trkpt lat="45.67053848268914" lon="3.045102603366038"><ele>683.0</ele><time>2026-04-24T15:35:44Z</time></trkpt><trkpt lat="45.67045081041163" lon="3.045107598033444"><ele>683.0</ele><time>2026-04-24T15:35:47Z</time></trkpt><trkpt lat="45.670371614942525" lon="3.0451160459378173"><ele>683.0</ele><time>2026-04-24T15:35:49Z</time></trkpt><trkpt lat="45.6703002169126" lon="3.0451303732806103"><ele>683.0</ele><time>2026-04-24T15:35:51Z</time></trkpt><trkpt lat="45.67021633046612" lon="3.0451159998697555"><ele>683.0</ele><time>2026-04-24T15:35:53Z</time></trkpt><trkpt lat="45.67013876847669" lon="3.045120611330005"><ele>683.0</ele><time>2026-04-24T15:35:55Z</time></trkpt><trkpt lat="45.670125687449264" lon="3.0452097536573826"><ele>680.8333333333333</ele><time>2026-04-24T15:35:57Z</time></trkpt><trkpt lat="45.67011540023818" lon="3.045306696682305"><ele>678.6666666666666</ele><time>2026-04-24T15:36:00Z</time></trkpt><trkpt lat="45.67014110770716" lon="3.0453993647370075"><ele>676.5</ele><time>2026-04-24T15:36:02Z</time></trkpt><trkpt lat="45.6701203228529" lon="3.0455120180070008"><ele>674.3333333333334</ele><time>2026-04-24T15:36:05Z</time></trkpt><trkpt lat="45.67008552875415" lon="3.0456015634833604"><ele>672.1666666666667</ele><time>2026-04-24T15:36:07Z</time></trkpt><trkpt lat="45.66999647823129" lon="3.0456125654721715"><ele>670.0</ele><time>2026-04-24T15:36:09Z</time></trkpt><trkpt lat="45.66991776333807" lon="3.045645388349272"><ele>670.0</ele><time>2026-04-24T15:36:11Z</time></trkpt><trkpt lat="45.669839438782006" lon="3.045683167805153"><ele>670.0</ele><time>2026-04-24T15:36:13Z</time></trkpt><trkpt lat="45.66974450157371" lon="3.045688101988641"><ele>670.0</ele><time>2026-04-24T15:36:15Z</time></trkpt><trkpt lat="45.6696378137206" lon="3.0456791942124952"><ele>670.0</ele><time>2026-04-24T15:36:17Z</time></trkpt><trkpt lat="45.669564349389795" lon="3.045683967546223"><ele>670.0</ele><time>2026-04-24T15:36:19Z</time></trkpt><trkpt lat="45.66948521104779" lon="3.0456877021747486"><ele>670.0</ele><time>2026-04-24T15:36:21Z</time></trkpt><trkpt lat="45.669409138420555" lon="3.045632504211918"><ele>667.3333333333334</ele><time>2026-04-24T15:36:23Z</time></trkpt><trkpt lat="45.66933510510605" lon="3.0455616143688777"><ele>664.6666666666667</ele><time>2026-04-24T15:36:25Z</time></trkpt><trkpt lat="45.669265955140396" lon="3.0454778422443733"><ele>662.0</ele><time>2026-04-24T15:36:27Z</time></trkpt><trkpt lat="45.66918853053291" lon="3.0454866352895644"><ele>659.3333333333334</ele><time>2026-04-24T15:36:30Z</time></trkpt><trkpt lat="45.669104605082836" lon="3.0454854115078662"><ele>656.6666666666666</ele><time>2026-04-24T15:36:33Z</time></trkpt><trkpt lat="45.66904622884651" lon="3.0455721096445365"><ele>654.0</ele><time>2026-04-24T15:36:36Z</time></trkpt><trkpt lat="45.66897609380298" lon="3.0456150708676857"><ele>654.0</ele><time>2026-04-24T15:36:39Z</time></trkpt><trkpt lat="45.668913887094874" lon="3.0456596289344993"><ele>654.0</ele><time>2026-04-24T15:36:42Z</time></trkpt><trkpt lat="45.66884224401878" lon="3.045694614107532"><ele>654.0</ele><time>2026-04-24T15:36:46Z</time></trkpt><trkpt lat="45.668778828053" lon="3.0456496755830216"><ele>654.0</ele><time>2026-04-24T15:36:49Z</time></trkpt><trkpt lat="45.66878242413521" lon="3.0455375838584002"><ele>654.0</ele><time>2026-04-24T15:36:52Z</time></trkpt><trkpt lat="45.668782307947794" lon="3.0454377359101343"><ele>654.0</ele><time>2026-04-24T15:36:54Z</time></trkpt><trkpt lat="45.66878145210089" lon="3.045343475434477"><ele>654.0</ele><time>2026-04-24T15:36:56Z</time></trkpt><trkpt lat="45.66877789620006" lon="3.045210053370866"><ele>654.0</ele><time>2026-04-24T15:36:58Z</time></trkpt><trkpt lat="45.66877402062836" lon="3.045109566221486"><ele>654.0</ele><time>2026-04-24T15:36:59Z</time></trkpt><trkpt lat="45.668732099260126" lon="3.04499444271979"><ele>654.0</ele><time>2026-04-24T15:37:01Z</time></trkpt><trkpt lat="45.66867652132176" lon="3.04488620853723"><ele>654.0</ele><time>2026-04-24T15:37:03Z</time></trkpt><trkpt lat="45.66863035425187" lon="3.0448221187182503"><ele>654.0</ele><time>2026-04-24T15:37:05Z</time></trkpt><trkpt lat="45.6685514485422" lon="3.044783321120823"><ele>654.0</ele><time>2026-04-24T15:37:07Z</time></trkpt><trkpt lat="45.66846753253383" lon="3.0447162172095825"><ele>652.3333333333334</ele><time>2026-04-24T15:37:09Z</time></trkpt><trkpt lat="45.668418493591474" lon="3.044636777370961"><ele>650.6666666666666</ele><time>2026-04-24T15:37:11Z</time></trkpt><trkpt lat="45.66834340162161" lon="3.044572269959894"><ele>649.0</ele><time>2026-04-24T15:37:14Z</time></trkpt><trkpt lat="45.668266706451334" lon="3.044628343279809"><ele>647.3333333333333</ele><time>2026-04-24T15:37:17Z</time></trkpt><trkpt lat="45.66818643942889" lon="3.0446786939298467"><ele>645.6666666666666</ele><time>2026-04-24T15:37:19Z</time></trkpt><trkpt lat="45.668176966026934" lon="3.0447739307556647"><ele>644.0</ele><time>2026-04-24T15:37:22Z</time></trkpt><trkpt lat="45.6681352272783" lon="3.044872255537068"><ele>644.0</ele><time>2026-04-24T15:37:24Z</time></trkpt><trkpt lat="45.66807392477176" lon="3.0449202039905807"><ele>644.0</ele><time>2026-04-24T15:37:26Z</time></trkpt><trkpt lat="45.66801819402182" lon="3.044974201665272"><ele>644.0</ele><time>2026-04-24T15:37:28Z</time></trkpt><trkpt lat="45.66794058457455" lon="3.0449946941281048"><ele>644.0</ele><time>2026-04-24T15:37:30Z</time></trkpt><trkpt lat="45.667855587895644" lon="3.045017584410404"><ele>644.0</ele><time>2026-04-24T15:37:32Z</time></trkpt><trkpt lat="45.667763459835314" lon="3.044974823265706"><ele>644.0</ele><time>2026-04-24T15:37:35Z</time></trkpt><trkpt lat="45.66770257145372" lon="3.0450152651856643"><ele>643.1666666666666</ele><time>2026-04-24T15:37:38Z</time></trkpt><trkpt lat="45.66764640400151" lon="3.045062944921327"><ele>642.3333333333333</ele><time>2026-04-24T15:37:40Z</time></trkpt><trkpt lat="45.667584818035174" lon="3.045104435119338"><ele>641.5</ele><time>2026-04-24T15:37:42Z</time></trkpt><trkpt lat="45.667486337925574" lon="3.0451574960807366"><ele>640.6666666666666</ele><time>2026-04-24T15:37:44Z</time></trkpt><trkpt lat="45.66743222644712" lon="3.045204382681974"><ele>639.8333333333334</ele><time>2026-04-24T15:37:46Z</time></trkpt><trkpt lat="45.66737494397952" lon="3.045243223534669"><ele>639.0</ele><time>2026-04-24T15:37:49Z</time></trkpt><trkpt lat="45.6673433374285" lon="3.0453567885418074"><ele>639.0</ele><time>2026-04-24T15:37:52Z</time></trkpt><trkpt lat="45.667315238903996" lon="3.0454439166902847"><ele>639.0</ele><time>2026-04-24T15:37:54Z</time></trkpt><trkpt lat="45.667302480658996" lon="3.0455728158225712"><ele>639.0</ele><time>2026-04-24T15:37:56Z</time></trkpt><trkpt lat="45.66727223543059" lon="3.045702122743137"><ele>639.0</ele><time>2026-04-24T15:37:59Z</time></trkpt><trkpt lat="45.66728898293974" lon="3.0458298474565937"><ele>639.0</ele><time>2026-04-24T15:38:01Z</time></trkpt><trkpt lat="45.66726501878976" lon="3.04595492052372"><ele>639.0</ele><time>2026-04-24T15:38:04Z</time></trkpt><trkpt lat="45.667241656581055" lon="3.0460938006395133"><ele>638.6666666666666</ele><time>2026-04-24T15:38:07Z</time></trkpt><trkpt lat="45.66723975280464" lon="3.0461906790543214"><ele>638.3333333333334</ele><time>2026-04-24T15:38:08Z</time></trkpt><trkpt lat="45.667178753896486" lon="3.0462858087662466"><ele>638.0</ele><time>2026-04-24T15:38:10Z</time></trkpt><trkpt lat="45.66716237183649" lon="3.0463761612661253"><ele>637.6666666666667</ele><time>2026-04-24T15:38:11Z</time></trkpt><trkpt lat="45.66717507035863" lon="3.0465319071566794"><ele>637.3333333333334</ele><time>2026-04-24T15:38:13Z</time></trkpt><trkpt lat="45.66720314016543" lon="3.0466766056789933"><ele>637.0</ele><time>2026-04-24T15:38:15Z</time></trkpt><trkpt lat="45.66722427250277" lon="3.0468285819764183"><ele>636.6</ele><time>2026-04-24T15:38:17Z</time></trkpt><trkpt lat="45.667247377714176" lon="3.0469466906099463"><ele>636.2</ele><time>2026-04-24T15:38:18Z</time></trkpt><trkpt lat="45.66725241183189" lon="3.047107497103572"><ele>635.8</ele><time>2026-04-24T15:38:20Z</time></trkpt><trkpt lat="45.667249853866686" lon="3.0472468108475725"><ele>635.4</ele><time>2026-04-24T15:38:22Z</time></trkpt><trkpt lat="45.66723561344491" lon="3.047409313016346"><ele>635.0</ele><time>2026-04-24T15:38:24Z</time></trkpt><trkpt lat="45.66725355939744" lon="3.0475877564887135"><ele>634.2</ele><time>2026-04-24T15:38:26Z</time></trkpt><trkpt lat="45.66729376784358" lon="3.047742253183929"><ele>633.4</ele><time>2026-04-24T15:38:28Z</time></trkpt><trkpt lat="45.66740495961306" lon="3.047808385963604"><ele>632.6</ele><time>2026-04-24T15:38:30Z</time></trkpt><trkpt lat="45.66746801946618" lon="3.047840735369102"><ele>631.8</ele><time>2026-04-24T15:38:31Z</time></trkpt><trkpt lat="45.66751997561972" lon="3.047902366701129"><ele>631.0</ele><time>2026-04-24T15:38:32Z</time></trkpt><trkpt lat="45.667595764561725" lon="3.0480068900380224"><ele>631.0</ele><time>2026-04-24T15:38:34Z</time></trkpt><trkpt lat="45.66766177435549" lon="3.048137247068449"><ele>631.0</ele><time>2026-04-24T15:38:36Z</time></trkpt><trkpt lat="45.66773434952883" lon="3.048270231752367"><ele>631.0</ele><time>2026-04-24T15:38:38Z</time></trkpt><trkpt lat="45.66776900140292" lon="3.0484249450142857"><ele>631.0</ele><time>2026-04-24T15:38:40Z</time></trkpt><trkpt lat="45.667778939998215" lon="3.048529612740526"><ele>631.0</ele><time>2026-04-24T15:38:41Z</time></trkpt><trkpt lat="45.66780458302341" lon="3.048616868035142"><ele>631.8333333333334</ele><time>2026-04-24T15:38:42Z</time></trkpt><trkpt lat="45.66783796196803" lon="3.0487018269329194"><ele>632.6666666666667</ele><time>2026-04-24T15:38:43Z</time></trkpt><trkpt lat="45.66787553347874" lon="3.048776474423958"><ele>633.5</ele><time>2026-04-24T15:38:44Z</time></trkpt><trkpt lat="45.667898390638" lon="3.048864755542973"><ele>634.3333333333334</ele><time>2026-04-24T15:38:45Z</time></trkpt><trkpt lat="45.66795384731815" lon="3.048985152756644"><ele>635.1666666666666</ele><time>2026-04-24T15:38:47Z</time></trkpt><trkpt lat="45.667997066186935" lon="3.0491241097559567"><ele>636.0</ele><time>2026-04-24T15:38:49Z</time></trkpt><trkpt lat="45.66801969180928" lon="3.049300010190482"><ele>634.0</ele><time>2026-04-24T15:38:51Z</time></trkpt><trkpt lat="45.668001110796894" lon="3.0494029353433683"><ele>632.0</ele><time>2026-04-24T15:38:52Z</time></trkpt><trkpt lat="45.668014494089064" lon="3.049563433320168"><ele>630.0</ele><time>2026-04-24T15:38:54Z</time></trkpt><trkpt lat="45.668050509233" lon="3.0497124069433736"><ele>628.0</ele><time>2026-04-24T15:38:56Z</time></trkpt><trkpt lat="45.6680859351399" lon="3.04984745424915"><ele>626.0</ele><time>2026-04-24T15:38:58Z</time></trkpt><trkpt lat="45.66813639582978" lon="3.049980515210129"><ele>625.0</ele><time>2026-04-24T15:39:00Z</time></trkpt><trkpt lat="45.66816582669786" lon="3.050119927702372"><ele>624.0</ele><time>2026-04-24T15:39:02Z</time></trkpt><trkpt lat="45.66817843101374" lon="3.0502672488925735"><ele>623.0</ele><time>2026-04-24T15:39:04Z</time></trkpt><trkpt lat="45.66818308070762" lon="3.050375186538994"><ele>622.0</ele><time>2026-04-24T15:39:05Z</time></trkpt><trkpt lat="45.66820085432171" lon="3.0504825582232833"><ele>621.0</ele><time>2026-04-24T15:39:07Z</time></trkpt><trkpt lat="45.66818982948418" lon="3.0505736947221553"><ele>620.0</ele><time>2026-04-24T15:39:09Z</time></trkpt><trkpt lat="45.668113569661124" lon="3.050637989651327"><ele>620.0</ele><time>2026-04-24T15:39:12Z</time></trkpt><trkpt lat="45.668060529063084" lon="3.050748945522895"><ele>620.0</ele><time>2026-04-24T15:39:14Z</time></trkpt><trkpt lat="45.668056193633866" lon="3.050884650033002"><ele>620.0</ele><time>2026-04-24T15:39:16Z</time></trkpt><trkpt lat="45.66810747328553" lon="3.050947256197158"><ele>620.0</ele><time>2026-04-24T15:39:19Z</time></trkpt><trkpt lat="45.66818397406554" lon="3.051003103622837"><ele>620.0</ele><time>2026-04-24T15:39:21Z</time></trkpt><trkpt lat="45.668202340259825" lon="3.05111849744811"><ele>620.0</ele><time>2026-04-24T15:39:23Z</time></trkpt><trkpt lat="45.66818103903725" lon="3.051294393306179"><ele>619.4</ele><time>2026-04-24T15:39:25Z</time></trkpt><trkpt lat="45.66814618794766" lon="3.0514387585226252"><ele>618.8</ele><time>2026-04-24T15:39:27Z</time></trkpt><trkpt lat="45.66811069146967" lon="3.0515726809921238"><ele>618.2</ele><time>2026-04-24T15:39:29Z</time></trkpt><trkpt lat="45.66810683463132" lon="3.051715407709624"><ele>617.6</ele><time>2026-04-24T15:39:31Z</time></trkpt><trkpt lat="45.66811668666951" lon="3.0518648495199057"><ele>617.0</ele><time>2026-04-24T15:39:33Z</time></trkpt><trkpt lat="45.66813682626418" lon="3.052013924210637"><ele>616.0</ele><time>2026-04-24T15:39:35Z</time></trkpt><trkpt lat="45.66817036690943" lon="3.052147237177064"><ele>615.0</ele><time>2026-04-24T15:39:37Z</time></trkpt><trkpt lat="45.66819246386831" lon="3.0522953103885064"><ele>614.0</ele><time>2026-04-24T15:39:39Z</time></trkpt><trkpt lat="45.66824024695616" lon="3.052481023852838"><ele>613.0</ele><time>2026-04-24T15:39:41Z</time></trkpt><trkpt lat="45.66825063533381" lon="3.0525963534206015"><ele>612.0</ele><time>2026-04-24T15:39:42Z</time></trkpt><trkpt lat="45.66827042577983" lon="3.052785448787542"><ele>611.75</ele><time>2026-04-24T15:39:43Z</time></trkpt><trkpt lat="45.668302829837394" lon="3.0530065976344507"><ele>611.5</ele><time>2026-04-24T15:39:44Z</time></trkpt><trkpt lat="45.668324960309825" lon="3.0531696175596803"><ele>611.25</ele><time>2026-04-24T15:39:45Z</time></trkpt><trkpt lat="45.668361992600985" lon="3.053382598286879"><ele>611.0</ele><time>2026-04-24T15:39:46Z</time></trkpt><trkpt lat="45.66841513920588" lon="3.053611069275089"><ele>610.8</ele><time>2026-04-24T15:39:47Z</time></trkpt><trkpt lat="45.668333426033286" lon="3.053492574821552"><ele>610.6</ele><time>2026-04-24T15:39:48Z</time></trkpt><trkpt lat="45.668359037030186" lon="3.053642094522831"><ele>610.4</ele><time>2026-04-24T15:39:50Z</time></trkpt><trkpt lat="45.66840523856862" lon="3.0537729313179014"><ele>610.2</ele><time>2026-04-24T15:39:52Z</time></trkpt><trkpt lat="45.66845768191636" lon="3.0538817162944922"><ele>610.0</ele><time>2026-04-24T15:39:54Z</time></trkpt><trkpt lat="45.66851377615134" lon="3.0539805818536663"><ele>610.0</ele><time>2026-04-24T15:39:56Z</time></trkpt><trkpt lat="45.66855108197974" lon="3.0540758209508043"><ele>610.0</ele><time>2026-04-24T15:39:58Z</time></trkpt><trkpt lat="45.66860146296141" lon="3.0541581830160536"><ele>610.0</ele><time>2026-04-24T15:40:00Z</time></trkpt><trkpt lat="45.668656135278106" lon="3.0542348792447225"><ele>610.0</ele><time>2026-04-24T15:40:02Z</time></trkpt><trkpt lat="45.6687092154342" lon="3.054326582831338"><ele>610.0</ele><time>2026-04-24T15:40:04Z</time></trkpt><trkpt lat="45.66875156042901" lon="3.0544003836512594"><ele>610.0</ele><time>2026-04-24T15:40:05Z</time></trkpt><trkpt lat="45.66881799869654" lon="3.0544909080413034"><ele>609.0</ele><time>2026-04-24T15:40:07Z</time></trkpt><trkpt lat="45.66887154993172" lon="3.0545755884466548"><ele>608.0</ele><time>2026-04-24T15:40:11Z</time></trkpt><trkpt lat="45.668950507322386" lon="3.0547592886676918"><ele>607.0</ele><time>2026-04-24T15:40:13Z</time></trkpt><trkpt lat="45.66895631943998" lon="3.0548722526832472"><ele>606.0</ele><time>2026-04-24T15:40:15Z</time></trkpt><trkpt lat="45.6690006046662" lon="3.054978222972052"><ele>605.0</ele><time>2026-04-24T15:40:17Z</time></trkpt><trkpt lat="45.66904879859871" lon="3.0550486173448923"><ele>604.6</ele><time>2026-04-24T15:40:19Z</time></trkpt><trkpt lat="45.66910116660053" lon="3.055197322500974"><ele>604.2</ele><time>2026-04-24T15:40:21Z</time></trkpt><trkpt lat="45.66912755422091" lon="3.0552818220771307"><ele>603.8</ele><time>2026-04-24T15:40:22Z</time></trkpt><trkpt lat="45.669155214515506" lon="3.0553643839060247"><ele>603.4</ele><time>2026-04-24T15:40:23Z</time></trkpt><trkpt lat="45.66918560784591" lon="3.0554731915626845"><ele>603.0</ele><time>2026-04-24T15:40:24Z</time></trkpt><trkpt lat="45.669247991602354" lon="3.0556869609363453"><ele>602.8</ele><time>2026-04-24T15:40:25Z</time></trkpt><trkpt lat="45.669278390601676" lon="3.0558025715965496"><ele>602.5999999999999</ele><time>2026-04-24T15:40:26Z</time></trkpt><trkpt lat="45.66930216636087" lon="3.0559882190250947"><ele>602.4000000000001</ele><time>2026-04-24T15:40:28Z</time></trkpt><trkpt lat="45.669297225401074" lon="3.0560785935483996"><ele>602.2</ele><time>2026-04-24T15:40:29Z</time></trkpt><trkpt lat="45.66930960038481" lon="3.0561751258232124"><ele>602.0</ele><time>2026-04-24T15:40:30Z</time></trkpt><trkpt lat="45.66935457226349" lon="3.056338523482079"><ele>602.0</ele><time>2026-04-24T15:40:32Z</time></trkpt><trkpt lat="45.66943955716355" lon="3.0564941115134574"><ele>602.0</ele><time>2026-04-24T15:40:34Z</time></trkpt><trkpt lat="45.66949330684837" lon="3.056597017384069"><ele>602.0</ele><time>2026-04-24T15:40:35Z</time></trkpt><trkpt lat="45.669524617702805" lon="3.0566992631269616"><ele>602.0</ele><time>2026-04-24T15:40:36Z</time></trkpt><trkpt lat="45.669569587472544" lon="3.0567835313527265"><ele>602.0</ele><time>2026-04-24T15:40:37Z</time></trkpt><trkpt lat="45.66960800784888" lon="3.056863267527677"><ele>602.0</ele><time>2026-04-24T15:40:38Z</time></trkpt><trkpt lat="45.66968767538853" lon="3.056999605001249"><ele>602.5</ele><time>2026-04-24T15:40:40Z</time></trkpt><trkpt lat="45.66979433806408" lon="3.0570928429378714"><ele>603.0</ele><time>2026-04-24T15:40:42Z</time></trkpt><trkpt lat="45.669861254871634" lon="3.057138206378294"><ele>603.5</ele><time>2026-04-24T15:40:43Z</time></trkpt><trkpt lat="45.6699656435489" lon="3.0572140497969396"><ele>604.0</ele><time>2026-04-24T15:40:45Z</time></trkpt><trkpt lat="45.67007860349438" lon="3.0573158536586575"><ele>604.0</ele><time>2026-04-24T15:40:47Z</time></trkpt><trkpt lat="45.67014849368949" lon="3.0573920914019888"><ele>604.0</ele><time>2026-04-24T15:40:48Z</time></trkpt><trkpt lat="45.67021017304647" lon="3.0574340071593946"><ele>604.0</ele><time>2026-04-24T15:40:49Z</time></trkpt><trkpt lat="45.67027615820644" lon="3.057486250759696"><ele>604.0</ele><time>2026-04-24T15:40:50Z</time></trkpt><trkpt lat="45.67035224440668" lon="3.057555791311142"><ele>604.0</ele><time>2026-04-24T15:40:51Z</time></trkpt><trkpt lat="45.67040311314251" lon="3.0576188677359473"><ele>604.0</ele><time>2026-04-24T15:40:52Z</time></trkpt><trkpt lat="45.670519693920234" lon="3.0576970083918495"><ele>603.6666666666667</ele><time>2026-04-24T15:40:54Z</time></trkpt><trkpt lat="45.67058950446407" lon="3.0577312113107697"><ele>603.3333333333334</ele><time>2026-04-24T15:40:55Z</time></trkpt><trkpt lat="45.67065313967891" lon="3.057769137343281"><ele>603.0</ele><time>2026-04-24T15:40:56Z</time></trkpt><trkpt lat="45.67073884078986" lon="3.0578288638529036"><ele>602.6666666666666</ele><time>2026-04-24T15:40:57Z</time></trkpt><trkpt lat="45.67081936151437" lon="3.057848603152406"><ele>602.3333333333333</ele><time>2026-04-24T15:40:58Z</time></trkpt><trkpt lat="45.67090779341196" lon="3.0578693248857345"><ele>602.0</ele><time>2026-04-24T15:40:59Z</time></trkpt><trkpt lat="45.670982932536695" lon="3.0578913253256537"><ele>602.0</ele><time>2026-04-24T15:41:00Z</time></trkpt><trkpt lat="45.67108438598311" lon="3.057947921150356"><ele>602.0</ele><time>2026-04-24T15:41:01Z</time></trkpt><trkpt lat="45.67124627698747" lon="3.0580784777723187"><ele>602.0</ele><time>2026-04-24T15:41:03Z</time></trkpt><trkpt lat="45.6713182498396" lon="3.0581946025895865"><ele>602.0</ele><time>2026-04-24T15:41:05Z</time></trkpt><trkpt lat="45.67127515386075" lon="3.058374695033958"><ele>601.5</ele><time>2026-04-24T15:41:07Z</time></trkpt><trkpt lat="45.67120738231688" lon="3.0585444712333114"><ele>601.0</ele><time>2026-04-24T15:41:08Z</time></trkpt><trkpt lat="45.67113899154439" lon="3.0587156178628017"><ele>600.5</ele><time>2026-04-24T15:41:09Z</time></trkpt><trkpt lat="45.67110563578878" lon="3.058872581157181"><ele>600.0</ele><time>2026-04-24T15:41:10Z</time></trkpt><trkpt lat="45.671071412368626" lon="3.0590139605459403"><ele>600.25</ele><time>2026-04-24T15:41:11Z</time></trkpt><trkpt lat="45.67102337175162" lon="3.0591357929357863"><ele>600.5</ele><time>2026-04-24T15:41:12Z</time></trkpt><trkpt lat="45.67093571478095" lon="3.059277255898251"><ele>600.75</ele><time>2026-04-24T15:41:13Z</time></trkpt><trkpt lat="45.670845598214484" lon="3.0594220045256093"><ele>601.0</ele><time>2026-04-24T15:41:14Z</time></trkpt><trkpt lat="45.670773419531756" lon="3.059543633020067"><ele>601.0</ele><time>2026-04-24T15:41:15Z</time></trkpt><trkpt lat="45.670706771394855" lon="3.0596621563368274"><ele>601.0</ele><time>2026-04-24T15:41:16Z</time></trkpt><trkpt lat="45.67064194780451" lon="3.0597680247768886"><ele>601.0</ele><time>2026-04-24T15:41:17Z</time></trkpt><trkpt lat="45.670581734380214" lon="3.0598790608122304"><ele>601.0</ele><time>2026-04-24T15:41:18Z</time></trkpt><trkpt lat="45.67053280713972" lon="3.0599843313248902"><ele>601.0</ele><time>2026-04-24T15:41:19Z</time></trkpt><trkpt lat="45.6704828176244" lon="3.0600963219674915"><ele>601.1666666666667</ele><time>2026-04-24T15:41:20Z</time></trkpt><trkpt lat="45.67042806813686" lon="3.0601999817490397"><ele>601.3333333333334</ele><time>2026-04-24T15:41:21Z</time></trkpt><trkpt lat="45.67038594302938" lon="3.060300737607715"><ele>601.5</ele><time>2026-04-24T15:41:22Z</time></trkpt><trkpt lat="45.6703604047309" lon="3.0604148721136037"><ele>601.6666666666666</ele><time>2026-04-24T15:41:23Z</time></trkpt><trkpt lat="45.67034235986948" lon="3.0605350508215015"><ele>601.8333333333333</ele><time>2026-04-24T15:41:24Z</time></trkpt><trkpt lat="45.670335206596924" lon="3.0606391209984007"><ele>602.0</ele><time>2026-04-24T15:41:25Z</time></trkpt><trkpt lat="45.670322791782" lon="3.0607320196856644"><ele>601.6666666666666</ele><time>2026-04-24T15:41:26Z</time></trkpt><trkpt lat="45.670308065042455" lon="3.0608310340100697"><ele>601.3333333333333</ele><time>2026-04-24T15:41:27Z</time></trkpt><trkpt lat="45.67028792297621" lon="3.0609277570909947"><ele>601.0</ele><time>2026-04-24T15:41:28Z</time></trkpt><trkpt lat="45.670270707608445" lon="3.061031262070074"><ele>600.6666666666666</ele><time>2026-04-24T15:41:29Z</time></trkpt><trkpt lat="45.670260701645475" lon="3.0611342194266498"><ele>600.3333333333334</ele><time>2026-04-24T15:41:30Z</time></trkpt><trkpt lat="45.67025065341552" lon="3.0612320770968946"><ele>600.0</ele><time>2026-04-24T15:41:31Z</time></trkpt><trkpt lat="45.67021430129344" lon="3.0614516251729493"><ele>599.4285714285713</ele><time>2026-04-24T15:41:33Z</time></trkpt><trkpt lat="45.67019733658891" lon="3.061559212440678"><ele>598.8571428571429</ele><time>2026-04-24T15:41:34Z</time></trkpt><trkpt lat="45.67017849156051" lon="3.0616496121569017"><ele>598.2857142857142</ele><time>2026-04-24T15:41:35Z</time></trkpt><trkpt lat="45.670162509858635" lon="3.0617502808023507"><ele>597.7142857142857</ele><time>2026-04-24T15:41:36Z</time></trkpt><trkpt lat="45.67015591889858" lon="3.061844232179607"><ele>597.1428571428571</ele><time>2026-04-24T15:41:37Z</time></trkpt><trkpt lat="45.67014861548008" lon="3.061949916354448"><ele>596.5714285714286</ele><time>2026-04-24T15:41:38Z</time></trkpt><trkpt lat="45.670133369227365" lon="3.062051875992134"><ele>596.0</ele><time>2026-04-24T15:41:39Z</time></trkpt><trkpt lat="45.67011146327721" lon="3.0622057421500544"><ele>596.0</ele><time>2026-04-24T15:41:40Z</time></trkpt><trkpt lat="45.670093722104085" lon="3.062335287563735"><ele>596.0</ele><time>2026-04-24T15:41:41Z</time></trkpt><trkpt lat="45.67008072246004" lon="3.062449225009712"><ele>596.0</ele><time>2026-04-24T15:41:42Z</time></trkpt><trkpt lat="45.67006742481663" lon="3.0625676109820463"><ele>596.0</ele><time>2026-04-24T15:41:43Z</time></trkpt><trkpt lat="45.67005244486606" lon="3.062679654146327"><ele>596.0</ele><time>2026-04-24T15:41:44Z</time></trkpt><trkpt lat="45.6700337641031" lon="3.0628085757696777"><ele>596.0</ele><time>2026-04-24T15:41:45Z</time></trkpt><trkpt lat="45.67001774689774" lon="3.0629198802795927"><ele>596.0</ele><time>2026-04-24T15:41:46Z</time></trkpt><trkpt lat="45.66998159774263" lon="3.0630200173413957"><ele>596.0</ele><time>2026-04-24T15:41:47Z</time></trkpt><trkpt lat="45.66995980949897" lon="3.0631262399121835"><ele>596.0</ele><time>2026-04-24T15:41:48Z</time></trkpt><trkpt lat="45.66994375359559" lon="3.0632538954842476"><ele>596.0</ele><time>2026-04-24T15:41:49Z</time></trkpt><trkpt lat="45.66991633615136" lon="3.063366351552123"><ele>596.0</ele><time>2026-04-24T15:41:50Z</time></trkpt><trkpt lat="45.66990511390475" lon="3.0634670383502636"><ele>596.0</ele><time>2026-04-24T15:41:51Z</time></trkpt><trkpt lat="45.66990039289622" lon="3.063621142727173"><ele>596.0</ele><time>2026-04-24T15:41:52Z</time></trkpt><trkpt lat="45.669895493556055" lon="3.0637416720457065"><ele>596.0</ele><time>2026-04-24T15:41:53Z</time></trkpt><trkpt lat="45.66989135890205" lon="3.063853456997071"><ele>596.0</ele><time>2026-04-24T15:41:54Z</time></trkpt><trkpt lat="45.66989083809915" lon="3.0639774297811946"><ele>596.0</ele><time>2026-04-24T15:41:55Z</time></trkpt><trkpt lat="45.6698703285249" lon="3.064093124200598"><ele>596.0</ele><time>2026-04-24T15:41:56Z</time></trkpt><trkpt lat="45.669838750718505" lon="3.0641779228336063"><ele>596.0</ele><time>2026-04-24T15:41:57Z</time></trkpt><trkpt lat="45.66974944875283" lon="3.0642951035943784"><ele>595.8</ele><time>2026-04-24T15:41:59Z</time></trkpt><trkpt lat="45.6696592906652" lon="3.064416925852041"><ele>595.6</ele><time>2026-04-24T15:42:01Z</time></trkpt><trkpt lat="45.6696076279477" lon="3.0644853582293594"><ele>595.4</ele><time>2026-04-24T15:42:02Z</time></trkpt><trkpt lat="45.66955431093012" lon="3.06454984399096"><ele>595.2</ele><time>2026-04-24T15:42:03Z</time></trkpt><trkpt lat="45.66944811110955" lon="3.064665738728043"><ele>595.0</ele><time>2026-04-24T15:42:05Z</time></trkpt><trkpt lat="45.66939063433109" lon="3.064727570370907"><ele>595.0</ele><time>2026-04-24T15:42:06Z</time></trkpt><trkpt lat="45.669347437819155" lon="3.0647993184499245"><ele>595.0</ele><time>2026-04-24T15:42:07Z</time></trkpt><trkpt lat="45.66927152605804" lon="3.0649423307661947"><ele>595.0</ele><time>2026-04-24T15:42:09Z</time></trkpt><trkpt lat="45.66924617837548" lon="3.0650352433753962"><ele>595.0</ele><time>2026-04-24T15:42:10Z</time></trkpt><trkpt lat="45.66919641356324" lon="3.065128962298313"><ele>595.0</ele><time>2026-04-24T15:42:11Z</time></trkpt><trkpt lat="45.669157050573325" lon="3.065232738664417"><ele>595.0</ele><time>2026-04-24T15:42:12Z</time></trkpt><trkpt lat="45.6691284047215" lon="3.0653321233719377"><ele>595.1666666666667</ele><time>2026-04-24T15:42:13Z</time></trkpt><trkpt lat="45.66906550858327" lon="3.065404886116703"><ele>595.3333333333334</ele><time>2026-04-24T15:42:14Z</time></trkpt><trkpt lat="45.66901823243612" lon="3.065480384204815"><ele>595.5</ele><time>2026-04-24T15:42:15Z</time></trkpt><trkpt lat="45.66897092981827" lon="3.0655543851783538"><ele>595.6666666666666</ele><time>2026-04-24T15:42:16Z</time></trkpt><trkpt lat="45.66889317129529" lon="3.0656610769644876"><ele>595.8333333333333</ele><time>2026-04-24T15:42:18Z</time></trkpt><trkpt lat="45.66892794164307" lon="3.0658146710204197"><ele>596.0</ele><time>2026-04-24T15:42:19Z</time></trkpt><trkpt lat="45.668939207251306" lon="3.065912645406136"><ele>596.7142857142857</ele><time>2026-04-24T15:42:20Z</time></trkpt><trkpt lat="45.66894368067236" lon="3.066024286983402"><ele>597.4285714285713</ele><time>2026-04-24T15:42:21Z</time></trkpt><trkpt lat="45.66891344883187" lon="3.0661379921007823"><ele>598.1428571428571</ele><time>2026-04-24T15:42:22Z</time></trkpt><trkpt lat="45.66889983933423" lon="3.0662330259381707"><ele>598.8571428571429</ele><time>2026-04-24T15:42:23Z</time></trkpt><trkpt lat="45.66887335745666" lon="3.0663191499534603"><ele>599.5714285714287</ele><time>2026-04-24T15:42:24Z</time></trkpt><trkpt lat="45.66881950402037" lon="3.0663807137313865"><ele>600.2857142857142</ele><time>2026-04-24T15:42:25Z</time></trkpt><trkpt lat="45.66875604162542" lon="3.0664502111639553"><ele>601.0</ele><time>2026-04-24T15:42:26Z</time></trkpt><trkpt lat="45.66869216976258" lon="3.066524573254585"><ele>601.0</ele><time>2026-04-24T15:42:27Z</time></trkpt><trkpt lat="45.66861960416572" lon="3.066603909645646"><ele>601.0</ele><time>2026-04-24T15:42:28Z</time></trkpt><trkpt lat="45.6685358319792" lon="3.0666925410091173"><ele>601.0</ele><time>2026-04-24T15:42:29Z</time></trkpt><trkpt lat="45.668389228078055" lon="3.066850709965491"><ele>601.0</ele><time>2026-04-24T15:42:31Z</time></trkpt><trkpt lat="45.66831947563312" lon="3.0669268821641515"><ele>601.6</ele><time>2026-04-24T15:42:32Z</time></trkpt><trkpt lat="45.668235892674524" lon="3.067019770603358"><ele>602.2</ele><time>2026-04-24T15:42:33Z</time></trkpt><trkpt lat="45.66814222782803" lon="3.067128373348171"><ele>602.8</ele><time>2026-04-24T15:42:34Z</time></trkpt><trkpt lat="45.66807276433508" lon="3.0672134755335967"><ele>603.4</ele><time>2026-04-24T15:42:35Z</time></trkpt><trkpt lat="45.66801859208342" lon="3.0672705137256853"><ele>604.0</ele><time>2026-04-24T15:42:36Z</time></trkpt><trkpt lat="45.66791391115017" lon="3.06734004230699"><ele>604.0</ele><time>2026-04-24T15:42:38Z</time></trkpt><trkpt lat="45.66785065056144" lon="3.0673091603533877"><ele>604.0</ele><time>2026-04-24T15:42:39Z</time></trkpt><trkpt lat="45.66778990834019" lon="3.0672671228690676"><ele>604.0</ele><time>2026-04-24T15:42:40Z</time></trkpt><trkpt lat="45.66768282675626" lon="3.067224122517883"><ele>604.0</ele><time>2026-04-24T15:42:41Z</time></trkpt><trkpt lat="45.66751768643959" lon="3.0671603617665775"><ele>604.0</ele><time>2026-04-24T15:42:42Z</time></trkpt><trkpt lat="45.667339896247086" lon="3.0670897311712113"><ele>603.3333333333334</ele><time>2026-04-24T15:42:43Z</time></trkpt><trkpt lat="45.66715894884597" lon="3.067008394938642"><ele>602.6666666666666</ele><time>2026-04-24T15:42:44Z</time></trkpt><trkpt lat="45.667022832368176" lon="3.066941760188964"><ele>602.0</ele><time>2026-04-24T15:42:45Z</time></trkpt><trkpt lat="45.66690528023214" lon="3.0668692613835566"><ele>602.0</ele><time>2026-04-24T15:42:46Z</time></trkpt><trkpt lat="45.66678675270664" lon="3.0667830063410393"><ele>602.0</ele><time>2026-04-24T15:42:47Z</time></trkpt><trkpt lat="45.66667670431793" lon="3.0666828040615295"><ele>602.0</ele><time>2026-04-24T15:42:48Z</time></trkpt><trkpt lat="45.66656089691636" lon="3.066571335948888"><ele>602.0</ele><time>2026-04-24T15:42:49Z</time></trkpt><trkpt lat="45.66643497428074" lon="3.0664465420724127"><ele>601.2</ele><time>2026-04-24T15:42:50Z</time></trkpt><trkpt lat="45.666333094909994" lon="3.0663377583447526"><ele>600.4000000000001</ele><time>2026-04-24T15:42:51Z</time></trkpt><trkpt lat="45.66623312782756" lon="3.0662296449992774"><ele>599.5999999999999</ele><time>2026-04-24T15:42:52Z</time></trkpt><trkpt lat="45.666145580986864" lon="3.066137610370737"><ele>598.8</ele><time>2026-04-24T15:42:53Z</time></trkpt><trkpt lat="45.666071437629164" lon="3.066087682284355"><ele>598.0</ele><time>2026-04-24T15:42:54Z</time></trkpt><trkpt lat="45.665985165826555" lon="3.0659956602773564"><ele>597.8</ele><time>2026-04-24T15:42:55Z</time></trkpt><trkpt lat="45.665899086927006" lon="3.0659181733948166"><ele>597.5999999999999</ele><time>2026-04-24T15:42:56Z</time></trkpt><trkpt lat="45.665805131265486" lon="3.0658620070999327"><ele>597.4000000000001</ele><time>2026-04-24T15:42:57Z</time></trkpt><trkpt lat="45.66570782086335" lon="3.0658205848182964"><ele>597.2</ele><time>2026-04-24T15:42:58Z</time></trkpt><trkpt lat="45.665597630313876" lon="3.06582306235483"><ele>597.0</ele><time>2026-04-24T15:42:59Z</time></trkpt><trkpt lat="45.66548833642939" lon="3.0659095895758135"><ele>597.0</ele><time>2026-04-24T15:43:00Z</time></trkpt><trkpt lat="45.66536842269874" lon="3.065941355263841"><ele>597.0</ele><time>2026-04-24T15:43:01Z</time></trkpt><trkpt lat="45.66526182882909" lon="3.065964419546451"><ele>597.0</ele><time>2026-04-24T15:43:02Z</time></trkpt><trkpt lat="45.66514691339879" lon="3.065977620131524"><ele>597.0</ele><time>2026-04-24T15:43:03Z</time></trkpt><trkpt lat="45.66503821037681" lon="3.0659728795950003"><ele>597.0</ele><time>2026-04-24T15:43:04Z</time></trkpt><trkpt lat="45.66493460341599" lon="3.0659476695616013"><ele>597.0</ele><time>2026-04-24T15:43:05Z</time></trkpt><trkpt lat="45.6648186562115" lon="3.0659093993850552"><ele>597.0</ele><time>2026-04-24T15:43:06Z</time></trkpt><trkpt lat="45.66465892564278" lon="3.0658780588430132"><ele>597.0</ele><time>2026-04-24T15:43:07Z</time></trkpt><trkpt lat="45.664451670873454" lon="3.0657903663212553"><ele>597.5</ele><time>2026-04-24T15:43:08Z</time></trkpt><trkpt lat="45.664350866806245" lon="3.06576240679232"><ele>598.0</ele><time>2026-04-24T15:43:09Z</time></trkpt><trkpt lat="45.66428615998733" lon="3.0657459364116915"><ele>598.5</ele><time>2026-04-24T15:43:10Z</time></trkpt><trkpt lat="45.66417670664915" lon="3.065722798371784"><ele>599.0</ele><time>2026-04-24T15:43:12Z</time></trkpt><trkpt lat="45.66399029849713" lon="3.0657454486778306"><ele>599.0</ele><time>2026-04-24T15:43:13Z</time></trkpt><trkpt lat="45.663918052364586" lon="3.0657588627614096"><ele>599.0</ele><time>2026-04-24T15:43:14Z</time></trkpt><trkpt lat="45.663859211530806" lon="3.065808110279824"><ele>599.0</ele><time>2026-04-24T15:43:15Z</time></trkpt><trkpt lat="45.66375544302943" lon="3.065870253916202"><ele>599.0</ele><time>2026-04-24T15:43:17Z</time></trkpt><trkpt lat="45.663712170115915" lon="3.065943013038273"><ele>599.0</ele><time>2026-04-24T15:43:18Z</time></trkpt><trkpt lat="45.663649464676055" lon="3.06602640190345"><ele>599.0</ele><time>2026-04-24T15:43:19Z</time></trkpt><trkpt lat="45.66358909585288" lon="3.0661276853110144"><ele>599.3333333333333</ele><time>2026-04-24T15:43:20Z</time></trkpt><trkpt lat="45.663545265173425" lon="3.066207580846903"><ele>599.6666666666666</ele><time>2026-04-24T15:43:21Z</time></trkpt><trkpt lat="45.663491132962726" lon="3.0662924359381796"><ele>600.0</ele><time>2026-04-24T15:43:22Z</time></trkpt><trkpt lat="45.66343971604311" lon="3.06638603692557"><ele>600.3333333333334</ele><time>2026-04-24T15:43:23Z</time></trkpt><trkpt lat="45.663388299527995" lon="3.0664809771097774"><ele>600.6666666666667</ele><time>2026-04-24T15:43:24Z</time></trkpt><trkpt lat="45.66335369692293" lon="3.066575547384702"><ele>601.0</ele><time>2026-04-24T15:43:25Z</time></trkpt><trkpt lat="45.6633051691649" lon="3.0666388498135415"><ele>601.0</ele><time>2026-04-24T15:43:26Z</time></trkpt><trkpt lat="45.663258050718525" lon="3.066743170955932"><ele>601.0</ele><time>2026-04-24T15:43:28Z</time></trkpt><trkpt lat="45.663134222292804" lon="3.0666972903018834"><ele>601.0</ele><time>2026-04-24T15:43:31Z</time></trkpt><trkpt lat="45.663089670307855" lon="3.0666320763257686"><ele>601.0</ele><time>2026-04-24T15:43:32Z</time></trkpt><trkpt lat="45.66303005945256" lon="3.0665632219354073"><ele>601.0</ele><time>2026-04-24T15:43:33Z</time></trkpt><trkpt lat="45.662950921928754" lon="3.0664924199452748"><ele>601.0</ele><time>2026-04-24T15:43:34Z</time></trkpt><trkpt lat="45.66287626934554" lon="3.0664260342028635"><ele>601.8</ele><time>2026-04-24T15:43:35Z</time></trkpt><trkpt lat="45.662795977005096" lon="3.066353093161969"><ele>602.6</ele><time>2026-04-24T15:43:36Z</time></trkpt><trkpt lat="45.662719707998875" lon="3.0662864690567138"><ele>603.4</ele><time>2026-04-24T15:43:37Z</time></trkpt><trkpt lat="45.66264026921284" lon="3.0661862681125718"><ele>604.2</ele><time>2026-04-24T15:43:39Z</time></trkpt><trkpt lat="45.66259263593764" lon="3.066042480508208"><ele>605.0</ele><time>2026-04-24T15:43:41Z</time></trkpt><trkpt lat="45.662568170334644" lon="3.065945678076796"><ele>605.0</ele><time>2026-04-24T15:43:42Z</time></trkpt><trkpt lat="45.66250880420423" lon="3.0657800045198638"><ele>605.0</ele><time>2026-04-24T15:43:44Z</time></trkpt><trkpt lat="45.66247075912229" lon="3.065651038869403"><ele>605.0</ele><time>2026-04-24T15:43:46.001Z</time></trkpt><trkpt lat="45.66243170658252" lon="3.065528386122412"><ele>605.0</ele><time>2026-04-24T15:43:48.001Z</time></trkpt><trkpt lat="45.662433541918695" lon="3.0653653836426353"><ele>605.0</ele><time>2026-04-24T15:43:50.001Z</time></trkpt><trkpt lat="45.66246336777084" lon="3.0652712767199626"><ele>605.0</ele><time>2026-04-24T15:43:51.001Z</time></trkpt><trkpt lat="45.662492618169026" lon="3.0651467494359523"><ele>605.0</ele><time>2026-04-24T15:43:53.001Z</time></trkpt><trkpt lat="45.66246215965131" lon="3.064973532900516"><ele>605.0</ele><time>2026-04-24T15:43:55.001Z</time></trkpt><trkpt lat="45.66246854558874" lon="3.0648589115124674"><ele>605.0</ele><time>2026-04-24T15:43:56.001Z</time></trkpt><trkpt lat="45.662474677230676" lon="3.0647618656799662"><ele>605.0</ele><time>2026-04-24T15:43:57.001Z</time></trkpt><trkpt lat="45.66247816987681" lon="3.0646703313527865"><ele>605.0</ele><time>2026-04-24T15:43:58.001Z</time></trkpt><trkpt lat="45.662468236005815" lon="3.0645176742214226"><ele>605.0</ele><time>2026-04-24T15:44:00.001Z</time></trkpt><trkpt lat="45.66246157671095" lon="3.0644048679030274"><ele>605.0</ele><time>2026-04-24T15:44:02.001Z</time></trkpt><trkpt lat="45.66247218048761" lon="3.0643069543927908"><ele>605.0</ele><time>2026-04-24T15:44:05.001Z</time></trkpt><trkpt lat="45.6624907141209" lon="3.0642206972333663"><ele>605.0</ele><time>2026-04-24T15:44:07.001Z</time></trkpt><trkpt lat="45.66246802005411" lon="3.0641172565439017"><ele>605.0</ele><time>2026-04-24T15:44:08.001Z</time></trkpt><trkpt lat="45.66245042736895" lon="3.063953812154919"><ele>605.0</ele><time>2026-04-24T15:44:09.001Z</time></trkpt><trkpt lat="45.66244531404284" lon="3.063770747073279"><ele>605.6</ele><time>2026-04-24T15:44:10Z</time></trkpt><trkpt lat="45.66247115378971" lon="3.063863814716545"><ele>606.2</ele><time>2026-04-24T15:44:11Z</time></trkpt><trkpt lat="45.66252708758119" lon="3.0636797651843612"><ele>606.8</ele><time>2026-04-24T15:44:13Z</time></trkpt><trkpt lat="45.66257199908581" lon="3.0635880415864705"><ele>607.4</ele><time>2026-04-24T15:44:14Z</time></trkpt><trkpt lat="45.662621013193615" lon="3.063513224335455"><ele>608.0</ele><time>2026-04-24T15:44:15Z</time></trkpt><trkpt lat="45.6626674762356" lon="3.0633779438004596"><ele>608.1999999999999</ele><time>2026-04-24T15:44:17Z</time></trkpt><trkpt lat="45.66267366563585" lon="3.0631998608186795"><ele>608.4</ele><time>2026-04-24T15:44:19Z</time></trkpt><trkpt lat="45.66269160180446" lon="3.0630447388439244"><ele>608.5999999999999</ele><time>2026-04-24T15:44:21Z</time></trkpt><trkpt lat="45.662711257403494" lon="3.062906886176173"><ele>608.8</ele><time>2026-04-24T15:44:23Z</time></trkpt><trkpt lat="45.66269764954313" lon="3.0628097141376536"><ele>609.0</ele><time>2026-04-24T15:44:25Z</time></trkpt><trkpt lat="45.662624271632886" lon="3.0627473906946987"><ele>609.0</ele><time>2026-04-24T15:44:29Z</time></trkpt><trkpt lat="45.662622221498225" lon="3.0626410647376616"><ele>609.0</ele><time>2026-04-24T15:44:32Z</time></trkpt><trkpt lat="45.662689884512154" lon="3.0626328582013285"><ele>609.0</ele><time>2026-04-24T15:44:36Z</time></trkpt><trkpt lat="45.66270310425372" lon="3.0625188467797533"><ele>609.0</ele><time>2026-04-24T15:44:41Z</time></trkpt><trkpt lat="45.66270849435477" lon="3.0624235840485547"><ele>609.0</ele><time>2026-04-24T15:44:43Z</time></trkpt><trkpt lat="45.662748548887954" lon="3.062309137568406"><ele>609.0</ele><time>2026-04-24T15:44:46Z</time></trkpt><trkpt lat="45.66276803436163" lon="3.062203407578038"><ele>608.8</ele><time>2026-04-24T15:44:48Z</time></trkpt><trkpt lat="45.66280289659784" lon="3.0620717658293573"><ele>608.5999999999999</ele><time>2026-04-24T15:44:50Z</time></trkpt><trkpt lat="45.66283274518953" lon="3.0619867693605722"><ele>608.4</ele><time>2026-04-24T15:44:52Z</time></trkpt><trkpt lat="45.662887320419344" lon="3.0618402466606485"><ele>608.1999999999999</ele><time>2026-04-24T15:44:54Z</time></trkpt><trkpt lat="45.662893342201194" lon="3.0617259761935336"><ele>608.0</ele><time>2026-04-24T15:44:57Z</time></trkpt><trkpt lat="45.662811380371636" lon="3.061664838214288"><ele>609.1666666666666</ele><time>2026-04-24T15:44:59.001Z</time></trkpt><trkpt lat="45.662742441426" lon="3.0615809199314157"><ele>610.3333333333333</ele><time>2026-04-24T15:45:01.001Z</time></trkpt><trkpt lat="45.662712563718394" lon="3.0614843147824793"><ele>611.5</ele><time>2026-04-24T15:45:03.001Z</time></trkpt><trkpt lat="45.662661067575705" lon="3.061390204970608"><ele>612.6666666666666</ele><time>2026-04-24T15:45:05.001Z</time></trkpt><trkpt lat="45.662621625699956" lon="3.0612772042122387"><ele>613.8333333333334</ele><time>2026-04-24T15:45:07.001Z</time></trkpt><trkpt lat="45.662584154079894" lon="3.061175935682992"><ele>615.0</ele><time>2026-04-24T15:45:09.001Z</time></trkpt><trkpt lat="45.66254731931715" lon="3.0610836489421414"><ele>615.0</ele><time>2026-04-24T15:45:11.001Z</time></trkpt><trkpt lat="45.66247301260211" lon="3.060986533424235"><ele>615.0</ele><time>2026-04-24T15:45:13.001Z</time></trkpt><trkpt lat="45.6623926818589" lon="3.0609087462035873"><ele>615.0</ele><time>2026-04-24T15:45:15.001Z</time></trkpt><trkpt lat="45.66230536986449" lon="3.060885233685643"><ele>615.0</ele><time>2026-04-24T15:45:17.001Z</time></trkpt><trkpt lat="45.662255831922224" lon="3.0608149631058352"><ele>615.0</ele><time>2026-04-24T15:45:19.001Z</time></trkpt><trkpt lat="45.66221141672789" lon="3.0606915092418983"><ele>615.3333333333334</ele><time>2026-04-24T15:45:21.001Z</time></trkpt><trkpt lat="45.66214610950464" lon="3.0606049608136865"><ele>615.6666666666666</ele><time>2026-04-24T15:45:24.001Z</time></trkpt><trkpt lat="45.662091962131846" lon="3.0605216563981337"><ele>616.0</ele><time>2026-04-24T15:45:26.001Z</time></trkpt><trkpt lat="45.66203062745083" lon="3.0604597047843747"><ele>616.3333333333333</ele><time>2026-04-24T15:45:28.001Z</time></trkpt><trkpt lat="45.66196103709933" lon="3.0603753400831177"><ele>616.6666666666666</ele><time>2026-04-24T15:45:30.001Z</time></trkpt><trkpt lat="45.66191448459623" lon="3.0602459308682706"><ele>617.0</ele><time>2026-04-24T15:45:32.001Z</time></trkpt><trkpt lat="45.66189340257015" lon="3.0601282014376516"><ele>617.0</ele><time>2026-04-24T15:45:34.001Z</time></trkpt><trkpt lat="45.661795297459314" lon="3.0600536678202603"><ele>617.0</ele><time>2026-04-24T15:45:37.001Z</time></trkpt><trkpt lat="45.661701018702125" lon="3.0599812098665775"><ele>617.0</ele><time>2026-04-24T15:45:39.001Z</time></trkpt><trkpt lat="45.6616296854298" lon="3.0599420458126376"><ele>617.0</ele><time>2026-04-24T15:45:41.001Z</time></trkpt><trkpt lat="45.66153153626968" lon="3.059892602975326"><ele>617.0</ele><time>2026-04-24T15:45:43.001Z</time></trkpt><trkpt lat="45.66144886759217" lon="3.0598424856037387"><ele>617.0</ele><time>2026-04-24T15:45:45.001Z</time></trkpt><trkpt lat="45.661383937953936" lon="3.0598500861597553"><ele>617.0</ele><time>2026-04-24T15:45:47.001Z</time></trkpt><trkpt lat="45.66131848464252" lon="3.059854088219148"><ele>617.0</ele><time>2026-04-24T15:45:49.001Z</time></trkpt><trkpt lat="45.66128666365732" lon="3.0597164957773466"><ele>617.0</ele><time>2026-04-24T15:45:51.001Z</time></trkpt><trkpt lat="45.6612495275445" lon="3.0596004358337145"><ele>617.0</ele><time>2026-04-24T15:45:52.001Z</time></trkpt><trkpt lat="45.66121069665451" lon="3.059480457818005"><ele>617.0</ele><time>2026-04-24T15:45:54.001Z</time></trkpt><trkpt lat="45.6611620599957" lon="3.059411434424608"><ele>617.0</ele><time>2026-04-24T15:45:56.001Z</time></trkpt><trkpt lat="45.66114970100823" lon="3.059316498213259"><ele>617.0</ele><time>2026-04-24T15:45:58.001Z</time></trkpt><trkpt lat="45.66108104337896" lon="3.0593306162235594"><ele>617.0</ele><time>2026-04-24T15:46:01.001Z</time></trkpt><trkpt lat="45.660993873466275" lon="3.0593105901886237"><ele>617.0</ele><time>2026-04-24T15:46:03.001Z</time></trkpt><trkpt lat="45.66090983572755" lon="3.059235568720585"><ele>617.0</ele><time>2026-04-24T15:46:05.001Z</time></trkpt><trkpt lat="45.660830260194416" lon="3.059213517754115"><ele>617.0</ele><time>2026-04-24T15:46:09.001Z</time></trkpt><trkpt lat="45.66077185412394" lon="3.059168247047157"><ele>617.0</ele><time>2026-04-24T15:46:12.001Z</time></trkpt><trkpt lat="45.66068075468313" lon="3.059125840397236"><ele>617.0</ele><time>2026-04-24T15:46:14.001Z</time></trkpt><trkpt lat="45.66061142982203" lon="3.059095308061677"><ele>617.0</ele><time>2026-04-24T15:46:15.001Z</time></trkpt><trkpt lat="45.66053807518104" lon="3.0590644982218076"><ele>617.0</ele><time>2026-04-24T15:46:16.001Z</time></trkpt><trkpt lat="45.66046196347371" lon="3.059011440773928"><ele>617.0</ele><time>2026-04-24T15:46:18.001Z</time></trkpt><trkpt lat="45.66039823647448" lon="3.0589926478951797"><ele>617.0</ele><time>2026-04-24T15:46:20.001Z</time></trkpt><trkpt lat="45.66030040838273" lon="3.059060106290274"><ele>616.8333333333333</ele><time>2026-04-24T15:46:22.001Z</time></trkpt><trkpt lat="45.660234964001745" lon="3.0590716859709763"><ele>616.6666666666666</ele><time>2026-04-24T15:46:23.001Z</time></trkpt><trkpt lat="45.66015748597518" lon="3.0589662869544036"><ele>616.5</ele><time>2026-04-24T15:46:26Z</time></trkpt><trkpt lat="45.660193055725856" lon="3.058833560244068"><ele>616.3333333333334</ele><time>2026-04-24T15:46:29Z</time></trkpt><trkpt lat="45.66019740805882" lon="3.058737874465107"><ele>616.1666666666667</ele><time>2026-04-24T15:46:31Z</time></trkpt><trkpt lat="45.66017858751026" lon="3.0586430831252334"><ele>616.0</ele><time>2026-04-24T15:46:33Z</time></trkpt><trkpt lat="45.66020260922261" lon="3.058532998745082"><ele>616.0</ele><time>2026-04-24T15:46:36Z</time></trkpt><trkpt lat="45.66018732152129" lon="3.05844223035555"><ele>616.0</ele><time>2026-04-24T15:46:38Z</time></trkpt><trkpt lat="45.66017602150465" lon="3.0582832063977725"><ele>616.0</ele><time>2026-04-24T15:46:40Z</time></trkpt><trkpt lat="45.66015698362899" lon="3.058158594668625"><ele>616.0</ele><time>2026-04-24T15:46:42Z</time></trkpt><trkpt lat="45.66016303600431" lon="3.0580619571273866"><ele>616.0</ele><time>2026-04-24T15:46:44Z</time></trkpt><trkpt lat="45.660198841245865" lon="3.0579590811485313"><ele>616.0</ele><time>2026-04-24T15:46:46Z</time></trkpt><trkpt lat="45.66020521321009" lon="3.0578597232863904"><ele>616.2857142857143</ele><time>2026-04-24T15:46:48Z</time></trkpt><trkpt lat="45.66020264964244" lon="3.057765043123886"><ele>616.5714285714286</ele><time>2026-04-24T15:46:52Z</time></trkpt><trkpt lat="45.660199372720776" lon="3.0576608976922777"><ele>616.8571428571429</ele><time>2026-04-24T15:46:56Z</time></trkpt><trkpt lat="45.66021196479532" lon="3.0575724035293232"><ele>617.1428571428571</ele><time>2026-04-24T15:46:58Z</time></trkpt><trkpt lat="45.6601496847565" lon="3.057495033487631"><ele>617.4285714285714</ele><time>2026-04-24T15:47:02Z</time></trkpt><trkpt lat="45.66013341759187" lon="3.057378419888347"><ele>617.7142857142858</ele><time>2026-04-24T15:47:05Z</time></trkpt><trkpt lat="45.66009877611" lon="3.057288011356954"><ele>618.0</ele><time>2026-04-24T15:47:08Z</time></trkpt><trkpt lat="45.66007977514582" lon="3.057183221915722"><ele>618.8</ele><time>2026-04-24T15:48:00Z</time></trkpt><trkpt lat="45.66008602514763" lon="3.057093509505891"><ele>619.5999999999999</ele><time>2026-04-24T15:48:01Z</time></trkpt><trkpt lat="45.66010781800789" lon="3.056946259864022"><ele>620.4000000000001</ele><time>2026-04-24T15:48:03Z</time></trkpt><trkpt lat="45.660095541469786" lon="3.0567280215326678"><ele>621.2</ele><time>2026-04-24T15:48:05Z</time></trkpt><trkpt lat="45.66006525142314" lon="3.0566192020419045"><ele>622.0</ele><time>2026-04-24T15:48:06Z</time></trkpt><trkpt lat="45.66006064401539" lon="3.056484204844407"><ele>622.4</ele><time>2026-04-24T15:48:07Z</time></trkpt><trkpt lat="45.66006071747932" lon="3.0563628663045743"><ele>622.8000000000001</ele><time>2026-04-24T15:48:09.001Z</time></trkpt><trkpt lat="45.66008076890957" lon="3.056244706063558"><ele>623.2</ele><time>2026-04-24T15:48:11.001Z</time></trkpt><trkpt lat="45.66001985791726" lon="3.0561704332078605"><ele>623.6</ele><time>2026-04-24T15:48:14.001Z</time></trkpt><trkpt lat="45.65992615561793" lon="3.0560900990011786"><ele>624.0</ele><time>2026-04-24T15:48:16.001Z</time></trkpt><trkpt lat="45.65982421212144" lon="3.0560195797940524"><ele>624.0</ele><time>2026-04-24T15:48:18.001Z</time></trkpt><trkpt lat="45.65974063974966" lon="3.0559408249374704"><ele>624.0</ele><time>2026-04-24T15:48:20.001Z</time></trkpt><trkpt lat="45.65966610502535" lon="3.0558658982359117"><ele>624.0</ele><time>2026-04-24T15:48:22.001Z</time></trkpt><trkpt lat="45.65956555751471" lon="3.055846809928153"><ele>624.0</ele><time>2026-04-24T15:48:49Z</time></trkpt><trkpt lat="45.659432561704016" lon="3.0558681750193735"><ele>624.0</ele><time>2026-04-24T15:48:52Z</time></trkpt><trkpt lat="45.659333891443" lon="3.055896378504188"><ele>623.6</ele><time>2026-04-24T15:48:53Z</time></trkpt><trkpt lat="45.659208018156264" lon="3.0559450751076573"><ele>623.2</ele><time>2026-04-24T15:48:54Z</time></trkpt><trkpt lat="45.659104713235294" lon="3.0559974063063464"><ele>622.8000000000001</ele><time>2026-04-24T15:48:55Z</time></trkpt><trkpt lat="45.65901475689977" lon="3.056054016733001"><ele>622.4</ele><time>2026-04-24T15:48:56Z</time></trkpt><trkpt lat="45.65894175692375" lon="3.056107008159251"><ele>622.0</ele><time>2026-04-24T15:48:57Z</time></trkpt><trkpt lat="45.65887651606142" lon="3.056131168570475"><ele>622.0</ele><time>2026-04-24T15:48:58Z</time></trkpt><trkpt lat="45.65877342247109" lon="3.0561598505921146"><ele>622.0</ele><time>2026-04-24T15:49:00Z</time></trkpt><trkpt lat="45.658687117132104" lon="3.056138373670719"><ele>622.0</ele><time>2026-04-24T15:49:03Z</time></trkpt><trkpt lat="45.65857177043579" lon="3.0561717860888504"><ele>622.0</ele><time>2026-04-24T15:49:13Z</time></trkpt><trkpt lat="45.65851966963595" lon="3.056241372972735"><ele>622.0</ele><time>2026-04-24T15:49:15Z</time></trkpt><trkpt lat="45.658465701536954" lon="3.0562932988906177"><ele>622.0</ele><time>2026-04-24T15:49:17Z</time></trkpt><trkpt lat="45.65839704699597" lon="3.0563398167279043"><ele>621.6666666666667</ele><time>2026-04-24T15:49:19Z</time></trkpt><trkpt lat="45.65833112715215" lon="3.0563500701408577"><ele>621.3333333333334</ele><time>2026-04-24T15:49:20Z</time></trkpt><trkpt lat="45.65828617472042" lon="3.0564212144137914"><ele>621.0</ele><time>2026-04-24T15:49:22Z</time></trkpt><trkpt lat="45.658185171499404" lon="3.0564894347791065"><ele>620.6666666666666</ele><time>2026-04-24T15:49:24Z</time></trkpt><trkpt lat="45.658113872866316" lon="3.0564654753730385"><ele>620.3333333333333</ele><time>2026-04-24T15:49:26Z</time></trkpt><trkpt lat="45.65803809950385" lon="3.056528282650273"><ele>620.0</ele><time>2026-04-24T15:49:28Z</time></trkpt><trkpt lat="45.65800463400461" lon="3.056609914980463"><ele>619.6666666666666</ele><time>2026-04-24T15:49:29Z</time></trkpt><trkpt lat="45.657938393764596" lon="3.0566886458020193"><ele>619.3333333333333</ele><time>2026-04-24T15:49:32Z</time></trkpt><trkpt lat="45.65792200960367" lon="3.0567909488249616"><ele>619.0</ele><time>2026-04-24T15:49:34Z</time></trkpt><trkpt lat="45.65787357892952" lon="3.056865776527327"><ele>618.6666666666666</ele><time>2026-04-24T15:49:36Z</time></trkpt><trkpt lat="45.657793499295664" lon="3.0568592280149334"><ele>618.3333333333334</ele><time>2026-04-24T15:49:38Z</time></trkpt><trkpt lat="45.65771213664087" lon="3.056812597907837"><ele>618.0</ele><time>2026-04-24T15:49:40Z</time></trkpt><trkpt lat="45.65764182455921" lon="3.0568147497102913"><ele>618.0</ele><time>2026-04-24T15:49:42Z</time></trkpt><trkpt lat="45.65757131759206" lon="3.0568183788576477"><ele>618.0</ele><time>2026-04-24T15:49:44Z</time></trkpt><trkpt lat="45.65750491379976" lon="3.056794985510565"><ele>618.0</ele><time>2026-04-24T15:49:46Z</time></trkpt><trkpt lat="45.65743252997428" lon="3.0568240758603693"><ele>618.0</ele><time>2026-04-24T15:49:50Z</time></trkpt><trkpt lat="45.65735789742306" lon="3.0569123988902516"><ele>618.0</ele><time>2026-04-24T15:49:52Z</time></trkpt><trkpt lat="45.65734161987648" lon="3.0570180611011213"><ele>618.0</ele><time>2026-04-24T15:50:17.001Z</time></trkpt><trkpt lat="45.65732551871622" lon="3.0571154612205995"><ele>618.0</ele><time>2026-04-24T15:50:19.001Z</time></trkpt><trkpt lat="45.657306838365436" lon="3.05724562990169"><ele>618.0</ele><time>2026-04-24T15:50:20.001Z</time></trkpt><trkpt lat="45.65726390846042" lon="3.057327646635045"><ele>618.0</ele><time>2026-04-24T15:50:21.001Z</time></trkpt><trkpt lat="45.657227368071425" lon="3.057423758815851"><ele>618.0</ele><time>2026-04-24T15:50:22.001Z</time></trkpt><trkpt lat="45.657164081229126" lon="3.05753491171826"><ele>618.0</ele><time>2026-04-24T15:50:23.001Z</time></trkpt><trkpt lat="45.65712011675975" lon="3.0576152666837073"><ele>618.0</ele><time>2026-04-24T15:50:24Z</time></trkpt><trkpt lat="45.65706767942084" lon="3.0576727391038685"><ele>617.7142857142858</ele><time>2026-04-24T15:50:25Z</time></trkpt><trkpt lat="45.65699915190957" lon="3.0577137423613814"><ele>617.4285714285714</ele><time>2026-04-24T15:50:26Z</time></trkpt><trkpt lat="45.656947058555986" lon="3.057773342832696"><ele>617.1428571428571</ele><time>2026-04-24T15:50:27Z</time></trkpt><trkpt lat="45.65688625194418" lon="3.0578212211607183"><ele>616.8571428571429</ele><time>2026-04-24T15:50:28Z</time></trkpt><trkpt lat="45.65683414513017" lon="3.0578801080534364"><ele>616.5714285714286</ele><time>2026-04-24T15:50:29Z</time></trkpt><trkpt lat="45.656768065302124" lon="3.0579539848292643"><ele>616.2857142857143</ele><time>2026-04-24T15:50:30Z</time></trkpt><trkpt lat="45.65671424385207" lon="3.0580318943838773"><ele>616.0</ele><time>2026-04-24T15:50:31Z</time></trkpt><trkpt lat="45.65666999886108" lon="3.0581125214759415"><ele>615.8333333333334</ele><time>2026-04-24T15:50:32Z</time></trkpt><trkpt lat="45.65663222874522" lon="3.0582096111907964"><ele>615.6666666666667</ele><time>2026-04-24T15:50:33Z</time></trkpt><trkpt lat="45.656593747761" lon="3.058329223746449"><ele>615.5</ele><time>2026-04-24T15:50:34Z</time></trkpt><trkpt lat="45.656559069350806" lon="3.0584487047545985"><ele>615.3333333333334</ele><time>2026-04-24T15:50:35Z</time></trkpt><trkpt lat="45.6565165840037" lon="3.0585392441954777"><ele>615.1666666666666</ele><time>2026-04-24T15:50:36Z</time></trkpt><trkpt lat="45.65648018170145" lon="3.0586266089654286"><ele>615.0</ele><time>2026-04-24T15:50:37Z</time></trkpt><trkpt lat="45.656435015661685" lon="3.058732601661517"><ele>615.0</ele><time>2026-04-24T15:50:38Z</time></trkpt><trkpt lat="45.65639976504679" lon="3.058839505503262"><ele>615.0</ele><time>2026-04-24T15:50:39Z</time></trkpt><trkpt lat="45.65637511841843" lon="3.058969147200832"><ele>615.0</ele><time>2026-04-24T15:50:40Z</time></trkpt><trkpt lat="45.65636725310217" lon="3.059102000360716"><ele>615.0</ele><time>2026-04-24T15:50:41Z</time></trkpt><trkpt lat="45.65637745820696" lon="3.0592291816654824"><ele>615.0</ele><time>2026-04-24T15:50:42Z</time></trkpt><trkpt lat="45.65639238805451" lon="3.059344815370839"><ele>615.0</ele><time>2026-04-24T15:50:43Z</time></trkpt><trkpt lat="45.65639253844428" lon="3.059456224686415"><ele>614.6666666666666</ele><time>2026-04-24T15:50:44Z</time></trkpt><trkpt lat="45.65638626571466" lon="3.059553683114377"><ele>614.3333333333334</ele><time>2026-04-24T15:50:45Z</time></trkpt><trkpt lat="45.656394412505946" lon="3.0596611259028292"><ele>614.0</ele><time>2026-04-24T15:50:46Z</time></trkpt><trkpt lat="45.65638991110542" lon="3.0597809375829215"><ele>613.6666666666667</ele><time>2026-04-24T15:50:47Z</time></trkpt><trkpt lat="45.65636840085739" lon="3.059896958366358"><ele>613.3333333333334</ele><time>2026-04-24T15:50:48Z</time></trkpt><trkpt lat="45.656359937774795" lon="3.0600041365363495"><ele>613.0</ele><time>2026-04-24T15:50:49Z</time></trkpt><trkpt lat="45.656351156852985" lon="3.060125697661114"><ele>613.0</ele><time>2026-04-24T15:50:50Z</time></trkpt><trkpt lat="45.656339162607985" lon="3.0602477145628044"><ele>613.0</ele><time>2026-04-24T15:50:51Z</time></trkpt><trkpt lat="45.656314690241764" lon="3.0603449987756113"><ele>613.0</ele><time>2026-04-24T15:50:52Z</time></trkpt><trkpt lat="45.65626696338263" lon="3.0604408028648242"><ele>613.0</ele><time>2026-04-24T15:50:53Z</time></trkpt><trkpt lat="45.6562061713175" lon="3.0605560646593197"><ele>613.0</ele><time>2026-04-24T15:50:54Z</time></trkpt><trkpt lat="45.65614682676554" lon="3.0606662723874467"><ele>613.0</ele><time>2026-04-24T15:50:55Z</time></trkpt><trkpt lat="45.65610042354287" lon="3.060752755815826"><ele>613.6</ele><time>2026-04-24T15:50:56Z</time></trkpt><trkpt lat="45.65606854281712" lon="3.0608369660976233"><ele>614.1999999999999</ele><time>2026-04-24T15:50:57Z</time></trkpt><trkpt lat="45.65605716708711" lon="3.0609565926314186"><ele>614.8</ele><time>2026-04-24T15:50:58Z</time></trkpt><trkpt lat="45.65605081500326" lon="3.061091792547817"><ele>615.4</ele><time>2026-04-24T15:50:59Z</time></trkpt><trkpt lat="45.65608092658718" lon="3.0612367385424992"><ele>616.0</ele><time>2026-04-24T15:51:00Z</time></trkpt><trkpt lat="45.656115962598214" lon="3.0613936641383734"><ele>615.8</ele><time>2026-04-24T15:51:01Z</time></trkpt><trkpt lat="45.65614195180298" lon="3.0615518265152226"><ele>615.6</ele><time>2026-04-24T15:51:02Z</time></trkpt><trkpt lat="45.65616974921413" lon="3.0616908304753823"><ele>615.4</ele><time>2026-04-24T15:51:03Z</time></trkpt><trkpt lat="45.65620872095533" lon="3.0618189201313326"><ele>615.2</ele><time>2026-04-24T15:51:04Z</time></trkpt><trkpt lat="45.656240645297075" lon="3.0619113644827483"><ele>615.0</ele><time>2026-04-24T15:51:05Z</time></trkpt><trkpt lat="45.656271254845656" lon="3.0620088245231782"><ele>615.0</ele><time>2026-04-24T15:51:06Z</time></trkpt><trkpt lat="45.65628943865406" lon="3.0621043994199444"><ele>615.0</ele><time>2026-04-24T15:51:07Z</time></trkpt><trkpt lat="45.656274284927015" lon="3.062200651830061"><ele>615.0</ele><time>2026-04-24T15:51:08Z</time></trkpt><trkpt lat="45.65623971297452" lon="3.0622974663011724"><ele>615.0</ele><time>2026-04-24T15:51:09Z</time></trkpt><trkpt lat="45.65619753255428" lon="3.062416070100991"><ele>615.0</ele><time>2026-04-24T15:51:10Z</time></trkpt><trkpt lat="45.65613378786329" lon="3.062540869267932"><ele>615.0</ele><time>2026-04-24T15:51:11Z</time></trkpt><trkpt lat="45.656083370268" lon="3.062637565777467"><ele>615.4</ele><time>2026-04-24T15:51:12Z</time></trkpt><trkpt lat="45.65604095733843" lon="3.0627534208704414"><ele>615.8</ele><time>2026-04-24T15:51:13Z</time></trkpt><trkpt lat="45.65602107927401" lon="3.0628759433487263"><ele>616.2</ele><time>2026-04-24T15:51:14Z</time></trkpt><trkpt lat="45.655989879866496" lon="3.063032273975657"><ele>616.6</ele><time>2026-04-24T15:51:15Z</time></trkpt><trkpt lat="45.65595243805548" lon="3.0631672955862257"><ele>617.0</ele><time>2026-04-24T15:51:16Z</time></trkpt><trkpt lat="45.65592441706801" lon="3.063313950157641"><ele>617.0</ele><time>2026-04-24T15:51:17Z</time></trkpt><trkpt lat="45.65590341585464" lon="3.0634673417169815"><ele>617.0</ele><time>2026-04-24T15:51:18Z</time></trkpt><trkpt lat="45.655902849144844" lon="3.06360598766719"><ele>617.0</ele><time>2026-04-24T15:51:19Z</time></trkpt><trkpt lat="45.65590871241539" lon="3.063710138578508"><ele>617.0</ele><time>2026-04-24T15:51:20Z</time></trkpt><trkpt lat="45.65587081596506" lon="3.063866393914739"><ele>617.0</ele><time>2026-04-24T15:51:22Z</time></trkpt><trkpt lat="45.65577838242345" lon="3.063966597079613"><ele>617.0</ele><time>2026-04-24T15:51:24Z</time></trkpt><trkpt lat="45.655724796713656" lon="3.0640257149417653"><ele>617.0</ele><time>2026-04-24T15:51:25Z</time></trkpt><trkpt lat="45.65567699285289" lon="3.064098058530637"><ele>617.0</ele><time>2026-04-24T15:51:26Z</time></trkpt><trkpt lat="45.65562993288164" lon="3.064193090737394"><ele>617.0</ele><time>2026-04-24T15:51:27Z</time></trkpt><trkpt lat="45.655569834993045" lon="3.064302092922188"><ele>617.0</ele><time>2026-04-24T15:51:28Z</time></trkpt><trkpt lat="45.65550329418432" lon="3.0643750473381646"><ele>617.0</ele><time>2026-04-24T15:51:29Z</time></trkpt><trkpt lat="45.655455457524994" lon="3.064446696631961"><ele>616.8333333333333</ele><time>2026-04-24T15:51:30Z</time></trkpt><trkpt lat="45.65543275933883" lon="3.0645376574844225"><ele>616.6666666666666</ele><time>2026-04-24T15:51:31Z</time></trkpt><trkpt lat="45.65543692569347" lon="3.0646464536774185"><ele>616.5</ele><time>2026-04-24T15:51:32Z</time></trkpt><trkpt lat="45.65544124848438" lon="3.064767423024047"><ele>616.3333333333334</ele><time>2026-04-24T15:51:33Z</time></trkpt><trkpt lat="45.65544735072109" lon="3.0649089353916144"><ele>616.1666666666667</ele><time>2026-04-24T15:51:34Z</time></trkpt><trkpt lat="45.65545949763123" lon="3.065019757472014"><ele>616.0</ele><time>2026-04-24T15:51:35Z</time></trkpt><trkpt lat="45.655468395825196" lon="3.0651338043608316"><ele>615.6666666666667</ele><time>2026-04-24T15:51:36Z</time></trkpt><trkpt lat="45.655475484667356" lon="3.0652383682953923"><ele>615.3333333333334</ele><time>2026-04-24T15:51:37Z</time></trkpt><trkpt lat="45.65548071772203" lon="3.0653499964986826"><ele>615.0</ele><time>2026-04-24T15:51:38Z</time></trkpt><trkpt lat="45.65546183187471" lon="3.0654877948857826"><ele>614.6666666666666</ele><time>2026-04-24T15:51:39Z</time></trkpt><trkpt lat="45.65546872269507" lon="3.0656029600187744"><ele>614.3333333333333</ele><time>2026-04-24T15:51:40Z</time></trkpt><trkpt lat="45.655485722403014" lon="3.0656909387893667"><ele>614.0</ele><time>2026-04-24T15:51:41Z</time></trkpt><trkpt lat="45.65549404564464" lon="3.0657826164078092"><ele>612.8571428571428</ele><time>2026-04-24T15:51:42Z</time></trkpt><trkpt lat="45.65548819805668" lon="3.0658728561856594"><ele>611.7142857142857</ele><time>2026-04-24T15:51:43Z</time></trkpt><trkpt lat="45.65547681090834" lon="3.065972203049773"><ele>610.5714285714286</ele><time>2026-04-24T15:51:44Z</time></trkpt><trkpt lat="45.65546720731301" lon="3.066067815401773"><ele>609.4285714285713</ele><time>2026-04-24T15:51:45Z</time></trkpt><trkpt lat="45.65545078586098" lon="3.0661717147338043"><ele>608.2857142857142</ele><time>2026-04-24T15:51:46Z</time></trkpt><trkpt lat="45.65543523867204" lon="3.0662695149645396"><ele>607.1428571428571</ele><time>2026-04-24T15:51:47Z</time></trkpt><trkpt lat="45.655409941252124" lon="3.0663699280311176"><ele>606.0</ele><time>2026-04-24T15:51:48Z</time></trkpt><trkpt lat="45.65538707221866" lon="3.0664816781350717"><ele>606.0</ele><time>2026-04-24T15:51:49Z</time></trkpt><trkpt lat="45.65536852074954" lon="3.0665987295408503"><ele>606.0</ele><time>2026-04-24T15:51:50Z</time></trkpt><trkpt lat="45.65535154885192" lon="3.066717050449893"><ele>606.0</ele><time>2026-04-24T15:51:51Z</time></trkpt><trkpt lat="45.655342753726714" lon="3.066830812295383"><ele>606.0</ele><time>2026-04-24T15:51:52Z</time></trkpt><trkpt lat="45.6553380142779" lon="3.066948951849473"><ele>606.0</ele><time>2026-04-24T15:51:53Z</time></trkpt><trkpt lat="45.6553432178886" lon="3.067058851713021"><ele>606.0</ele><time>2026-04-24T15:51:54Z</time></trkpt><trkpt lat="45.655358990656325" lon="3.067160184775369"><ele>603.8</ele><time>2026-04-24T15:51:55Z</time></trkpt><trkpt lat="45.65540717994858" lon="3.067338947314221"><ele>601.6</ele><time>2026-04-24T15:51:57Z</time></trkpt><trkpt lat="45.655439903330254" lon="3.0674232829708883"><ele>599.4</ele><time>2026-04-24T15:51:58Z</time></trkpt><trkpt lat="45.655500345285546" lon="3.0675522598361264"><ele>597.2</ele><time>2026-04-24T15:52:00Z</time></trkpt><trkpt lat="45.65555082827999" lon="3.0676950785124197"><ele>595.0</ele><time>2026-04-24T15:52:02Z</time></trkpt><trkpt lat="45.655562622775385" lon="3.067799325126308"><ele>595.3333333333334</ele><time>2026-04-24T15:52:04Z</time></trkpt><trkpt lat="45.65550808844941" lon="3.0678470528833115"><ele>595.6666666666667</ele><time>2026-04-24T15:52:07Z</time></trkpt><trkpt lat="45.65541543058833" lon="3.067802836486469"><ele>596.0</ele><time>2026-04-24T15:52:09Z</time></trkpt><trkpt lat="45.65531125882237" lon="3.0677241860551367"><ele>596.3333333333334</ele><time>2026-04-24T15:52:11Z</time></trkpt><trkpt lat="45.655265572871514" lon="3.0676488004996894"><ele>596.6666666666666</ele><time>2026-04-24T15:52:12Z</time></trkpt><trkpt lat="45.65519846430717" lon="3.067543782701777"><ele>597.0</ele><time>2026-04-24T15:52:13Z</time></trkpt><trkpt lat="45.65514003091883" lon="3.0674627838749133"><ele>599.0</ele><time>2026-04-24T15:52:14Z</time></trkpt><trkpt lat="45.65508539909883" lon="3.067354024055508"><ele>601.0</ele><time>2026-04-24T15:52:15Z</time></trkpt><trkpt lat="45.65499906832465" lon="3.0672059389464508"><ele>603.0</ele><time>2026-04-24T15:52:16Z</time></trkpt><trkpt lat="45.65489302074596" lon="3.0670889399716055"><ele>605.0</ele><time>2026-04-24T15:52:17Z</time></trkpt><trkpt lat="45.65482684021953" lon="3.067002532451476"><ele>605.0</ele><time>2026-04-24T15:52:18Z</time></trkpt><trkpt lat="45.65474545915616" lon="3.066936271043768"><ele>605.0</ele><time>2026-04-24T15:52:20Z</time></trkpt><trkpt lat="45.65460177941885" lon="3.0667246493780023"><ele>605.0</ele><time>2026-04-24T15:52:22Z</time></trkpt><trkpt lat="45.654521616469594" lon="3.0666014162653443"><ele>605.0</ele><time>2026-04-24T15:52:23Z</time></trkpt><trkpt lat="45.65443195205208" lon="3.066487392748601"><ele>609.8</ele><time>2026-04-24T15:52:24Z</time></trkpt><trkpt lat="45.654397432236365" lon="3.066402788911084"><ele>614.6</ele><time>2026-04-24T15:52:26Z</time></trkpt><trkpt lat="45.65435190295828" lon="3.066323990108354"><ele>619.4</ele><time>2026-04-24T15:52:27Z</time></trkpt><trkpt lat="45.65429900180896" lon="3.0661342975901054"><ele>624.2</ele><time>2026-04-24T15:52:29Z</time></trkpt><trkpt lat="45.65419714235214" lon="3.0660303173782495"><ele>629.0</ele><time>2026-04-24T15:52:30Z</time></trkpt><trkpt lat="45.654139125667804" lon="3.065944502333035"><ele>629.0</ele><time>2026-04-24T15:52:31Z</time></trkpt><trkpt lat="45.654084346713695" lon="3.065887346106597"><ele>629.0</ele><time>2026-04-24T15:52:33Z</time></trkpt><trkpt lat="45.6540266283739" lon="3.065798751516895"><ele>629.0</ele><time>2026-04-24T15:52:34Z</time></trkpt><trkpt lat="45.653978757085156" lon="3.0657190807124524"><ele>629.0</ele><time>2026-04-24T15:52:35Z</time></trkpt><trkpt lat="45.6538852948989" lon="3.0656246120839774"><ele>629.0</ele><time>2026-04-24T15:52:37Z</time></trkpt><trkpt lat="45.65377301073266" lon="3.065465317384451"><ele>630.4</ele><time>2026-04-24T15:52:39Z</time></trkpt><trkpt lat="45.653663293519394" lon="3.065295511698605"><ele>631.8</ele><time>2026-04-24T15:52:40Z</time></trkpt><trkpt lat="45.653604214350494" lon="3.065201748951494"><ele>633.2</ele><time>2026-04-24T15:52:41Z</time></trkpt><trkpt lat="45.65356726659965" lon="3.0651077272485914"><ele>634.6</ele><time>2026-04-24T15:52:42Z</time></trkpt><trkpt lat="45.65350517723523" lon="3.06500136520089"><ele>636.0</ele><time>2026-04-24T15:52:43Z</time></trkpt><trkpt lat="45.65344925245128" lon="3.064899293183146"><ele>641.0</ele><time>2026-04-24T15:52:46Z</time></trkpt><trkpt lat="45.6533443842061" lon="3.0647942210013834"><ele>646.0</ele><time>2026-04-24T15:52:48Z</time></trkpt><trkpt lat="45.65328927787506" lon="3.0647092070947077"><ele>651.0</ele><time>2026-04-24T15:52:49Z</time></trkpt><trkpt lat="45.65322709412911" lon="3.0646170039098743"><ele>656.0</ele><time>2026-04-24T15:52:50Z</time></trkpt><trkpt lat="45.65314817154469" lon="3.064524394786275"><ele>661.0</ele><time>2026-04-24T15:52:51Z</time></trkpt><trkpt lat="45.653093425780995" lon="3.064459423942504"><ele>661.0</ele><time>2026-04-24T15:52:52Z</time></trkpt><trkpt lat="45.65303213327256" lon="3.0644086362750556"><ele>661.0</ele><time>2026-04-24T15:52:54Z</time></trkpt><trkpt lat="45.65298849349411" lon="3.064312729423459"><ele>661.0</ele><time>2026-04-24T15:52:56Z</time></trkpt><trkpt lat="45.65292834601307" lon="3.064249351486273"><ele>661.0</ele><time>2026-04-24T15:52:58Z</time></trkpt><trkpt lat="45.65286092001035" lon="3.064163335456986"><ele>661.0</ele><time>2026-04-24T15:53:00Z</time></trkpt><trkpt lat="45.65280024943939" lon="3.064094222295116"><ele>661.0</ele><time>2026-04-24T15:53:03Z</time></trkpt><trkpt lat="45.65274718650881" lon="3.064037374917243"><ele>663.1999999999999</ele><time>2026-04-24T15:53:09Z</time></trkpt><trkpt lat="45.65268424171904" lon="3.063954079214884"><ele>665.4</ele><time>2026-04-24T15:53:11Z</time></trkpt><trkpt lat="45.652750448163346" lon="3.063839490461232"><ele>667.6</ele><time>2026-04-24T15:53:14Z</time></trkpt><trkpt lat="45.652875858335996" lon="3.063867204308779"><ele>669.8</ele><time>2026-04-24T15:53:16Z</time></trkpt><trkpt lat="45.65297957705775" lon="3.0638859243010383"><ele>672.0</ele><time>2026-04-24T15:53:17Z</time></trkpt><trkpt lat="45.65308941067643" lon="3.063926915216185"><ele>672.0</ele><time>2026-04-24T15:53:18Z</time></trkpt><trkpt lat="45.65318367605119" lon="3.0639282096996197"><ele>672.0</ele><time>2026-04-24T15:53:19Z</time></trkpt><trkpt lat="45.65325541466733" lon="3.063937940277908"><ele>672.0</ele><time>2026-04-24T15:53:20Z</time></trkpt><trkpt lat="45.653310274850625" lon="3.0638891006544053"><ele>672.0</ele><time>2026-04-24T15:53:22Z</time></trkpt><trkpt lat="45.653357041852004" lon="3.0637606494175684"><ele>672.0</ele><time>2026-04-24T15:53:24Z</time></trkpt><trkpt lat="45.653387498503434" lon="3.06366805744532"><ele>672.0</ele><time>2026-04-24T15:53:25Z</time></trkpt><trkpt lat="45.653427273676236" lon="3.0635832962005747"><ele>672.0</ele><time>2026-04-24T15:53:26Z</time></trkpt><trkpt lat="45.65347656738178" lon="3.0634733189020733"><ele>672.0</ele><time>2026-04-24T15:53:28Z</time></trkpt><trkpt lat="45.653540455879956" lon="3.0633495203207413"><ele>672.0</ele><time>2026-04-24T15:53:30Z</time></trkpt><trkpt lat="45.653554549914915" lon="3.063222165800202"><ele>672.0</ele><time>2026-04-24T15:53:32Z</time></trkpt><trkpt lat="45.653496700848514" lon="3.0631217137215248"><ele>672.0</ele><time>2026-04-24T15:53:34Z</time></trkpt><trkpt lat="45.653413481651484" lon="3.063082229824423"><ele>673.5</ele><time>2026-04-24T15:53:36Z</time></trkpt><trkpt lat="45.65334122635548" lon="3.063091908268839"><ele>675.0</ele><time>2026-04-24T15:53:37Z</time></trkpt><trkpt lat="45.65327498759938" lon="3.063068194515968"><ele>676.5</ele><time>2026-04-24T15:53:38Z</time></trkpt><trkpt lat="45.65316758327396" lon="3.0629726307648832"><ele>678.0</ele><time>2026-04-24T15:53:40Z</time></trkpt><trkpt lat="45.65311929137025" lon="3.062911689522703"><ele>679.5</ele><time>2026-04-24T15:53:42Z</time></trkpt><trkpt lat="45.65309727645602" lon="3.062768070905515"><ele>681.0</ele><time>2026-04-24T15:53:45Z</time></trkpt><trkpt lat="45.65310804240063" lon="3.062631935955203"><ele>681.0</ele><time>2026-04-24T15:53:47Z</time></trkpt><trkpt lat="45.653158789065515" lon="3.062509510997914"><ele>681.0</ele><time>2026-04-24T15:53:49Z</time></trkpt><trkpt lat="45.65320477092458" lon="3.0624412497079345"><ele>684.0</ele><time>2026-04-24T15:53:51Z</time></trkpt><trkpt lat="45.653278440906625" lon="3.062428805111439"><ele>684.0</ele><time>2026-04-24T15:53:53Z</time></trkpt></trkseg><trkseg><trkpt lat="45.66216027535127" lon="3.078219118809185"><ele>553.0</ele><time>2026-04-24T16:21:36.999Z</time></trkpt><trkpt lat="45.66224984237437" lon="3.0782723643449814"><ele>551.0</ele><time>2026-04-24T16:21:38.999Z</time></trkpt><trkpt lat="45.662348314006536" lon="3.0783051823577763"><ele>549.0</ele><time>2026-04-24T16:21:40.999Z</time></trkpt><trkpt lat="45.66243750309536" lon="3.0784144154769355"><ele>547.0</ele><time>2026-04-24T16:21:42.999Z</time></trkpt><trkpt lat="45.66246651862122" lon="3.0785159067349204"><ele>545.0</ele><time>2026-04-24T16:21:45Z</time></trkpt><trkpt lat="45.66248965175329" lon="3.078638347421271"><ele>545.0</ele><time>2026-04-24T16:21:47Z</time></trkpt><trkpt lat="45.662518867475306" lon="3.0787464084145855"><ele>545.0</ele><time>2026-04-24T16:21:49Z</time></trkpt><trkpt lat="45.662560799238534" lon="3.0788539109903006"><ele>545.0</ele><time>2026-04-24T16:21:52Z</time></trkpt><trkpt lat="45.662624780263776" lon="3.078900674944446"><ele>545.0</ele><time>2026-04-24T16:22:19Z</time></trkpt><trkpt lat="45.66268565896886" lon="3.0789343123271182"><ele>545.0</ele><time>2026-04-24T16:22:21Z</time></trkpt><trkpt lat="45.6627455724721" lon="3.078819228322271"><ele>545.0</ele><time>2026-04-24T16:22:23Z</time></trkpt><trkpt lat="45.66275202036585" lon="3.0787040977595144"><ele>545.0</ele><time>2026-04-24T16:22:25Z</time></trkpt><trkpt lat="45.662682038734715" lon="3.0785338647447777"><ele>545.0</ele><time>2026-04-24T16:22:27Z</time></trkpt><trkpt lat="45.66268787355034" lon="3.078401384812997"><ele>545.0</ele><time>2026-04-24T16:22:28Z</time></trkpt><trkpt lat="45.6627222767876" lon="3.0783246553397543"><ele>545.0</ele><time>2026-04-24T16:22:29Z</time></trkpt><trkpt lat="45.66274162294514" lon="3.0781853984915593"><ele>545.0</ele><time>2026-04-24T16:22:31Z</time></trkpt><trkpt lat="45.66286178190523" lon="3.078154376514901"><ele>544.6</ele><time>2026-04-24T16:22:33Z</time></trkpt><trkpt lat="45.66294523677417" lon="3.0782423443089844"><ele>544.2</ele><time>2026-04-24T16:22:34Z</time></trkpt><trkpt lat="45.663061752225985" lon="3.078258456896649"><ele>543.8</ele><time>2026-04-24T16:22:35Z</time></trkpt><trkpt lat="45.66316089527866" lon="3.0782818695490843"><ele>543.4</ele><time>2026-04-24T16:22:36Z</time></trkpt><trkpt lat="45.663241761759615" lon="3.078316022477253"><ele>543.0</ele><time>2026-04-24T16:22:37Z</time></trkpt><trkpt lat="45.66331974950655" lon="3.0783483134655687"><ele>543.0</ele><time>2026-04-24T16:22:38Z</time></trkpt><trkpt lat="45.663398447088746" lon="3.0783570174830004"><ele>543.0</ele><time>2026-04-24T16:22:39Z</time></trkpt><trkpt lat="45.66347105594108" lon="3.078388354189967"><ele>543.0</ele><time>2026-04-24T16:22:40Z</time></trkpt><trkpt lat="45.663539333487435" lon="3.0783744706402816"><ele>543.0</ele><time>2026-04-24T16:22:41Z</time></trkpt><trkpt lat="45.663600664161706" lon="3.078346419326709"><ele>543.0</ele><time>2026-04-24T16:22:42Z</time></trkpt><trkpt lat="45.66366144581966" lon="3.078243136061257"><ele>543.0</ele><time>2026-04-24T16:22:43Z</time></trkpt><trkpt lat="45.66371571466769" lon="3.078151492025409"><ele>543.0</ele><time>2026-04-24T16:22:44Z</time></trkpt><trkpt lat="45.66376810445045" lon="3.0780618553288126"><ele>543.0</ele><time>2026-04-24T16:22:45Z</time></trkpt><trkpt lat="45.66382075284149" lon="3.077981879644445"><ele>543.0</ele><time>2026-04-24T16:22:46Z</time></trkpt><trkpt lat="45.66387617839286" lon="3.0779012438571813"><ele>543.0</ele><time>2026-04-24T16:22:47Z</time></trkpt><trkpt lat="45.663925672977825" lon="3.0778317518599603"><ele>543.0</ele><time>2026-04-24T16:22:48Z</time></trkpt><trkpt lat="45.6639749768675" lon="3.0777611772001277"><ele>543.0</ele><time>2026-04-24T16:22:49Z</time></trkpt><trkpt lat="45.664027184570116" lon="3.0776989501487266"><ele>543.0</ele><time>2026-04-24T16:22:50Z</time></trkpt><trkpt lat="45.66410472635278" lon="3.077585216221838"><ele>543.0</ele><time>2026-04-24T16:22:52Z</time></trkpt><trkpt lat="45.66416522644205" lon="3.077502263866082"><ele>543.0</ele><time>2026-04-24T16:22:54Z</time></trkpt><trkpt lat="45.66421403322319" lon="3.0774297707502973"><ele>543.0</ele><time>2026-04-24T16:22:57Z</time></trkpt><trkpt lat="45.66428645276267" lon="3.0773492104450266"><ele>543.0</ele><time>2026-04-24T16:23:00Z</time></trkpt><trkpt lat="45.664348136166055" lon="3.0772521005287543"><ele>543.0</ele><time>2026-04-24T16:23:02Z</time></trkpt><trkpt lat="45.664411732080175" lon="3.0771466317303116"><ele>543.0</ele><time>2026-04-24T16:23:04Z</time></trkpt><trkpt lat="45.66443858390077" lon="3.077063087679976"><ele>544.1999999999999</ele><time>2026-04-24T16:23:05Z</time></trkpt><trkpt lat="45.66447946675982" lon="3.076986724956308"><ele>545.4</ele><time>2026-04-24T16:23:06Z</time></trkpt><trkpt lat="45.6644981352577" lon="3.0768752106845"><ele>546.5999999999999</ele><time>2026-04-24T16:23:07Z</time></trkpt><trkpt lat="45.66450012879542" lon="3.0767307328972797"><ele>547.8</ele><time>2026-04-24T16:23:08Z</time></trkpt><trkpt lat="45.66449117993892" lon="3.0765291318248926"><ele>549.0</ele><time>2026-04-24T16:23:08.999Z</time></trkpt><trkpt lat="45.66448177978458" lon="3.0762790188473836"><ele>549.0</ele><time>2026-04-24T16:23:09.999Z</time></trkpt><trkpt lat="45.664489011891995" lon="3.0760743764543212"><ele>549.0</ele><time>2026-04-24T16:23:10.999Z</time></trkpt><trkpt lat="45.66449587366654" lon="3.0758953368406536"><ele>549.0</ele><time>2026-04-24T16:23:11.999Z</time></trkpt><trkpt lat="45.664488224746066" lon="3.0757442783584215"><ele>549.0</ele><time>2026-04-24T16:23:12.999Z</time></trkpt><trkpt lat="45.664490024943234" lon="3.0756053170115725"><ele>549.0</ele><time>2026-04-24T16:23:13.999Z</time></trkpt><trkpt lat="45.66447956815173" lon="3.0754727336862584"><ele>549.0</ele><time>2026-04-24T16:23:14.999Z</time></trkpt><trkpt lat="45.664366272531595" lon="3.075372197393327"><ele>549.0</ele><time>2026-04-24T16:23:15.999Z</time></trkpt><trkpt lat="45.66426293368453" lon="3.075213071664724"><ele>549.0</ele><time>2026-04-24T16:23:16.999Z</time></trkpt><trkpt lat="45.66420001955371" lon="3.0750447469657707"><ele>551.75</ele><time>2026-04-24T16:23:17.999Z</time></trkpt><trkpt lat="45.66411756462589" lon="3.074854667047779"><ele>554.5</ele><time>2026-04-24T16:23:18.999Z</time></trkpt><trkpt lat="45.66404687468105" lon="3.0746842926704625"><ele>557.25</ele><time>2026-04-24T16:23:19.999Z</time></trkpt><trkpt lat="45.66398083285134" lon="3.0745265501135335"><ele>560.0</ele><time>2026-04-24T16:23:20.999Z</time></trkpt><trkpt lat="45.66387226839299" lon="3.074284657825933"><ele>560.75</ele><time>2026-04-24T16:23:21.999Z</time></trkpt><trkpt lat="45.66377487647783" lon="3.074082478737816"><ele>561.5</ele><time>2026-04-24T16:23:23.999Z</time></trkpt><trkpt lat="45.663699167627804" lon="3.0739379213653373"><ele>562.25</ele><time>2026-04-24T16:23:24.999Z</time></trkpt><trkpt lat="45.66361894911561" lon="3.073787391033626"><ele>563.0</ele><time>2026-04-24T16:23:25.999Z</time></trkpt><trkpt lat="45.663567411284966" lon="3.073627283703388"><ele>563.0</ele><time>2026-04-24T16:23:26.999Z</time></trkpt><trkpt lat="45.66352683640007" lon="3.0735299325752683"><ele>563.0</ele><time>2026-04-24T16:23:27.999Z</time></trkpt><trkpt lat="45.663482864810675" lon="3.0734172853685697"><ele>563.0</ele><time>2026-04-24T16:23:28.999Z</time></trkpt><trkpt lat="45.66344756450952" lon="3.07331099354717"><ele>563.0</ele><time>2026-04-24T16:23:29.999Z</time></trkpt><trkpt lat="45.66340350844802" lon="3.073142619239549"><ele>563.0</ele><time>2026-04-24T16:23:30.999Z</time></trkpt><trkpt lat="45.66336255583608" lon="3.072954553656551"><ele>562.8</ele><time>2026-04-24T16:23:31.999Z</time></trkpt><trkpt lat="45.66332580723601" lon="3.0728071867944107"><ele>562.5999999999999</ele><time>2026-04-24T16:23:32.999Z</time></trkpt><trkpt lat="45.66330670372282" lon="3.0726693087474675"><ele>562.4000000000001</ele><time>2026-04-24T16:23:33.999Z</time></trkpt><trkpt lat="45.66334510857115" lon="3.0725477801311527"><ele>562.2</ele><time>2026-04-24T16:23:34.999Z</time></trkpt><trkpt lat="45.66337169860237" lon="3.072415079039325"><ele>562.0</ele><time>2026-04-24T16:23:35.999Z</time></trkpt><trkpt lat="45.663405701583606" lon="3.0723278369915827"><ele>563.0</ele><time>2026-04-24T16:23:36.999Z</time></trkpt><trkpt lat="45.66346940759584" lon="3.0722249557637897"><ele>564.0</ele><time>2026-04-24T16:23:38.999Z</time></trkpt><trkpt lat="45.6635573840844" lon="3.0719862509603924"><ele>565.0</ele><time>2026-04-24T16:23:42.999Z</time></trkpt><trkpt lat="45.66368444777515" lon="3.0719337517469256"><ele>566.0</ele><time>2026-04-24T16:23:43.999Z</time></trkpt><trkpt lat="45.66384048475508" lon="3.0724276896251563"><ele>566.6666666666666</ele><time>2026-04-24T16:23:47.999Z</time></trkpt><trkpt lat="45.66399142520979" lon="3.072454096073103"><ele>567.3333333333334</ele><time>2026-04-24T16:23:48.999Z</time></trkpt><trkpt lat="45.66386023196455" lon="3.072652074056015"><ele>568.0</ele><time>2026-04-24T16:23:49.999Z</time></trkpt><trkpt lat="45.663913521050745" lon="3.072894410369302"><ele>568.0</ele><time>2026-04-24T16:23:51Z</time></trkpt><trkpt lat="45.66389167476943" lon="3.0726742845885076"><ele>568.0</ele><time>2026-04-24T16:23:53Z</time></trkpt><trkpt lat="45.66391865934228" lon="3.0725812394374508"><ele>568.0</ele><time>2026-04-24T16:23:54Z</time></trkpt><trkpt lat="45.66399327719502" lon="3.0724947074863587"><ele>568.0</ele><time>2026-04-24T16:23:56Z</time></trkpt><trkpt lat="45.66401077594653" lon="3.0726140535353452"><ele>568.0</ele><time>2026-04-24T16:24:31Z</time></trkpt><trkpt lat="45.664002229850524" lon="3.0727815475476956"><ele>568.0</ele><time>2026-04-24T16:24:34Z</time></trkpt><trkpt lat="45.664017483610344" lon="3.0728926337507234"><ele>568.0</ele><time>2026-04-24T16:24:35Z</time></trkpt><trkpt lat="45.66410038190403" lon="3.072997648748375"><ele>568.0</ele><time>2026-04-24T16:24:37Z</time></trkpt><trkpt lat="45.664247935359754" lon="3.0729680017566974"><ele>568.0</ele><time>2026-04-24T16:24:39Z</time></trkpt><trkpt lat="45.66434869084967" lon="3.072829108206045"><ele>569.5</ele><time>2026-04-24T16:24:40Z</time></trkpt><trkpt lat="45.66445646074627" lon="3.072697922497118"><ele>571.0</ele><time>2026-04-24T16:24:41Z</time></trkpt><trkpt lat="45.66456819582879" lon="3.0725803194084143"><ele>572.5</ele><time>2026-04-24T16:24:42Z</time></trkpt><trkpt lat="45.66466229417911" lon="3.072482294728114"><ele>574.0</ele><time>2026-04-24T16:24:43Z</time></trkpt><trkpt lat="45.66476171410203" lon="3.072443835658341"><ele>574.0</ele><time>2026-04-24T16:24:44Z</time></trkpt><trkpt lat="45.66485859598097" lon="3.0724391656812986"><ele>574.0</ele><time>2026-04-24T16:24:45Z</time></trkpt><trkpt lat="45.664952542606876" lon="3.072466677687477"><ele>574.0</ele><time>2026-04-24T16:24:46Z</time></trkpt><trkpt lat="45.66509592009699" lon="3.072475840581514"><ele>574.0</ele><time>2026-04-24T16:24:47Z</time></trkpt><trkpt lat="45.66523047274836" lon="3.072503087495475"><ele>575.0</ele><time>2026-04-24T16:24:48Z</time></trkpt><trkpt lat="45.665338194433055" lon="3.072500102081072"><ele>576.0</ele><time>2026-04-24T16:24:49Z</time></trkpt><trkpt lat="45.665442395118184" lon="3.0724805702482736"><ele>577.0</ele><time>2026-04-24T16:24:50Z</time></trkpt><trkpt lat="45.66554931518685" lon="3.07243242906065"><ele>578.0</ele><time>2026-04-24T16:24:51Z</time></trkpt><trkpt lat="45.6656766124238" lon="3.0723456159955567"><ele>578.0</ele><time>2026-04-24T16:24:52Z</time></trkpt><trkpt lat="45.66582334325438" lon="3.072232053483743"><ele>578.0</ele><time>2026-04-24T16:24:53Z</time></trkpt><trkpt lat="45.6659911765684" lon="3.072128946007902"><ele>578.0</ele><time>2026-04-24T16:24:54Z</time></trkpt><trkpt lat="45.66612179337478" lon="3.0720512934038027"><ele>579.6</ele><time>2026-04-24T16:24:55Z</time></trkpt><trkpt lat="45.666235927042706" lon="3.0719832763609727"><ele>581.1999999999999</ele><time>2026-04-24T16:24:56Z</time></trkpt><trkpt lat="45.66631838820804" lon="3.071881106642092"><ele>582.8</ele><time>2026-04-24T16:24:57Z</time></trkpt><trkpt lat="45.66636860380463" lon="3.0717780592106925"><ele>584.4</ele><time>2026-04-24T16:24:58Z</time></trkpt><trkpt lat="45.66641465184675" lon="3.071670396501372"><ele>586.0</ele><time>2026-04-24T16:24:59Z</time></trkpt><trkpt lat="45.666461870121175" lon="3.0715545262905266"><ele>586.0</ele><time>2026-04-24T16:25:00Z</time></trkpt><trkpt lat="45.6665206992229" lon="3.071409136023749"><ele>586.0</ele><time>2026-04-24T16:25:00.999Z</time></trkpt><trkpt lat="45.66660227157135" lon="3.0712201199798432"><ele>586.0</ele><time>2026-04-24T16:25:01.999Z</time></trkpt><trkpt lat="45.666665062986375" lon="3.071018942674871"><ele>586.0</ele><time>2026-04-24T16:25:02.999Z</time></trkpt><trkpt lat="45.66668696660492" lon="3.0708584361315627"><ele>587.0</ele><time>2026-04-24T16:25:03.999Z</time></trkpt><trkpt lat="45.666742122028246" lon="3.0707327446069392"><ele>588.0</ele><time>2026-04-24T16:25:04.999Z</time></trkpt><trkpt lat="45.66677089105988" lon="3.0706063824341707"><ele>589.0</ele><time>2026-04-24T16:25:05.999Z</time></trkpt><trkpt lat="45.66682029010751" lon="3.0705141125621216"><ele>590.0</ele><time>2026-04-24T16:25:06.999Z</time></trkpt><trkpt lat="45.66689900796349" lon="3.070405734306654"><ele>591.0</ele><time>2026-04-24T16:25:07.999Z</time></trkpt><trkpt lat="45.66698882546378" lon="3.0702423324426786"><ele>593.5</ele><time>2026-04-24T16:25:08.999Z</time></trkpt><trkpt lat="45.6670878461618" lon="3.0700455102018456"><ele>596.0</ele><time>2026-04-24T16:25:09.999Z</time></trkpt><trkpt lat="45.66715978627067" lon="3.069900861379821"><ele>598.5</ele><time>2026-04-24T16:25:10.999Z</time></trkpt><trkpt lat="45.66724571319607" lon="3.0697502293101397"><ele>601.0</ele><time>2026-04-24T16:25:11.999Z</time></trkpt><trkpt lat="45.667345442483544" lon="3.0695818746026333"><ele>601.0</ele><time>2026-04-24T16:25:12.999Z</time></trkpt><trkpt lat="45.66743138438502" lon="3.069450810053946"><ele>601.0</ele><time>2026-04-24T16:25:13.999Z</time></trkpt><trkpt lat="45.66749962952343" lon="3.0693429400101064"><ele>601.0</ele><time>2026-04-24T16:25:14.999Z</time></trkpt><trkpt lat="45.667540615640355" lon="3.0692313310889605"><ele>601.0</ele><time>2026-04-24T16:25:15.999Z</time></trkpt><trkpt lat="45.667578681278336" lon="3.069092279048445"><ele>601.0</ele><time>2026-04-24T16:25:16.999Z</time></trkpt><trkpt lat="45.667599848067745" lon="3.068918697900237"><ele>601.6</ele><time>2026-04-24T16:25:17.999Z</time></trkpt><trkpt lat="45.6676060195653" lon="3.0687940032824756"><ele>602.2</ele><time>2026-04-24T16:25:18.999Z</time></trkpt><trkpt lat="45.66760727327274" lon="3.068653513855078"><ele>602.8</ele><time>2026-04-24T16:25:19.999Z</time></trkpt><trkpt lat="45.667592307713605" lon="3.0684823447345386"><ele>603.4</ele><time>2026-04-24T16:25:20.999Z</time></trkpt><trkpt lat="45.66759221973547" lon="3.068358199065841"><ele>604.0</ele><time>2026-04-24T16:25:21.999Z</time></trkpt><trkpt lat="45.667620953545956" lon="3.068256602894826"><ele>604.25</ele><time>2026-04-24T16:25:22.999Z</time></trkpt><trkpt lat="45.667639879056814" lon="3.0680942775218027"><ele>604.5</ele><time>2026-04-24T16:25:23.999Z</time></trkpt><trkpt lat="45.66769679363408" lon="3.0678726789382504"><ele>604.75</ele><time>2026-04-24T16:25:24.999Z</time></trkpt><trkpt lat="45.667741273497754" lon="3.0676815368311274"><ele>605.0</ele><time>2026-04-24T16:25:25.999Z</time></trkpt><trkpt lat="45.66780081792487" lon="3.067549001123773"><ele>604.8</ele><time>2026-04-24T16:25:26.999Z</time></trkpt><trkpt lat="45.66784206862835" lon="3.0674533559746067"><ele>604.6</ele><time>2026-04-24T16:25:27.999Z</time></trkpt><trkpt lat="45.667894209549424" lon="3.0673553447014075"><ele>604.4</ele><time>2026-04-24T16:25:29.999Z</time></trkpt><trkpt lat="45.66798389890002" lon="3.067315611403854"><ele>604.2</ele><time>2026-04-24T16:25:32.999Z</time></trkpt><trkpt lat="45.66809374117344" lon="3.067349436276781"><ele>604.0</ele><time>2026-04-24T16:25:34.999Z</time></trkpt><trkpt lat="45.668201339843996" lon="3.067461008841407"><ele>605.25</ele><time>2026-04-24T16:25:35.999Z</time></trkpt><trkpt lat="45.668327205415636" lon="3.067498825549373"><ele>606.5</ele><time>2026-04-24T16:25:36.999Z</time></trkpt><trkpt lat="45.66848220504796" lon="3.0675639518552993"><ele>607.75</ele><time>2026-04-24T16:25:37.999Z</time></trkpt><trkpt lat="45.668623781522996" lon="3.0676136468343933"><ele>609.0</ele><time>2026-04-24T16:25:38.999Z</time></trkpt><trkpt lat="45.668739338808535" lon="3.067694043009957"><ele>610.0</ele><time>2026-04-24T16:25:39.999Z</time></trkpt><trkpt lat="45.668831908994655" lon="3.0677624054542814"><ele>611.0</ele><time>2026-04-24T16:25:40.999Z</time></trkpt><trkpt lat="45.66891203716074" lon="3.0678767838817937"><ele>612.0</ele><time>2026-04-24T16:25:41.999Z</time></trkpt><trkpt lat="45.66900350678287" lon="3.06803366729327"><ele>613.0</ele><time>2026-04-24T16:25:42.999Z</time></trkpt><trkpt lat="45.66910025534249" lon="3.0682458875610488"><ele>615.6666666666667</ele><time>2026-04-24T16:25:43.999Z</time></trkpt><trkpt lat="45.66917930205551" lon="3.068462292467557"><ele>618.3333333333334</ele><time>2026-04-24T16:25:44.999Z</time></trkpt><trkpt lat="45.66925608408763" lon="3.0686778572368665"><ele>621.0</ele><time>2026-04-24T16:25:45.999Z</time></trkpt><trkpt lat="45.66930975127548" lon="3.068823795248944"><ele>621.0</ele><time>2026-04-24T16:25:46.999Z</time></trkpt><trkpt lat="45.66935525232506" lon="3.068939733153221"><ele>621.0</ele><time>2026-04-24T16:25:47.999Z</time></trkpt><trkpt lat="45.66940757135008" lon="3.0690185758302406"><ele>621.0</ele><time>2026-04-24T16:25:48.999Z</time></trkpt><trkpt lat="45.669460531988186" lon="3.0691116882962866"><ele>621.0</ele><time>2026-04-24T16:25:49.999Z</time></trkpt><trkpt lat="45.66952012069488" lon="3.069175956100505"><ele>621.0</ele><time>2026-04-24T16:25:50.999Z</time></trkpt><trkpt lat="45.669620199185836" lon="3.0692581659589293"><ele>621.0</ele><time>2026-04-24T16:25:51.999Z</time></trkpt><trkpt lat="45.669699151246924" lon="3.0693940952528664"><ele>624.4</ele><time>2026-04-24T16:25:52.999Z</time></trkpt><trkpt lat="45.66975570788224" lon="3.0694863885995787"><ele>627.8</ele><time>2026-04-24T16:25:53.999Z</time></trkpt><trkpt lat="45.66984008592349" lon="3.0696156145996376"><ele>631.1999999999999</ele><time>2026-04-24T16:25:54.999Z</time></trkpt><trkpt lat="45.66992758045132" lon="3.0697058156710537"><ele>634.6</ele><time>2026-04-24T16:25:55.999Z</time></trkpt><trkpt lat="45.669987852962116" lon="3.0697693448023697"><ele>638.0</ele><time>2026-04-24T16:25:57Z</time></trkpt><trkpt lat="45.67008396090027" lon="3.0698322621053906"><ele>638.0</ele><time>2026-04-24T16:25:59Z</time></trkpt><trkpt lat="45.670153033570664" lon="3.0698618653266534"><ele>638.0</ele><time>2026-04-24T16:26:00Z</time></trkpt><trkpt lat="45.67025341890598" lon="3.0699139272181903"><ele>638.0</ele><time>2026-04-24T16:26:01Z</time></trkpt><trkpt lat="45.67037611749432" lon="3.0699763371274216"><ele>638.0</ele><time>2026-04-24T16:26:02Z</time></trkpt><trkpt lat="45.67051466809482" lon="3.070052000788081"><ele>644.6666666666666</ele><time>2026-04-24T16:26:03Z</time></trkpt><trkpt lat="45.670673588204636" lon="3.0701425529641164"><ele>651.3333333333334</ele><time>2026-04-24T16:26:04Z</time></trkpt><trkpt lat="45.670832782881554" lon="3.070232838689263"><ele>658.0</ele><time>2026-04-24T16:26:05Z</time></trkpt><trkpt lat="45.670937693498715" lon="3.0702900808421907"><ele>658.0</ele><time>2026-04-24T16:26:06Z</time></trkpt><trkpt lat="45.671014137228" lon="3.070351980568831"><ele>658.0</ele><time>2026-04-24T16:26:07Z</time></trkpt><trkpt lat="45.671072190322896" lon="3.0703938444628904"><ele>658.0</ele><time>2026-04-24T16:26:08Z</time></trkpt><trkpt lat="45.67112000223914" lon="3.0704708886193544"><ele>658.0</ele><time>2026-04-24T16:26:10Z</time></trkpt><trkpt lat="45.67114496733594" lon="3.0706031939407796"><ele>658.0</ele><time>2026-04-24T16:26:12Z</time></trkpt><trkpt lat="45.671199816603384" lon="3.0707084379785994"><ele>658.0</ele><time>2026-04-24T16:26:14Z</time></trkpt><trkpt lat="45.6712656834394" lon="3.0707895872748754"><ele>661.0</ele><time>2026-04-24T16:26:15Z</time></trkpt><trkpt lat="45.67135571968543" lon="3.070898426628112"><ele>664.0</ele><time>2026-04-24T16:26:16Z</time></trkpt><trkpt lat="45.67146493484476" lon="3.0710297382706453"><ele>667.0</ele><time>2026-04-24T16:26:17Z</time></trkpt><trkpt lat="45.67157905451345" lon="3.071201177283165"><ele>670.0</ele><time>2026-04-24T16:26:18Z</time></trkpt><trkpt lat="45.67173221537866" lon="3.071344790321169"><ele>670.0</ele><time>2026-04-24T16:26:19Z</time></trkpt><trkpt lat="45.67187755585113" lon="3.0715557715194297"><ele>670.0</ele><time>2026-04-24T16:26:20Z</time></trkpt><trkpt lat="45.67203711338381" lon="3.0717834180709533"><ele>670.0</ele><time>2026-04-24T16:26:21Z</time></trkpt><trkpt lat="45.67219329163411" lon="3.0720091667662524"><ele>670.3333333333334</ele><time>2026-04-24T16:26:22Z</time></trkpt><trkpt lat="45.6723190200466" lon="3.072190901501197"><ele>670.6666666666666</ele><time>2026-04-24T16:26:23Z</time></trkpt><trkpt lat="45.67243109191656" lon="3.072323197730428"><ele>671.0</ele><time>2026-04-24T16:26:24Z</time></trkpt><trkpt lat="45.672534073939055" lon="3.0724652778404717"><ele>670.75</ele><time>2026-04-24T16:26:25Z</time></trkpt><trkpt lat="45.67263365875364" lon="3.0725906467496795"><ele>670.5</ele><time>2026-04-24T16:26:26Z</time></trkpt><trkpt lat="45.67274149827689" lon="3.072703930713248"><ele>670.25</ele><time>2026-04-24T16:26:27Z</time></trkpt><trkpt lat="45.67284899729923" lon="3.0728000445424852"><ele>670.0</ele><time>2026-04-24T16:26:28Z</time></trkpt><trkpt lat="45.67295674800519" lon="3.0728891027382286"><ele>670.0</ele><time>2026-04-24T16:26:29Z</time></trkpt><trkpt lat="45.67305518440171" lon="3.0729802058236855"><ele>670.0</ele><time>2026-04-24T16:26:30Z</time></trkpt><trkpt lat="45.67314823574162" lon="3.0730722323309556"><ele>670.0</ele><time>2026-04-24T16:26:31Z</time></trkpt><trkpt lat="45.67323257477545" lon="3.0731648117219184"><ele>670.0</ele><time>2026-04-24T16:26:32Z</time></trkpt><trkpt lat="45.67330223219486" lon="3.0732837556962407"><ele>670.0</ele><time>2026-04-24T16:26:33Z</time></trkpt><trkpt lat="45.67338704421448" lon="3.0733778187342127"><ele>669.4</ele><time>2026-04-24T16:26:34Z</time></trkpt><trkpt lat="45.67345696664323" lon="3.0734855307151565"><ele>668.8</ele><time>2026-04-24T16:26:35Z</time></trkpt><trkpt lat="45.673514489589614" lon="3.073607522030872"><ele>668.2</ele><time>2026-04-24T16:26:36Z</time></trkpt><trkpt lat="45.67359320251814" lon="3.0736999277326422"><ele>667.6</ele><time>2026-04-24T16:26:37Z</time></trkpt><trkpt lat="45.673661800895125" lon="3.0738030256764675"><ele>667.0</ele><time>2026-04-24T16:26:38Z</time></trkpt><trkpt lat="45.67372919907174" lon="3.073895372902568"><ele>666.1666666666667</ele><time>2026-04-24T16:26:39Z</time></trkpt><trkpt lat="45.67377880374044" lon="3.0739702268498723"><ele>665.3333333333334</ele><time>2026-04-24T16:26:40Z</time></trkpt><trkpt lat="45.673829358483054" lon="3.0740246198019623"><ele>664.5</ele><time>2026-04-24T16:26:41Z</time></trkpt><trkpt lat="45.67388892813579" lon="3.0740653084544687"><ele>663.6666666666666</ele><time>2026-04-24T16:26:42Z</time></trkpt><trkpt lat="45.67398113942758" lon="3.074164625295638"><ele>662.8333333333333</ele><time>2026-04-24T16:26:44Z</time></trkpt><trkpt lat="45.67408610696461" lon="3.074249619754837"><ele>662.0</ele><time>2026-04-24T16:26:46Z</time></trkpt><trkpt lat="45.674196599912285" lon="3.0743404414644417"><ele>661.5</ele><time>2026-04-24T16:26:48Z</time></trkpt><trkpt lat="45.67425415499512" lon="3.0743834797961336"><ele>661.0</ele><time>2026-04-24T16:26:49Z</time></trkpt><trkpt lat="45.674309832134" lon="3.0744581740658297"><ele>660.5</ele><time>2026-04-24T16:26:50Z</time></trkpt><trkpt lat="45.674377551302875" lon="3.074506601342853"><ele>660.0</ele><time>2026-04-24T16:26:51Z</time></trkpt><trkpt lat="45.6744442470087" lon="3.074566720865042"><ele>659.5</ele><time>2026-04-24T16:26:52Z</time></trkpt><trkpt lat="45.674560720777215" lon="3.0746483366883153"><ele>659.0</ele><time>2026-04-24T16:26:54Z</time></trkpt><trkpt lat="45.674622613023054" lon="3.074700680392653"><ele>657.25</ele><time>2026-04-24T16:26:55Z</time></trkpt><trkpt lat="45.67472122252551" lon="3.074765670809273"><ele>655.5</ele><time>2026-04-24T16:26:57Z</time></trkpt><trkpt lat="45.67483437073416" lon="3.074828680167099"><ele>653.75</ele><time>2026-04-24T16:26:59Z</time></trkpt><trkpt lat="45.674931961150044" lon="3.0748799220275385"><ele>652.0</ele><time>2026-04-24T16:27:01Z</time></trkpt><trkpt lat="45.67504605942046" lon="3.074938452550421"><ele>646.0</ele><time>2026-04-24T16:27:03Z</time></trkpt><trkpt lat="45.67513619972432" lon="3.0750543682230354"><ele>646.0</ele><time>2026-04-24T16:27:05Z</time></trkpt><trkpt lat="45.67518972015397" lon="3.075117162176283"><ele>646.0</ele><time>2026-04-24T16:27:06Z</time></trkpt><trkpt lat="45.675243465049604" lon="3.075174598767663"><ele>646.0</ele><time>2026-04-24T16:27:07Z</time></trkpt><trkpt lat="45.675314541295776" lon="3.075273421613568"><ele>645.0</ele><time>2026-04-24T16:27:09Z</time></trkpt></trkseg></trk></gpx>